<?xml version="1.0" encoding="UTF-8" standalone="no" ?>
<gpx xmlns="http://www.topografix.com/GPX/1/1" xmlns:xsi="http://www.w3.org/2001/XMLSchema-instance" xsi:schemaLocation="http://www.topografix.com/GPX/1/1 http://www.topografix.com/GPX/1/1/gpx.xsd" version="1.1" creator="VisuGPX - https://www.visugpx.com">
  <metadata>
    <name>Mont lachat de chatillon</name>
    <desc><![CDATA[a faire quand station fermé]]></desc>
  </metadata>
  <trk>
    <name><![CDATA[mont lachat de chatillo, par les pistes]]></name>
    <desc><![CDATA[premieresortie de l'année]]></desc>
    <trkseg>
      <trkpt lat="45.96879" lon="6.45051">
        <ele>1258</ele>
        <time>2012-11-30T12:57:16.000Z</time>
      </trkpt>
      <trkpt lat="45.96879" lon="6.45058">
        <ele>1259.4000244141</ele>
        <time>2012-11-30T12:57:21.000Z</time>
      </trkpt>
      <trkpt lat="45.9688" lon="6.45066">
        <ele>1260.8000488281</ele>
        <time>2012-11-30T12:57:27.000Z</time>
      </trkpt>
      <trkpt lat="45.96881" lon="6.45073">
        <ele>1262.1999511719</ele>
        <time>2012-11-30T12:57:32.000Z</time>
      </trkpt>
      <trkpt lat="45.96883" lon="6.45077">
        <ele>1263.1999511719</ele>
        <time>2012-11-30T12:57:36.000Z</time>
      </trkpt>
      <trkpt lat="45.96884" lon="6.45081">
        <ele>1263.5999755859</ele>
        <time>2012-11-30T12:57:39.000Z</time>
      </trkpt>
      <trkpt lat="45.96884" lon="6.45088">
        <ele>1265.5999755859</ele>
        <time>2012-11-30T12:57:43.000Z</time>
      </trkpt>
      <trkpt lat="45.96885" lon="6.45092">
        <ele>1266</ele>
        <time>2012-11-30T12:57:46.000Z</time>
      </trkpt>
      <trkpt lat="45.96885" lon="6.45098">
        <ele>1266.5999755859</ele>
        <time>2012-11-30T12:57:52.000Z</time>
      </trkpt>
      <trkpt lat="45.96886" lon="6.45102">
        <ele>1266.5999755859</ele>
        <time>2012-11-30T12:57:56.000Z</time>
      </trkpt>
      <trkpt lat="45.96887" lon="6.45109">
        <ele>1268.4000244141</ele>
        <time>2012-11-30T12:58:02.000Z</time>
      </trkpt>
      <trkpt lat="45.96888" lon="6.45114">
        <ele>1269.4000244141</ele>
        <time>2012-11-30T12:58:07.000Z</time>
      </trkpt>
      <trkpt lat="45.96889" lon="6.4512">
        <ele>1271</ele>
        <time>2012-11-30T12:58:12.000Z</time>
      </trkpt>
      <trkpt lat="45.96891" lon="6.45128">
        <ele>1272.8000488281</ele>
        <time>2012-11-30T12:58:19.000Z</time>
      </trkpt>
      <trkpt lat="45.96894" lon="6.45135">
        <ele>1273.8000488281</ele>
        <time>2012-11-30T12:58:26.000Z</time>
      </trkpt>
      <trkpt lat="45.96897" lon="6.45142">
        <ele>1276.1999511719</ele>
        <time>2012-11-30T12:58:33.000Z</time>
      </trkpt>
      <trkpt lat="45.96899" lon="6.45149">
        <ele>1278.1999511719</ele>
        <time>2012-11-30T12:58:39.000Z</time>
      </trkpt>
      <trkpt lat="45.969" lon="6.45155">
        <ele>1279.5999755859</ele>
        <time>2012-11-30T12:58:45.000Z</time>
      </trkpt>
      <trkpt lat="45.96902" lon="6.4516">
        <ele>1280.5999755859</ele>
        <time>2012-11-30T12:58:49.000Z</time>
      </trkpt>
      <trkpt lat="45.96904" lon="6.45166">
        <ele>1280.5999755859</ele>
        <time>2012-11-30T12:58:55.000Z</time>
      </trkpt>
      <trkpt lat="45.96907" lon="6.45173">
        <ele>1280.5999755859</ele>
        <time>2012-11-30T12:59:01.000Z</time>
      </trkpt>
      <trkpt lat="45.96909" lon="6.45178">
        <ele>1282</ele>
        <time>2012-11-30T12:59:07.000Z</time>
      </trkpt>
      <trkpt lat="45.9691" lon="6.45181">
        <ele>1282.4000244141</ele>
        <time>2012-11-30T12:59:11.000Z</time>
      </trkpt>
      <trkpt lat="45.96908" lon="6.45185">
        <ele>1283.8000488281</ele>
        <time>2012-11-30T12:59:17.000Z</time>
      </trkpt>
      <trkpt lat="45.96909" lon="6.45185">
        <ele>1284.4000244141</ele>
        <time>2012-11-30T12:59:21.000Z</time>
      </trkpt>
      <trkpt lat="45.96912" lon="6.45187">
        <ele>1284.8000488281</ele>
        <time>2012-11-30T12:59:25.000Z</time>
      </trkpt>
      <trkpt lat="45.96917" lon="6.45193">
        <ele>1285.4000244141</ele>
        <time>2012-11-30T12:59:31.000Z</time>
      </trkpt>
      <trkpt lat="45.96919" lon="6.45199">
        <ele>1287.1999511719</ele>
        <time>2012-11-30T12:59:37.000Z</time>
      </trkpt>
      <trkpt lat="45.96922" lon="6.45202">
        <ele>1287.8000488281</ele>
        <time>2012-11-30T12:59:41.000Z</time>
      </trkpt>
      <trkpt lat="45.96924" lon="6.45208">
        <ele>1289.1999511719</ele>
        <time>2012-11-30T12:59:47.000Z</time>
      </trkpt>
      <trkpt lat="45.96925" lon="6.45215">
        <ele>1290.5999755859</ele>
        <time>2012-11-30T12:59:52.000Z</time>
      </trkpt>
      <trkpt lat="45.96926" lon="6.45219">
        <ele>1291.5999755859</ele>
        <time>2012-11-30T12:59:57.000Z</time>
      </trkpt>
      <trkpt lat="45.96927" lon="6.45225">
        <ele>1292.5999755859</ele>
        <time>2012-11-30T13:00:02.000Z</time>
      </trkpt>
      <trkpt lat="45.96928" lon="6.4523">
        <ele>1294</ele>
        <time>2012-11-30T13:00:07.000Z</time>
      </trkpt>
      <trkpt lat="45.96928" lon="6.45234">
        <ele>1295.4000244141</ele>
        <time>2012-11-30T13:00:12.000Z</time>
      </trkpt>
      <trkpt lat="45.96929" lon="6.4524">
        <ele>1296.4000244141</ele>
        <time>2012-11-30T13:00:18.000Z</time>
      </trkpt>
      <trkpt lat="45.96929" lon="6.45245">
        <ele>1298.1999511719</ele>
        <time>2012-11-30T13:00:23.000Z</time>
      </trkpt>
      <trkpt lat="45.96928" lon="6.45248">
        <ele>1299.1999511719</ele>
        <time>2012-11-30T13:00:27.000Z</time>
      </trkpt>
      <trkpt lat="45.96928" lon="6.45253">
        <ele>1300.8000488281</ele>
        <time>2012-11-30T13:00:32.000Z</time>
      </trkpt>
      <trkpt lat="45.96928" lon="6.45258">
        <ele>1301.1999511719</ele>
        <time>2012-11-30T13:00:37.000Z</time>
      </trkpt>
      <trkpt lat="45.96928" lon="6.45263">
        <ele>1301.5999755859</ele>
        <time>2012-11-30T13:00:43.000Z</time>
      </trkpt>
      <trkpt lat="45.96928" lon="6.45268">
        <ele>1302.5999755859</ele>
        <time>2012-11-30T13:00:48.000Z</time>
      </trkpt>
      <trkpt lat="45.96927" lon="6.45272">
        <ele>1303.5999755859</ele>
        <time>2012-11-30T13:00:53.000Z</time>
      </trkpt>
      <trkpt lat="45.96926" lon="6.45277">
        <ele>1305</ele>
        <time>2012-11-30T13:00:58.000Z</time>
      </trkpt>
      <trkpt lat="45.96922" lon="6.4528">
        <ele>1306.4000244141</ele>
        <time>2012-11-30T13:01:02.000Z</time>
      </trkpt>
      <trkpt lat="45.96917" lon="6.45283">
        <ele>1309.8000488281</ele>
        <time>2012-11-30T13:01:09.000Z</time>
      </trkpt>
      <trkpt lat="45.96912" lon="6.45283">
        <ele>1311.1999511719</ele>
        <time>2012-11-30T13:01:15.000Z</time>
      </trkpt>
      <trkpt lat="45.96907" lon="6.45283">
        <ele>1313.1999511719</ele>
        <time>2012-11-30T13:01:22.000Z</time>
      </trkpt>
      <trkpt lat="45.96903" lon="6.45283">
        <ele>1314.5999755859</ele>
        <time>2012-11-30T13:01:27.000Z</time>
      </trkpt>
      <trkpt lat="45.96898" lon="6.45284">
        <ele>1316</ele>
        <time>2012-11-30T13:01:33.000Z</time>
      </trkpt>
      <trkpt lat="45.96893" lon="6.45284">
        <ele>1317.5999755859</ele>
        <time>2012-11-30T13:01:39.000Z</time>
      </trkpt>
      <trkpt lat="45.96889" lon="6.45283">
        <ele>1318</ele>
        <time>2012-11-30T13:01:44.000Z</time>
      </trkpt>
      <trkpt lat="45.96885" lon="6.45282">
        <ele>1318</ele>
        <time>2012-11-30T13:01:48.000Z</time>
      </trkpt>
      <trkpt lat="45.96883" lon="6.45281">
        <ele>1318</ele>
        <time>2012-11-30T13:01:50.000Z</time>
      </trkpt>
      <trkpt lat="45.9688" lon="6.4528">
        <ele>1318</ele>
        <time>2012-11-30T13:01:52.000Z</time>
      </trkpt>
      <trkpt lat="45.96876" lon="6.45282">
        <ele>1319</ele>
        <time>2012-11-30T13:01:57.000Z</time>
      </trkpt>
      <trkpt lat="45.9687" lon="6.45285">
        <ele>1320.4000244141</ele>
        <time>2012-11-30T13:02:05.000Z</time>
      </trkpt>
      <trkpt lat="45.96865" lon="6.45292">
        <ele>1322.4000244141</ele>
        <time>2012-11-30T13:02:13.000Z</time>
      </trkpt>
      <trkpt lat="45.96861" lon="6.45299">
        <ele>1323.1999511719</ele>
        <time>2012-11-30T13:02:19.000Z</time>
      </trkpt>
      <trkpt lat="45.96859" lon="6.45303">
        <ele>1323.8000488281</ele>
        <time>2012-11-30T13:02:24.000Z</time>
      </trkpt>
      <trkpt lat="45.96855" lon="6.45309">
        <ele>1324.1999511719</ele>
        <time>2012-11-30T13:02:29.000Z</time>
      </trkpt>
      <trkpt lat="45.96853" lon="6.45312">
        <ele>1324.1999511719</ele>
        <time>2012-11-30T13:02:31.000Z</time>
      </trkpt>
      <trkpt lat="45.96851" lon="6.45315">
        <ele>1324.1999511719</ele>
        <time>2012-11-30T13:02:35.000Z</time>
      </trkpt>
      <trkpt lat="45.96847" lon="6.4532">
        <ele>1323.8000488281</ele>
        <time>2012-11-30T13:02:40.000Z</time>
      </trkpt>
      <trkpt lat="45.96842" lon="6.45324">
        <ele>1324.1999511719</ele>
        <time>2012-11-30T13:02:46.000Z</time>
      </trkpt>
      <trkpt lat="45.96838" lon="6.45329">
        <ele>1325.5999755859</ele>
        <time>2012-11-30T13:02:52.000Z</time>
      </trkpt>
      <trkpt lat="45.96834" lon="6.45334">
        <ele>1327.5999755859</ele>
        <time>2012-11-30T13:02:58.000Z</time>
      </trkpt>
      <trkpt lat="45.9683" lon="6.45345">
        <ele>1330</ele>
        <time>2012-11-30T13:03:06.000Z</time>
      </trkpt>
      <trkpt lat="45.96828" lon="6.45354">
        <ele>1331</ele>
        <time>2012-11-30T13:03:12.000Z</time>
      </trkpt>
      <trkpt lat="45.96827" lon="6.45364">
        <ele>1332.4000244141</ele>
        <time>2012-11-30T13:03:19.000Z</time>
      </trkpt>
      <trkpt lat="45.96825" lon="6.45372">
        <ele>1333.8000488281</ele>
        <time>2012-11-30T13:03:26.000Z</time>
      </trkpt>
      <trkpt lat="45.96824" lon="6.45376">
        <ele>1334.8000488281</ele>
        <time>2012-11-30T13:03:31.000Z</time>
      </trkpt>
      <trkpt lat="45.96824" lon="6.45377">
        <ele>1336.1999511719</ele>
        <time>2012-11-30T13:03:40.000Z</time>
      </trkpt>
      <trkpt lat="45.96823" lon="6.45383">
        <ele>1337.8000488281</ele>
        <time>2012-11-30T13:03:46.000Z</time>
      </trkpt>
      <trkpt lat="45.96821" lon="6.45389">
        <ele>1339.1999511719</ele>
        <time>2012-11-30T13:03:51.000Z</time>
      </trkpt>
      <trkpt lat="45.9682" lon="6.45395">
        <ele>1340.1999511719</ele>
        <time>2012-11-30T13:03:56.000Z</time>
      </trkpt>
      <trkpt lat="45.96819" lon="6.45401">
        <ele>1341</ele>
        <time>2012-11-30T13:04:01.000Z</time>
      </trkpt>
      <trkpt lat="45.96817" lon="6.45407">
        <ele>1341.5999755859</ele>
        <time>2012-11-30T13:04:06.000Z</time>
      </trkpt>
      <trkpt lat="45.96816" lon="6.45411">
        <ele>1341.5999755859</ele>
        <time>2012-11-30T13:04:10.000Z</time>
      </trkpt>
      <trkpt lat="45.96813" lon="6.45415">
        <ele>1342.5999755859</ele>
        <time>2012-11-30T13:04:13.000Z</time>
      </trkpt>
      <trkpt lat="45.9681" lon="6.4542">
        <ele>1343.4000244141</ele>
        <time>2012-11-30T13:04:18.000Z</time>
      </trkpt>
      <trkpt lat="45.96809" lon="6.45421">
        <ele>1343.4000244141</ele>
        <time>2012-11-30T13:04:19.000Z</time>
      </trkpt>
      <trkpt lat="45.96806" lon="6.45426">
        <ele>1344.4000244141</ele>
        <time>2012-11-30T13:04:23.000Z</time>
      </trkpt>
      <trkpt lat="45.96806" lon="6.45435">
        <ele>1345.8000488281</ele>
        <time>2012-11-30T13:04:30.000Z</time>
      </trkpt>
      <trkpt lat="45.96806" lon="6.45436">
        <ele>1345.8000488281</ele>
        <time>2012-11-30T13:04:31.000Z</time>
      </trkpt>
      <trkpt lat="45.96808" lon="6.45442">
        <ele>1347.4000244141</ele>
        <time>2012-11-30T13:04:36.000Z</time>
      </trkpt>
      <trkpt lat="45.96809" lon="6.45448">
        <ele>1348.1999511719</ele>
        <time>2012-11-30T13:04:41.000Z</time>
      </trkpt>
      <trkpt lat="45.9681" lon="6.45456">
        <ele>1350.1999511719</ele>
        <time>2012-11-30T13:04:47.000Z</time>
      </trkpt>
      <trkpt lat="45.9681" lon="6.45462">
        <ele>1351.1999511719</ele>
        <time>2012-11-30T13:04:52.000Z</time>
      </trkpt>
      <trkpt lat="45.96812" lon="6.45472">
        <ele>1353</ele>
        <time>2012-11-30T13:04:59.000Z</time>
      </trkpt>
      <trkpt lat="45.96813" lon="6.45476">
        <ele>1353.5999755859</ele>
        <time>2012-11-30T13:05:03.000Z</time>
      </trkpt>
      <trkpt lat="45.96814" lon="6.45483">
        <ele>1355</ele>
        <time>2012-11-30T13:05:08.000Z</time>
      </trkpt>
      <trkpt lat="45.96814" lon="6.45489">
        <ele>1356</ele>
        <time>2012-11-30T13:05:13.000Z</time>
      </trkpt>
      <trkpt lat="45.96813" lon="6.45496">
        <ele>1357.4000244141</ele>
        <time>2012-11-30T13:05:19.000Z</time>
      </trkpt>
      <trkpt lat="45.96813" lon="6.45504">
        <ele>1359.4000244141</ele>
        <time>2012-11-30T13:05:25.000Z</time>
      </trkpt>
      <trkpt lat="45.96812" lon="6.45509">
        <ele>1360.4000244141</ele>
        <time>2012-11-30T13:05:29.000Z</time>
      </trkpt>
      <trkpt lat="45.96811" lon="6.45517">
        <ele>1361.8000488281</ele>
        <time>2012-11-30T13:05:35.000Z</time>
      </trkpt>
      <trkpt lat="45.96811" lon="6.45526">
        <ele>1363.1999511719</ele>
        <time>2012-11-30T13:05:41.000Z</time>
      </trkpt>
      <trkpt lat="45.96811" lon="6.45535">
        <ele>1364.1999511719</ele>
        <time>2012-11-30T13:05:48.000Z</time>
      </trkpt>
      <trkpt lat="45.9681" lon="6.45543">
        <ele>1364.5999755859</ele>
        <time>2012-11-30T13:05:54.000Z</time>
      </trkpt>
      <trkpt lat="45.9681" lon="6.45551">
        <ele>1366</ele>
        <time>2012-11-30T13:05:59.000Z</time>
      </trkpt>
      <trkpt lat="45.9681" lon="6.45557">
        <ele>1366.5999755859</ele>
        <time>2012-11-30T13:06:04.000Z</time>
      </trkpt>
      <trkpt lat="45.9681" lon="6.45562">
        <ele>1367</ele>
        <time>2012-11-30T13:06:08.000Z</time>
      </trkpt>
      <trkpt lat="45.96811" lon="6.45569">
        <ele>1368.4000244141</ele>
        <time>2012-11-30T13:06:14.000Z</time>
      </trkpt>
      <trkpt lat="45.96812" lon="6.45576">
        <ele>1369</ele>
        <time>2012-11-30T13:06:19.000Z</time>
      </trkpt>
      <trkpt lat="45.9681" lon="6.45581">
        <ele>1369</ele>
        <time>2012-11-30T13:06:24.000Z</time>
      </trkpt>
      <trkpt lat="45.96809" lon="6.45583">
        <ele>1370</ele>
        <time>2012-11-30T13:06:26.000Z</time>
      </trkpt>
      <trkpt lat="45.96804" lon="6.45589">
        <ele>1371.4000244141</ele>
        <time>2012-11-30T13:06:32.000Z</time>
      </trkpt>
      <trkpt lat="45.968" lon="6.45594">
        <ele>1371.8000488281</ele>
        <time>2012-11-30T13:06:36.000Z</time>
      </trkpt>
      <trkpt lat="45.96799" lon="6.45595">
        <ele>1372.4000244141</ele>
        <time>2012-11-30T13:06:38.000Z</time>
      </trkpt>
      <trkpt lat="45.96794" lon="6.45603">
        <ele>1373.8000488281</ele>
        <time>2012-11-30T13:06:45.000Z</time>
      </trkpt>
      <trkpt lat="45.9679" lon="6.45608">
        <ele>1375.1999511719</ele>
        <time>2012-11-30T13:06:51.000Z</time>
      </trkpt>
      <trkpt lat="45.96788" lon="6.45613">
        <ele>1376.1999511719</ele>
        <time>2012-11-30T13:06:56.000Z</time>
      </trkpt>
      <trkpt lat="45.96787" lon="6.45617">
        <ele>1378</ele>
        <time>2012-11-30T13:07:01.000Z</time>
      </trkpt>
      <trkpt lat="45.96786" lon="6.4562">
        <ele>1379.5999755859</ele>
        <time>2012-11-30T13:07:05.000Z</time>
      </trkpt>
      <trkpt lat="45.96784" lon="6.45625">
        <ele>1380</ele>
        <time>2012-11-30T13:07:11.000Z</time>
      </trkpt>
      <trkpt lat="45.96781" lon="6.4563">
        <ele>1381</ele>
        <time>2012-11-30T13:07:16.000Z</time>
      </trkpt>
      <trkpt lat="45.96777" lon="6.45635">
        <ele>1382.8000488281</ele>
        <time>2012-11-30T13:07:23.000Z</time>
      </trkpt>
      <trkpt lat="45.96774" lon="6.4564">
        <ele>1385.1999511719</ele>
        <time>2012-11-30T13:07:29.000Z</time>
      </trkpt>
      <trkpt lat="45.96771" lon="6.45645">
        <ele>1387.8000488281</ele>
        <time>2012-11-30T13:07:35.000Z</time>
      </trkpt>
      <trkpt lat="45.96767" lon="6.45651">
        <ele>1389.1999511719</ele>
        <time>2012-11-30T13:07:42.000Z</time>
      </trkpt>
      <trkpt lat="45.96763" lon="6.45656">
        <ele>1390.5999755859</ele>
        <time>2012-11-30T13:07:48.000Z</time>
      </trkpt>
      <trkpt lat="45.96761" lon="6.4566">
        <ele>1391.5999755859</ele>
        <time>2012-11-30T13:07:52.000Z</time>
      </trkpt>
      <trkpt lat="45.9676" lon="6.45662">
        <ele>1392.5999755859</ele>
        <time>2012-11-30T13:07:56.000Z</time>
      </trkpt>
      <trkpt lat="45.96759" lon="6.45664">
        <ele>1394</ele>
        <time>2012-11-30T13:08:00.000Z</time>
      </trkpt>
      <trkpt lat="45.96756" lon="6.45671">
        <ele>1395.8000488281</ele>
        <time>2012-11-30T13:08:07.000Z</time>
      </trkpt>
      <trkpt lat="45.96754" lon="6.45676">
        <ele>1397.4000244141</ele>
        <time>2012-11-30T13:08:12.000Z</time>
      </trkpt>
      <trkpt lat="45.9675" lon="6.45685">
        <ele>1399.1999511719</ele>
        <time>2012-11-30T13:08:18.000Z</time>
      </trkpt>
      <trkpt lat="45.96748" lon="6.45689">
        <ele>1400.1999511719</ele>
        <time>2012-11-30T13:08:23.000Z</time>
      </trkpt>
      <trkpt lat="45.96746" lon="6.45694">
        <ele>1400.5999755859</ele>
        <time>2012-11-30T13:08:28.000Z</time>
      </trkpt>
      <trkpt lat="45.96744" lon="6.45698">
        <ele>1401.5999755859</ele>
        <time>2012-11-30T13:08:33.000Z</time>
      </trkpt>
      <trkpt lat="45.96742" lon="6.45702">
        <ele>1402.1999511719</ele>
        <time>2012-11-30T13:08:38.000Z</time>
      </trkpt>
      <trkpt lat="45.9674" lon="6.45708">
        <ele>1404</ele>
        <time>2012-11-30T13:08:44.000Z</time>
      </trkpt>
      <trkpt lat="45.96738" lon="6.45714">
        <ele>1405</ele>
        <time>2012-11-30T13:08:50.000Z</time>
      </trkpt>
      <trkpt lat="45.96736" lon="6.45719">
        <ele>1407</ele>
        <time>2012-11-30T13:08:56.000Z</time>
      </trkpt>
      <trkpt lat="45.96734" lon="6.45721">
        <ele>1408.4000244141</ele>
        <time>2012-11-30T13:09:01.000Z</time>
      </trkpt>
      <trkpt lat="45.96732" lon="6.45725">
        <ele>1409.4000244141</ele>
        <time>2012-11-30T13:09:05.000Z</time>
      </trkpt>
      <trkpt lat="45.9673" lon="6.45727">
        <ele>1410.8000488281</ele>
        <time>2012-11-30T13:09:09.000Z</time>
      </trkpt>
      <trkpt lat="45.96728" lon="6.45731">
        <ele>1412.5999755859</ele>
        <time>2012-11-30T13:09:15.000Z</time>
      </trkpt>
      <trkpt lat="45.96726" lon="6.45733">
        <ele>1413.5999755859</ele>
        <time>2012-11-30T13:09:19.000Z</time>
      </trkpt>
      <trkpt lat="45.96724" lon="6.45738">
        <ele>1415</ele>
        <time>2012-11-30T13:09:24.000Z</time>
      </trkpt>
      <trkpt lat="45.96723" lon="6.45742">
        <ele>1416</ele>
        <time>2012-11-30T13:09:29.000Z</time>
      </trkpt>
      <trkpt lat="45.96721" lon="6.45746">
        <ele>1417</ele>
        <time>2012-11-30T13:09:33.000Z</time>
      </trkpt>
      <trkpt lat="45.9672" lon="6.4575">
        <ele>1417</ele>
        <time>2012-11-30T13:09:37.000Z</time>
      </trkpt>
      <trkpt lat="45.96718" lon="6.45755">
        <ele>1418</ele>
        <time>2012-11-30T13:09:41.000Z</time>
      </trkpt>
      <trkpt lat="45.96717" lon="6.45761">
        <ele>1419</ele>
        <time>2012-11-30T13:09:47.000Z</time>
      </trkpt>
      <trkpt lat="45.96715" lon="6.45767">
        <ele>1421.4000244141</ele>
        <time>2012-11-30T13:09:53.000Z</time>
      </trkpt>
      <trkpt lat="45.96713" lon="6.45774">
        <ele>1423.1999511719</ele>
        <time>2012-11-30T13:09:59.000Z</time>
      </trkpt>
      <trkpt lat="45.96711" lon="6.45781">
        <ele>1424.8000488281</ele>
        <time>2012-11-30T13:10:05.000Z</time>
      </trkpt>
      <trkpt lat="45.9671" lon="6.45784">
        <ele>1426.5999755859</ele>
        <time>2012-11-30T13:10:09.000Z</time>
      </trkpt>
      <trkpt lat="45.96708" lon="6.45789">
        <ele>1427.5999755859</ele>
        <time>2012-11-30T13:10:13.000Z</time>
      </trkpt>
      <trkpt lat="45.96708" lon="6.45792">
        <ele>1428</ele>
        <time>2012-11-30T13:10:17.000Z</time>
      </trkpt>
      <trkpt lat="45.96707" lon="6.45795">
        <ele>1429</ele>
        <time>2012-11-30T13:10:21.000Z</time>
      </trkpt>
      <trkpt lat="45.96706" lon="6.458">
        <ele>1431</ele>
        <time>2012-11-30T13:10:27.000Z</time>
      </trkpt>
      <trkpt lat="45.96704" lon="6.45802">
        <ele>1432</ele>
        <time>2012-11-30T13:10:30.000Z</time>
      </trkpt>
      <trkpt lat="45.96703" lon="6.45807">
        <ele>1433.8000488281</ele>
        <time>2012-11-30T13:10:35.000Z</time>
      </trkpt>
      <trkpt lat="45.96702" lon="6.4581">
        <ele>1434.8000488281</ele>
        <time>2012-11-30T13:10:38.000Z</time>
      </trkpt>
      <trkpt lat="45.967" lon="6.45815">
        <ele>1435.8000488281</ele>
        <time>2012-11-30T13:10:43.000Z</time>
      </trkpt>
      <trkpt lat="45.96699" lon="6.45819">
        <ele>1436.1999511719</ele>
        <time>2012-11-30T13:10:49.000Z</time>
      </trkpt>
      <trkpt lat="45.96695" lon="6.45825">
        <ele>1436.8000488281</ele>
        <time>2012-11-30T13:10:55.000Z</time>
      </trkpt>
      <trkpt lat="45.96692" lon="6.45831">
        <ele>1438.1999511719</ele>
        <time>2012-11-30T13:11:00.000Z</time>
      </trkpt>
      <trkpt lat="45.96689" lon="6.45834">
        <ele>1439.1999511719</ele>
        <time>2012-11-30T13:11:05.000Z</time>
      </trkpt>
      <trkpt lat="45.96684" lon="6.45837">
        <ele>1439.5999755859</ele>
        <time>2012-11-30T13:11:10.000Z</time>
      </trkpt>
      <trkpt lat="45.96682" lon="6.45839">
        <ele>1440</ele>
        <time>2012-11-30T13:11:12.000Z</time>
      </trkpt>
      <trkpt lat="45.96677" lon="6.4584">
        <ele>1441.5999755859</ele>
        <time>2012-11-30T13:11:17.000Z</time>
      </trkpt>
      <trkpt lat="45.96673" lon="6.45841">
        <ele>1442.4000244141</ele>
        <time>2012-11-30T13:11:22.000Z</time>
      </trkpt>
      <trkpt lat="45.96668" lon="6.45844">
        <ele>1442.4000244141</ele>
        <time>2012-11-30T13:11:28.000Z</time>
      </trkpt>
      <trkpt lat="45.96664" lon="6.45845">
        <ele>1445.4000244141</ele>
        <time>2012-11-30T13:11:35.000Z</time>
      </trkpt>
      <trkpt lat="45.96661" lon="6.45846">
        <ele>1446.8000488281</ele>
        <time>2012-11-30T13:11:40.000Z</time>
      </trkpt>
      <trkpt lat="45.96658" lon="6.45846">
        <ele>1448.1999511719</ele>
        <time>2012-11-30T13:11:45.000Z</time>
      </trkpt>
      <trkpt lat="45.96654" lon="6.45848">
        <ele>1450.1999511719</ele>
        <time>2012-11-30T13:11:51.000Z</time>
      </trkpt>
      <trkpt lat="45.9665" lon="6.4585">
        <ele>1451.5999755859</ele>
        <time>2012-11-30T13:11:56.000Z</time>
      </trkpt>
      <trkpt lat="45.96646" lon="6.4585">
        <ele>1452.1999511719</ele>
        <time>2012-11-30T13:12:01.000Z</time>
      </trkpt>
      <trkpt lat="45.96641" lon="6.45851">
        <ele>1453</ele>
        <time>2012-11-30T13:12:06.000Z</time>
      </trkpt>
      <trkpt lat="45.96637" lon="6.45853">
        <ele>1454.5999755859</ele>
        <time>2012-11-30T13:12:12.000Z</time>
      </trkpt>
      <trkpt lat="45.96633" lon="6.45858">
        <ele>1455.4000244141</ele>
        <time>2012-11-30T13:12:19.000Z</time>
      </trkpt>
      <trkpt lat="45.9663" lon="6.45863">
        <ele>1456</ele>
        <time>2012-11-30T13:12:24.000Z</time>
      </trkpt>
      <trkpt lat="45.96626" lon="6.45867">
        <ele>1457.4000244141</ele>
        <time>2012-11-30T13:12:30.000Z</time>
      </trkpt>
      <trkpt lat="45.96623" lon="6.4587">
        <ele>1458.8000488281</ele>
        <time>2012-11-30T13:12:35.000Z</time>
      </trkpt>
      <trkpt lat="45.9662" lon="6.45875">
        <ele>1461.1999511719</ele>
        <time>2012-11-30T13:12:41.000Z</time>
      </trkpt>
      <trkpt lat="45.96616" lon="6.4588">
        <ele>1462.1999511719</ele>
        <time>2012-11-30T13:12:48.000Z</time>
      </trkpt>
      <trkpt lat="45.96614" lon="6.45884">
        <ele>1462.5999755859</ele>
        <time>2012-11-30T13:12:53.000Z</time>
      </trkpt>
      <trkpt lat="45.96611" lon="6.45889">
        <ele>1463.1999511719</ele>
        <time>2012-11-30T13:12:59.000Z</time>
      </trkpt>
      <trkpt lat="45.96609" lon="6.459">
        <ele>1464.1999511719</ele>
        <time>2012-11-30T13:13:07.000Z</time>
      </trkpt>
      <trkpt lat="45.96608" lon="6.45904">
        <ele>1464.5999755859</ele>
        <time>2012-11-30T13:13:10.000Z</time>
      </trkpt>
      <trkpt lat="45.96606" lon="6.45916">
        <ele>1465.5999755859</ele>
        <time>2012-11-30T13:13:18.000Z</time>
      </trkpt>
      <trkpt lat="45.96603" lon="6.45924">
        <ele>1466</ele>
        <time>2012-11-30T13:13:24.000Z</time>
      </trkpt>
      <trkpt lat="45.966" lon="6.45932">
        <ele>1467</ele>
        <time>2012-11-30T13:13:31.000Z</time>
      </trkpt>
      <trkpt lat="45.96597" lon="6.45939">
        <ele>1468.4000244141</ele>
        <time>2012-11-30T13:13:37.000Z</time>
      </trkpt>
      <trkpt lat="45.96594" lon="6.45946">
        <ele>1469.8000488281</ele>
        <time>2012-11-30T13:13:43.000Z</time>
      </trkpt>
      <trkpt lat="45.96591" lon="6.45954">
        <ele>1471.4000244141</ele>
        <time>2012-11-30T13:13:50.000Z</time>
      </trkpt>
      <trkpt lat="45.96589" lon="6.45962">
        <ele>1473.1999511719</ele>
        <time>2012-11-30T13:13:56.000Z</time>
      </trkpt>
      <trkpt lat="45.96586" lon="6.45973">
        <ele>1475.1999511719</ele>
        <time>2012-11-30T13:14:05.000Z</time>
      </trkpt>
      <trkpt lat="45.96584" lon="6.4598">
        <ele>1476.1999511719</ele>
        <time>2012-11-30T13:14:11.000Z</time>
      </trkpt>
      <trkpt lat="45.96581" lon="6.45988">
        <ele>1477.5999755859</ele>
        <time>2012-11-30T13:14:18.000Z</time>
      </trkpt>
      <trkpt lat="45.96579" lon="6.45993">
        <ele>1478.5999755859</ele>
        <time>2012-11-30T13:14:23.000Z</time>
      </trkpt>
      <trkpt lat="45.96576" lon="6.46">
        <ele>1480</ele>
        <time>2012-11-30T13:14:30.000Z</time>
      </trkpt>
      <trkpt lat="45.96573" lon="6.46005">
        <ele>1480.4000244141</ele>
        <time>2012-11-30T13:14:35.000Z</time>
      </trkpt>
      <trkpt lat="45.9657" lon="6.4601">
        <ele>1481.4000244141</ele>
        <time>2012-11-30T13:14:39.000Z</time>
      </trkpt>
      <trkpt lat="45.96568" lon="6.46016">
        <ele>1482</ele>
        <time>2012-11-30T13:14:45.000Z</time>
      </trkpt>
      <trkpt lat="45.96565" lon="6.46023">
        <ele>1482.8000488281</ele>
        <time>2012-11-30T13:14:52.000Z</time>
      </trkpt>
      <trkpt lat="45.96562" lon="6.46029">
        <ele>1482.8000488281</ele>
        <time>2012-11-30T13:14:59.000Z</time>
      </trkpt>
      <trkpt lat="45.96561" lon="6.4603">
        <ele>1483.4000244141</ele>
        <time>2012-11-30T13:15:02.000Z</time>
      </trkpt>
      <trkpt lat="45.96559" lon="6.46035">
        <ele>1485.1999511719</ele>
        <time>2012-11-30T13:15:08.000Z</time>
      </trkpt>
      <trkpt lat="45.96557" lon="6.46039">
        <ele>1485.8000488281</ele>
        <time>2012-11-30T13:15:13.000Z</time>
      </trkpt>
      <trkpt lat="45.96554" lon="6.46046">
        <ele>1487.5999755859</ele>
        <time>2012-11-30T13:15:21.000Z</time>
      </trkpt>
      <trkpt lat="45.96552" lon="6.46052">
        <ele>1488.5999755859</ele>
        <time>2012-11-30T13:15:27.000Z</time>
      </trkpt>
      <trkpt lat="45.9655" lon="6.46059">
        <ele>1489.5999755859</ele>
        <time>2012-11-30T13:15:34.000Z</time>
      </trkpt>
      <trkpt lat="45.96547" lon="6.46067">
        <ele>1491</ele>
        <time>2012-11-30T13:15:41.000Z</time>
      </trkpt>
      <trkpt lat="45.96545" lon="6.46073">
        <ele>1492</ele>
        <time>2012-11-30T13:15:48.000Z</time>
      </trkpt>
      <trkpt lat="45.96543" lon="6.46079">
        <ele>1493.4000244141</ele>
        <time>2012-11-30T13:15:54.000Z</time>
      </trkpt>
      <trkpt lat="45.96541" lon="6.46085">
        <ele>1494.8000488281</ele>
        <time>2012-11-30T13:16:00.000Z</time>
      </trkpt>
      <trkpt lat="45.96538" lon="6.46092">
        <ele>1496.8000488281</ele>
        <time>2012-11-30T13:16:08.000Z</time>
      </trkpt>
      <trkpt lat="45.96535" lon="6.46099">
        <ele>1497.8000488281</ele>
        <time>2012-11-30T13:16:14.000Z</time>
      </trkpt>
      <trkpt lat="45.96533" lon="6.46105">
        <ele>1498.8000488281</ele>
        <time>2012-11-30T13:16:20.000Z</time>
      </trkpt>
      <trkpt lat="45.96531" lon="6.46114">
        <ele>1500.1999511719</ele>
        <time>2012-11-30T13:16:28.000Z</time>
      </trkpt>
      <trkpt lat="45.96529" lon="6.46119">
        <ele>1501.5999755859</ele>
        <time>2012-11-30T13:16:34.000Z</time>
      </trkpt>
      <trkpt lat="45.96527" lon="6.46127">
        <ele>1503</ele>
        <time>2012-11-30T13:16:41.000Z</time>
      </trkpt>
      <trkpt lat="45.96524" lon="6.46134">
        <ele>1505</ele>
        <time>2012-11-30T13:16:47.000Z</time>
      </trkpt>
      <trkpt lat="45.96521" lon="6.46141">
        <ele>1506</ele>
        <time>2012-11-30T13:16:53.000Z</time>
      </trkpt>
      <trkpt lat="45.96519" lon="6.46146">
        <ele>1507.4000244141</ele>
        <time>2012-11-30T13:16:58.000Z</time>
      </trkpt>
      <trkpt lat="45.96515" lon="6.46154">
        <ele>1507.8000488281</ele>
        <time>2012-11-30T13:17:06.000Z</time>
      </trkpt>
      <trkpt lat="45.96512" lon="6.46162">
        <ele>1509.4000244141</ele>
        <time>2012-11-30T13:17:13.000Z</time>
      </trkpt>
      <trkpt lat="45.96511" lon="6.46166">
        <ele>1510.1999511719</ele>
        <time>2012-11-30T13:17:17.000Z</time>
      </trkpt>
      <trkpt lat="45.96509" lon="6.46174">
        <ele>1511.1999511719</ele>
        <time>2012-11-30T13:17:24.000Z</time>
      </trkpt>
      <trkpt lat="45.96506" lon="6.46181">
        <ele>1513.1999511719</ele>
        <time>2012-11-30T13:17:31.000Z</time>
      </trkpt>
      <trkpt lat="45.96503" lon="6.46187">
        <ele>1514.5999755859</ele>
        <time>2012-11-30T13:17:37.000Z</time>
      </trkpt>
      <trkpt lat="45.965" lon="6.46193">
        <ele>1517</ele>
        <time>2012-11-30T13:17:44.000Z</time>
      </trkpt>
      <trkpt lat="45.96498" lon="6.46198">
        <ele>1517.4000244141</ele>
        <time>2012-11-30T13:17:50.000Z</time>
      </trkpt>
      <trkpt lat="45.96496" lon="6.46202">
        <ele>1518</ele>
        <time>2012-11-30T13:17:54.000Z</time>
      </trkpt>
      <trkpt lat="45.96496" lon="6.46206">
        <ele>1519</ele>
        <time>2012-11-30T13:17:59.000Z</time>
      </trkpt>
      <trkpt lat="45.96495" lon="6.4621">
        <ele>1520.4000244141</ele>
        <time>2012-11-30T13:18:03.000Z</time>
      </trkpt>
      <trkpt lat="45.96494" lon="6.46213">
        <ele>1520.8000488281</ele>
        <time>2012-11-30T13:18:08.000Z</time>
      </trkpt>
      <trkpt lat="45.96493" lon="6.46216">
        <ele>1521.4000244141</ele>
        <time>2012-11-30T13:18:12.000Z</time>
      </trkpt>
      <trkpt lat="45.96494" lon="6.46219">
        <ele>1522.8000488281</ele>
        <time>2012-11-30T13:18:16.000Z</time>
      </trkpt>
      <trkpt lat="45.96493" lon="6.46225">
        <ele>1525.1999511719</ele>
        <time>2012-11-30T13:18:22.000Z</time>
      </trkpt>
      <trkpt lat="45.96492" lon="6.46228">
        <ele>1526.1999511719</ele>
        <time>2012-11-30T13:18:25.000Z</time>
      </trkpt>
      <trkpt lat="45.96489" lon="6.46234">
        <ele>1527</ele>
        <time>2012-11-30T13:18:31.000Z</time>
      </trkpt>
      <trkpt lat="45.9649" lon="6.46238">
        <ele>1526.5999755859</ele>
        <time>2012-11-30T13:18:35.000Z</time>
      </trkpt>
      <trkpt lat="45.96491" lon="6.46242">
        <ele>1527.5999755859</ele>
        <time>2012-11-30T13:18:40.000Z</time>
      </trkpt>
      <trkpt lat="45.96492" lon="6.46245">
        <ele>1528.5999755859</ele>
        <time>2012-11-30T13:18:45.000Z</time>
      </trkpt>
      <trkpt lat="45.96493" lon="6.46248">
        <ele>1529.4000244141</ele>
        <time>2012-11-30T13:18:49.000Z</time>
      </trkpt>
      <trkpt lat="45.96493" lon="6.46253">
        <ele>1530.4000244141</ele>
        <time>2012-11-30T13:18:54.000Z</time>
      </trkpt>
      <trkpt lat="45.96493" lon="6.46257">
        <ele>1531.8000488281</ele>
        <time>2012-11-30T13:18:59.000Z</time>
      </trkpt>
      <trkpt lat="45.96494" lon="6.46259">
        <ele>1532.8000488281</ele>
        <time>2012-11-30T13:19:03.000Z</time>
      </trkpt>
      <trkpt lat="45.96493" lon="6.46263">
        <ele>1533.8000488281</ele>
        <time>2012-11-30T13:19:07.000Z</time>
      </trkpt>
      <trkpt lat="45.96491" lon="6.46266">
        <ele>1535.1999511719</ele>
        <time>2012-11-30T13:19:12.000Z</time>
      </trkpt>
      <trkpt lat="45.96489" lon="6.4627">
        <ele>1536.1999511719</ele>
        <time>2012-11-30T13:19:18.000Z</time>
      </trkpt>
      <trkpt lat="45.96487" lon="6.46274">
        <ele>1536.8000488281</ele>
        <time>2012-11-30T13:19:23.000Z</time>
      </trkpt>
      <trkpt lat="45.96486" lon="6.46278">
        <ele>1537.1999511719</ele>
        <time>2012-11-30T13:19:28.000Z</time>
      </trkpt>
      <trkpt lat="45.96483" lon="6.46282">
        <ele>1537.1999511719</ele>
        <time>2012-11-30T13:19:33.000Z</time>
      </trkpt>
      <trkpt lat="45.96483" lon="6.46286">
        <ele>1539.1999511719</ele>
        <time>2012-11-30T13:19:38.000Z</time>
      </trkpt>
      <trkpt lat="45.96482" lon="6.46289">
        <ele>1540</ele>
        <time>2012-11-30T13:19:42.000Z</time>
      </trkpt>
      <trkpt lat="45.96482" lon="6.46293">
        <ele>1541.5999755859</ele>
        <time>2012-11-30T13:19:48.000Z</time>
      </trkpt>
      <trkpt lat="45.9648" lon="6.46298">
        <ele>1543</ele>
        <time>2012-11-30T13:19:53.000Z</time>
      </trkpt>
      <trkpt lat="45.96479" lon="6.46301">
        <ele>1544</ele>
        <time>2012-11-30T13:19:58.000Z</time>
      </trkpt>
      <trkpt lat="45.96477" lon="6.46303">
        <ele>1545.4000244141</ele>
        <time>2012-11-30T13:20:02.000Z</time>
      </trkpt>
      <trkpt lat="45.96474" lon="6.46306">
        <ele>1547.8000488281</ele>
        <time>2012-11-30T13:20:07.000Z</time>
      </trkpt>
      <trkpt lat="45.96472" lon="6.46309">
        <ele>1549.1999511719</ele>
        <time>2012-11-30T13:20:13.000Z</time>
      </trkpt>
      <trkpt lat="45.96469" lon="6.46313">
        <ele>1550.1999511719</ele>
        <time>2012-11-30T13:20:19.000Z</time>
      </trkpt>
      <trkpt lat="45.96467" lon="6.46317">
        <ele>1550.5999755859</ele>
        <time>2012-11-30T13:20:24.000Z</time>
      </trkpt>
      <trkpt lat="45.96465" lon="6.4632">
        <ele>1551.1999511719</ele>
        <time>2012-11-30T13:20:30.000Z</time>
      </trkpt>
      <trkpt lat="45.96463" lon="6.46324">
        <ele>1552.5999755859</ele>
        <time>2012-11-30T13:20:36.000Z</time>
      </trkpt>
      <trkpt lat="45.96461" lon="6.46328">
        <ele>1554.4000244141</ele>
        <time>2012-11-30T13:20:42.000Z</time>
      </trkpt>
      <trkpt lat="45.96459" lon="6.46332">
        <ele>1556</ele>
        <time>2012-11-30T13:20:47.000Z</time>
      </trkpt>
      <trkpt lat="45.96456" lon="6.46335">
        <ele>1557.8000488281</ele>
        <time>2012-11-30T13:20:53.000Z</time>
      </trkpt>
      <trkpt lat="45.96454" lon="6.46339">
        <ele>1558.8000488281</ele>
        <time>2012-11-30T13:20:58.000Z</time>
      </trkpt>
      <trkpt lat="45.96452" lon="6.46343">
        <ele>1559.8000488281</ele>
        <time>2012-11-30T13:21:04.000Z</time>
      </trkpt>
      <trkpt lat="45.96449" lon="6.46347">
        <ele>1561.1999511719</ele>
        <time>2012-11-30T13:21:10.000Z</time>
      </trkpt>
      <trkpt lat="45.96446" lon="6.46351">
        <ele>1562.1999511719</ele>
        <time>2012-11-30T13:21:16.000Z</time>
      </trkpt>
      <trkpt lat="45.96444" lon="6.46354">
        <ele>1562.5999755859</ele>
        <time>2012-11-30T13:21:20.000Z</time>
      </trkpt>
      <trkpt lat="45.96441" lon="6.46358">
        <ele>1563.5999755859</ele>
        <time>2012-11-30T13:21:25.000Z</time>
      </trkpt>
      <trkpt lat="45.96439" lon="6.4636">
        <ele>1564.5999755859</ele>
        <time>2012-11-30T13:21:29.000Z</time>
      </trkpt>
      <trkpt lat="45.96439" lon="6.4636">
        <ele>1565</ele>
        <time>2012-11-30T13:21:34.000Z</time>
      </trkpt>
      <trkpt lat="45.96442" lon="6.46361">
        <ele>1567</ele>
        <time>2012-11-30T13:21:49.000Z</time>
      </trkpt>
      <trkpt lat="45.96442" lon="6.4636">
        <ele>1567</ele>
        <time>2012-11-30T13:22:06.000Z</time>
      </trkpt>
      <trkpt lat="45.96442" lon="6.4636">
        <ele>1566.5999755859</ele>
        <time>2012-11-30T13:22:13.000Z</time>
      </trkpt>
      <trkpt lat="45.96442" lon="6.4636">
        <ele>1566</ele>
        <time>2012-11-30T13:22:22.000Z</time>
      </trkpt>
      <trkpt lat="45.96442" lon="6.46361">
        <ele>1566.5999755859</ele>
        <time>2012-11-30T13:22:32.000Z</time>
      </trkpt>
      <trkpt lat="45.96439" lon="6.46365">
        <ele>1567</ele>
        <time>2012-11-30T13:22:38.000Z</time>
      </trkpt>
      <trkpt lat="45.96437" lon="6.46369">
        <ele>1568</ele>
        <time>2012-11-30T13:22:44.000Z</time>
      </trkpt>
      <trkpt lat="45.96435" lon="6.46373">
        <ele>1568.4000244141</ele>
        <time>2012-11-30T13:22:49.000Z</time>
      </trkpt>
      <trkpt lat="45.96434" lon="6.46378">
        <ele>1569.8000488281</ele>
        <time>2012-11-30T13:22:54.000Z</time>
      </trkpt>
      <trkpt lat="45.96431" lon="6.46385">
        <ele>1570.8000488281</ele>
        <time>2012-11-30T13:23:00.000Z</time>
      </trkpt>
      <trkpt lat="45.96428" lon="6.46392">
        <ele>1571.8000488281</ele>
        <time>2012-11-30T13:23:06.000Z</time>
      </trkpt>
      <trkpt lat="45.96426" lon="6.46399">
        <ele>1572.1999511719</ele>
        <time>2012-11-30T13:23:11.000Z</time>
      </trkpt>
      <trkpt lat="45.96425" lon="6.46403">
        <ele>1573.1999511719</ele>
        <time>2012-11-30T13:23:15.000Z</time>
      </trkpt>
      <trkpt lat="45.96424" lon="6.46409">
        <ele>1574.5999755859</ele>
        <time>2012-11-30T13:23:21.000Z</time>
      </trkpt>
      <trkpt lat="45.96422" lon="6.46416">
        <ele>1575.5999755859</ele>
        <time>2012-11-30T13:23:27.000Z</time>
      </trkpt>
      <trkpt lat="45.96421" lon="6.46422">
        <ele>1576.1999511719</ele>
        <time>2012-11-30T13:23:32.000Z</time>
      </trkpt>
      <trkpt lat="45.96418" lon="6.4643">
        <ele>1576.5999755859</ele>
        <time>2012-11-30T13:23:39.000Z</time>
      </trkpt>
      <trkpt lat="45.96417" lon="6.46437">
        <ele>1577.5999755859</ele>
        <time>2012-11-30T13:23:44.000Z</time>
      </trkpt>
      <trkpt lat="45.96418" lon="6.46443">
        <ele>1578.5999755859</ele>
        <time>2012-11-30T13:23:49.000Z</time>
      </trkpt>
      <trkpt lat="45.96418" lon="6.46449">
        <ele>1579.4000244141</ele>
        <time>2012-11-30T13:23:54.000Z</time>
      </trkpt>
      <trkpt lat="45.96417" lon="6.46454">
        <ele>1581</ele>
        <time>2012-11-30T13:23:59.000Z</time>
      </trkpt>
      <trkpt lat="45.96416" lon="6.4646">
        <ele>1581.4000244141</ele>
        <time>2012-11-30T13:24:04.000Z</time>
      </trkpt>
      <trkpt lat="45.96416" lon="6.46465">
        <ele>1582.8000488281</ele>
        <time>2012-11-30T13:24:09.000Z</time>
      </trkpt>
      <trkpt lat="45.96415" lon="6.4647">
        <ele>1584.1999511719</ele>
        <time>2012-11-30T13:24:15.000Z</time>
      </trkpt>
      <trkpt lat="45.96415" lon="6.46477">
        <ele>1585.8000488281</ele>
        <time>2012-11-30T13:24:21.000Z</time>
      </trkpt>
      <trkpt lat="45.96416" lon="6.4648">
        <ele>1587.1999511719</ele>
        <time>2012-11-30T13:24:25.000Z</time>
      </trkpt>
      <trkpt lat="45.96416" lon="6.46485">
        <ele>1588.5999755859</ele>
        <time>2012-11-30T13:24:30.000Z</time>
      </trkpt>
      <trkpt lat="45.96418" lon="6.46489">
        <ele>1589</ele>
        <time>2012-11-30T13:24:34.000Z</time>
      </trkpt>
      <trkpt lat="45.96417" lon="6.46495">
        <ele>1590.5999755859</ele>
        <time>2012-11-30T13:24:39.000Z</time>
      </trkpt>
      <trkpt lat="45.96415" lon="6.46498">
        <ele>1591.4000244141</ele>
        <time>2012-11-30T13:24:44.000Z</time>
      </trkpt>
      <trkpt lat="45.9641" lon="6.465">
        <ele>1593</ele>
        <time>2012-11-30T13:24:51.000Z</time>
      </trkpt>
      <trkpt lat="45.96406" lon="6.46501">
        <ele>1594.8000488281</ele>
        <time>2012-11-30T13:24:57.000Z</time>
      </trkpt>
      <trkpt lat="45.96405" lon="6.46502">
        <ele>1595.8000488281</ele>
        <time>2012-11-30T13:25:02.000Z</time>
      </trkpt>
      <trkpt lat="45.96405" lon="6.46506">
        <ele>1595.8000488281</ele>
        <time>2012-11-30T13:25:06.000Z</time>
      </trkpt>
      <trkpt lat="45.96406" lon="6.46511">
        <ele>1596.8000488281</ele>
        <time>2012-11-30T13:25:11.000Z</time>
      </trkpt>
      <trkpt lat="45.96406" lon="6.46516">
        <ele>1598.1999511719</ele>
        <time>2012-11-30T13:25:17.000Z</time>
      </trkpt>
      <trkpt lat="45.96407" lon="6.46519">
        <ele>1599.5999755859</ele>
        <time>2012-11-30T13:25:21.000Z</time>
      </trkpt>
      <trkpt lat="45.96408" lon="6.46522">
        <ele>1600.1999511719</ele>
        <time>2012-11-30T13:25:25.000Z</time>
      </trkpt>
      <trkpt lat="45.96409" lon="6.46525">
        <ele>1600.1999511719</ele>
        <time>2012-11-30T13:25:30.000Z</time>
      </trkpt>
      <trkpt lat="45.96409" lon="6.46527">
        <ele>1602.5999755859</ele>
        <time>2012-11-30T13:25:34.000Z</time>
      </trkpt>
      <trkpt lat="45.96408" lon="6.46527">
        <ele>1602.5999755859</ele>
        <time>2012-11-30T13:25:37.000Z</time>
      </trkpt>
      <trkpt lat="45.96405" lon="6.46526">
        <ele>1603</ele>
        <time>2012-11-30T13:25:40.000Z</time>
      </trkpt>
      <trkpt lat="45.96401" lon="6.46522">
        <ele>1604</ele>
        <time>2012-11-30T13:25:43.000Z</time>
      </trkpt>
      <trkpt lat="45.96398" lon="6.46523">
        <ele>1605</ele>
        <time>2012-11-30T13:25:47.000Z</time>
      </trkpt>
      <trkpt lat="45.96396" lon="6.46523">
        <ele>1606</ele>
        <time>2012-11-30T13:25:50.000Z</time>
      </trkpt>
      <trkpt lat="45.96395" lon="6.46524">
        <ele>1606</ele>
        <time>2012-11-30T13:25:56.000Z</time>
      </trkpt>
      <trkpt lat="45.96396" lon="6.46529">
        <ele>1606.4000244141</ele>
        <time>2012-11-30T13:26:00.000Z</time>
      </trkpt>
      <trkpt lat="45.96397" lon="6.46534">
        <ele>1606.8000488281</ele>
        <time>2012-11-30T13:26:04.000Z</time>
      </trkpt>
      <trkpt lat="45.96398" lon="6.46537">
        <ele>1608.4000244141</ele>
        <time>2012-11-30T13:26:08.000Z</time>
      </trkpt>
      <trkpt lat="45.96399" lon="6.4654">
        <ele>1609.1999511719</ele>
        <time>2012-11-30T13:26:12.000Z</time>
      </trkpt>
      <trkpt lat="45.96401" lon="6.46543">
        <ele>1611.1999511719</ele>
        <time>2012-11-30T13:26:17.000Z</time>
      </trkpt>
      <trkpt lat="45.96403" lon="6.46547">
        <ele>1612.5999755859</ele>
        <time>2012-11-30T13:26:22.000Z</time>
      </trkpt>
      <trkpt lat="45.96404" lon="6.46548">
        <ele>1614.5999755859</ele>
        <time>2012-11-30T13:26:27.000Z</time>
      </trkpt>
      <trkpt lat="45.96404" lon="6.46551">
        <ele>1616.4000244141</ele>
        <time>2012-11-30T13:26:31.000Z</time>
      </trkpt>
      <trkpt lat="45.96403" lon="6.46555">
        <ele>1618.4000244141</ele>
        <time>2012-11-30T13:26:34.000Z</time>
      </trkpt>
      <trkpt lat="45.96401" lon="6.46557">
        <ele>1619.8000488281</ele>
        <time>2012-11-30T13:26:37.000Z</time>
      </trkpt>
      <trkpt lat="45.96398" lon="6.46558">
        <ele>1621.4000244141</ele>
        <time>2012-11-30T13:26:41.000Z</time>
      </trkpt>
      <trkpt lat="45.96396" lon="6.4656">
        <ele>1621.4000244141</ele>
        <time>2012-11-30T13:26:44.000Z</time>
      </trkpt>
      <trkpt lat="45.96394" lon="6.4656">
        <ele>1621.4000244141</ele>
        <time>2012-11-30T13:26:48.000Z</time>
      </trkpt>
      <trkpt lat="45.96391" lon="6.4656">
        <ele>1621.8000488281</ele>
        <time>2012-11-30T13:26:53.000Z</time>
      </trkpt>
      <trkpt lat="45.96389" lon="6.46561">
        <ele>1621.4000244141</ele>
        <time>2012-11-30T13:26:56.000Z</time>
      </trkpt>
      <trkpt lat="45.96389" lon="6.46561">
        <ele>1621.4000244141</ele>
        <time>2012-11-30T13:26:59.000Z</time>
      </trkpt>
      <trkpt lat="45.96386" lon="6.46561">
        <ele>1622.1999511719</ele>
        <time>2012-11-30T13:27:04.000Z</time>
      </trkpt>
      <trkpt lat="45.96384" lon="6.46561">
        <ele>1623.8000488281</ele>
        <time>2012-11-30T13:27:08.000Z</time>
      </trkpt>
      <trkpt lat="45.96385" lon="6.46562">
        <ele>1623.1999511719</ele>
        <time>2012-11-30T13:27:13.000Z</time>
      </trkpt>
      <trkpt lat="45.96385" lon="6.46566">
        <ele>1624.1999511719</ele>
        <time>2012-11-30T13:27:18.000Z</time>
      </trkpt>
      <trkpt lat="45.96387" lon="6.46568">
        <ele>1624.5999755859</ele>
        <time>2012-11-30T13:27:22.000Z</time>
      </trkpt>
      <trkpt lat="45.96388" lon="6.46572">
        <ele>1625.1999511719</ele>
        <time>2012-11-30T13:27:26.000Z</time>
      </trkpt>
      <trkpt lat="45.96388" lon="6.46575">
        <ele>1625.5999755859</ele>
        <time>2012-11-30T13:27:30.000Z</time>
      </trkpt>
      <trkpt lat="45.96388" lon="6.46579">
        <ele>1626.1999511719</ele>
        <time>2012-11-30T13:27:34.000Z</time>
      </trkpt>
      <trkpt lat="45.96387" lon="6.46584">
        <ele>1627</ele>
        <time>2012-11-30T13:27:40.000Z</time>
      </trkpt>
      <trkpt lat="45.96386" lon="6.46587">
        <ele>1628</ele>
        <time>2012-11-30T13:27:45.000Z</time>
      </trkpt>
      <trkpt lat="45.96385" lon="6.46592">
        <ele>1628.5999755859</ele>
        <time>2012-11-30T13:27:50.000Z</time>
      </trkpt>
      <trkpt lat="45.96385" lon="6.466">
        <ele>1629</ele>
        <time>2012-11-30T13:27:56.000Z</time>
      </trkpt>
      <trkpt lat="45.96384" lon="6.46602">
        <ele>1629.4000244141</ele>
        <time>2012-11-30T13:27:59.000Z</time>
      </trkpt>
      <trkpt lat="45.96382" lon="6.46606">
        <ele>1631</ele>
        <time>2012-11-30T13:28:03.000Z</time>
      </trkpt>
      <trkpt lat="45.9638" lon="6.46609">
        <ele>1632.8000488281</ele>
        <time>2012-11-30T13:28:09.000Z</time>
      </trkpt>
      <trkpt lat="45.96379" lon="6.46611">
        <ele>1634.1999511719</ele>
        <time>2012-11-30T13:28:12.000Z</time>
      </trkpt>
      <trkpt lat="45.96378" lon="6.46614">
        <ele>1635.1999511719</ele>
        <time>2012-11-30T13:28:16.000Z</time>
      </trkpt>
      <trkpt lat="45.96376" lon="6.46617">
        <ele>1636.5999755859</ele>
        <time>2012-11-30T13:28:21.000Z</time>
      </trkpt>
      <trkpt lat="45.96374" lon="6.46619">
        <ele>1636.5999755859</ele>
        <time>2012-11-30T13:28:24.000Z</time>
      </trkpt>
      <trkpt lat="45.96373" lon="6.46623">
        <ele>1636.1999511719</ele>
        <time>2012-11-30T13:28:29.000Z</time>
      </trkpt>
      <trkpt lat="45.96372" lon="6.46628">
        <ele>1636.5999755859</ele>
        <time>2012-11-30T13:28:34.000Z</time>
      </trkpt>
      <trkpt lat="45.96371" lon="6.46632">
        <ele>1636.5999755859</ele>
        <time>2012-11-30T13:28:38.000Z</time>
      </trkpt>
      <trkpt lat="45.9637" lon="6.46634">
        <ele>1637.5999755859</ele>
        <time>2012-11-30T13:28:43.000Z</time>
      </trkpt>
      <trkpt lat="45.96368" lon="6.46638">
        <ele>1639</ele>
        <time>2012-11-30T13:28:48.000Z</time>
      </trkpt>
      <trkpt lat="45.96367" lon="6.46642">
        <ele>1640</ele>
        <time>2012-11-30T13:28:52.000Z</time>
      </trkpt>
      <trkpt lat="45.96366" lon="6.46646">
        <ele>1641</ele>
        <time>2012-11-30T13:28:57.000Z</time>
      </trkpt>
      <trkpt lat="45.96364" lon="6.46646">
        <ele>1641.4000244141</ele>
        <time>2012-11-30T13:29:00.000Z</time>
      </trkpt>
      <trkpt lat="45.96363" lon="6.46651">
        <ele>1643.4000244141</ele>
        <time>2012-11-30T13:29:05.000Z</time>
      </trkpt>
      <trkpt lat="45.9636" lon="6.46656">
        <ele>1644.8000488281</ele>
        <time>2012-11-30T13:29:10.000Z</time>
      </trkpt>
      <trkpt lat="45.96357" lon="6.46659">
        <ele>1645.8000488281</ele>
        <time>2012-11-30T13:29:15.000Z</time>
      </trkpt>
      <trkpt lat="45.96355" lon="6.46664">
        <ele>1646.1999511719</ele>
        <time>2012-11-30T13:29:20.000Z</time>
      </trkpt>
      <trkpt lat="45.9635" lon="6.4667">
        <ele>1646.8000488281</ele>
        <time>2012-11-30T13:29:27.000Z</time>
      </trkpt>
      <trkpt lat="45.96348" lon="6.46673">
        <ele>1646.8000488281</ele>
        <time>2012-11-30T13:29:29.000Z</time>
      </trkpt>
      <trkpt lat="45.96346" lon="6.46677">
        <ele>1646.1999511719</ele>
        <time>2012-11-30T13:29:32.000Z</time>
      </trkpt>
      <trkpt lat="45.96341" lon="6.46682">
        <ele>1646.8000488281</ele>
        <time>2012-11-30T13:29:37.000Z</time>
      </trkpt>
      <trkpt lat="45.96337" lon="6.46684">
        <ele>1649.1999511719</ele>
        <time>2012-11-30T13:29:41.000Z</time>
      </trkpt>
      <trkpt lat="45.96333" lon="6.46689">
        <ele>1650.5999755859</ele>
        <time>2012-11-30T13:29:46.000Z</time>
      </trkpt>
      <trkpt lat="45.9633" lon="6.46695">
        <ele>1652</ele>
        <time>2012-11-30T13:29:53.000Z</time>
      </trkpt>
      <trkpt lat="45.96328" lon="6.46698">
        <ele>1653</ele>
        <time>2012-11-30T13:29:57.000Z</time>
      </trkpt>
      <trkpt lat="45.96325" lon="6.46703">
        <ele>1653.5999755859</ele>
        <time>2012-11-30T13:30:03.000Z</time>
      </trkpt>
      <trkpt lat="45.96325" lon="6.46707">
        <ele>1654</ele>
        <time>2012-11-30T13:30:09.000Z</time>
      </trkpt>
      <trkpt lat="45.96325" lon="6.46713">
        <ele>1655</ele>
        <time>2012-11-30T13:30:14.000Z</time>
      </trkpt>
      <trkpt lat="45.96326" lon="6.46718">
        <ele>1655</ele>
        <time>2012-11-30T13:30:18.000Z</time>
      </trkpt>
      <trkpt lat="45.96326" lon="6.46724">
        <ele>1656</ele>
        <time>2012-11-30T13:30:23.000Z</time>
      </trkpt>
      <trkpt lat="45.96325" lon="6.46731">
        <ele>1656.8000488281</ele>
        <time>2012-11-30T13:30:29.000Z</time>
      </trkpt>
      <trkpt lat="45.96325" lon="6.46735">
        <ele>1657.4000244141</ele>
        <time>2012-11-30T13:30:33.000Z</time>
      </trkpt>
      <trkpt lat="45.96324" lon="6.46739">
        <ele>1658.8000488281</ele>
        <time>2012-11-30T13:30:38.000Z</time>
      </trkpt>
      <trkpt lat="45.96323" lon="6.46745">
        <ele>1659.1999511719</ele>
        <time>2012-11-30T13:30:43.000Z</time>
      </trkpt>
      <trkpt lat="45.96322" lon="6.46751">
        <ele>1660.1999511719</ele>
        <time>2012-11-30T13:30:47.000Z</time>
      </trkpt>
      <trkpt lat="45.96322" lon="6.46755">
        <ele>1660.1999511719</ele>
        <time>2012-11-30T13:30:50.000Z</time>
      </trkpt>
      <trkpt lat="45.9632" lon="6.46761">
        <ele>1662.1999511719</ele>
        <time>2012-11-30T13:30:54.000Z</time>
      </trkpt>
      <trkpt lat="45.9632" lon="6.46768">
        <ele>1662.5999755859</ele>
        <time>2012-11-30T13:30:58.000Z</time>
      </trkpt>
      <trkpt lat="45.96319" lon="6.46776">
        <ele>1663.5999755859</ele>
        <time>2012-11-30T13:31:03.000Z</time>
      </trkpt>
      <trkpt lat="45.96318" lon="6.46783">
        <ele>1663.5999755859</ele>
        <time>2012-11-30T13:31:08.000Z</time>
      </trkpt>
      <trkpt lat="45.96316" lon="6.46787">
        <ele>1663.5999755859</ele>
        <time>2012-11-30T13:31:11.000Z</time>
      </trkpt>
      <trkpt lat="45.96316" lon="6.46795">
        <ele>1665.5999755859</ele>
        <time>2012-11-30T13:31:17.000Z</time>
      </trkpt>
      <trkpt lat="45.96315" lon="6.46799">
        <ele>1666.4000244141</ele>
        <time>2012-11-30T13:31:21.000Z</time>
      </trkpt>
      <trkpt lat="45.96314" lon="6.46804">
        <ele>1666.4000244141</ele>
        <time>2012-11-30T13:31:25.000Z</time>
      </trkpt>
      <trkpt lat="45.96312" lon="6.4681">
        <ele>1667.4000244141</ele>
        <time>2012-11-30T13:31:30.000Z</time>
      </trkpt>
      <trkpt lat="45.96311" lon="6.46814">
        <ele>1668</ele>
        <time>2012-11-30T13:31:35.000Z</time>
      </trkpt>
      <trkpt lat="45.9631" lon="6.46818">
        <ele>1668</ele>
        <time>2012-11-30T13:31:40.000Z</time>
      </trkpt>
      <trkpt lat="45.96309" lon="6.46823">
        <ele>1668.4000244141</ele>
        <time>2012-11-30T13:31:45.000Z</time>
      </trkpt>
      <trkpt lat="45.96309" lon="6.46827">
        <ele>1669.4000244141</ele>
        <time>2012-11-30T13:31:50.000Z</time>
      </trkpt>
      <trkpt lat="45.9631" lon="6.46831">
        <ele>1669.8000488281</ele>
        <time>2012-11-30T13:31:53.000Z</time>
      </trkpt>
      <trkpt lat="45.96313" lon="6.46836">
        <ele>1670.8000488281</ele>
        <time>2012-11-30T13:31:59.000Z</time>
      </trkpt>
      <trkpt lat="45.96315" lon="6.46841">
        <ele>1671.1999511719</ele>
        <time>2012-11-30T13:32:04.000Z</time>
      </trkpt>
      <trkpt lat="45.96317" lon="6.46846">
        <ele>1672.1999511719</ele>
        <time>2012-11-30T13:32:10.000Z</time>
      </trkpt>
      <trkpt lat="45.9632" lon="6.46852">
        <ele>1675.1999511719</ele>
        <time>2012-11-30T13:32:15.000Z</time>
      </trkpt>
      <trkpt lat="45.9632" lon="6.46852">
        <ele>1676</ele>
        <time>2012-11-30T13:32:20.000Z</time>
      </trkpt>
      <trkpt lat="45.9632" lon="6.46853">
        <ele>1677</ele>
        <time>2012-11-30T13:32:27.000Z</time>
      </trkpt>
      <trkpt lat="45.96322" lon="6.46853">
        <ele>1677</ele>
        <time>2012-11-30T13:32:32.000Z</time>
      </trkpt>
      <trkpt lat="45.96322" lon="6.46852">
        <ele>1676.5999755859</ele>
        <time>2012-11-30T13:32:45.000Z</time>
      </trkpt>
      <trkpt lat="45.96323" lon="6.46853">
        <ele>1677.5999755859</ele>
        <time>2012-11-30T13:32:54.000Z</time>
      </trkpt>
      <trkpt lat="45.96323" lon="6.46856">
        <ele>1678</ele>
        <time>2012-11-30T13:32:59.000Z</time>
      </trkpt>
      <trkpt lat="45.96325" lon="6.46857">
        <ele>1678</ele>
        <time>2012-11-30T13:33:04.000Z</time>
      </trkpt>
      <trkpt lat="45.96324" lon="6.46857">
        <ele>1678</ele>
        <time>2012-11-30T13:33:09.000Z</time>
      </trkpt>
      <trkpt lat="45.96324" lon="6.46857">
        <ele>1677.5999755859</ele>
        <time>2012-11-30T13:33:14.000Z</time>
      </trkpt>
      <trkpt lat="45.96324" lon="6.46858">
        <ele>1677.5999755859</ele>
        <time>2012-11-30T13:33:26.000Z</time>
      </trkpt>
      <trkpt lat="45.96325" lon="6.46858">
        <ele>1677.5999755859</ele>
        <time>2012-11-30T13:33:49.000Z</time>
      </trkpt>
      <trkpt lat="45.96325" lon="6.46858">
        <ele>1676.5999755859</ele>
        <time>2012-11-30T13:34:46.000Z</time>
      </trkpt>
      <trkpt lat="45.96325" lon="6.46858">
        <ele>1676</ele>
        <time>2012-11-30T13:34:58.000Z</time>
      </trkpt>
      <trkpt lat="45.96325" lon="6.46858">
        <ele>1676</ele>
        <time>2012-11-30T13:35:09.000Z</time>
      </trkpt>
      <trkpt lat="45.96325" lon="6.46858">
        <ele>1677</ele>
        <time>2012-11-30T13:35:14.000Z</time>
      </trkpt>
      <trkpt lat="45.96326" lon="6.46858">
        <ele>1676</ele>
        <time>2012-11-30T13:35:24.000Z</time>
      </trkpt>
      <trkpt lat="45.96326" lon="6.46865">
        <ele>1676</ele>
        <time>2012-11-30T13:35:29.000Z</time>
      </trkpt>
      <trkpt lat="45.96326" lon="6.46874">
        <ele>1677</ele>
        <time>2012-11-30T13:35:35.000Z</time>
      </trkpt>
      <trkpt lat="45.96326" lon="6.46875">
        <ele>1677</ele>
        <time>2012-11-30T13:35:36.000Z</time>
      </trkpt>
      <trkpt lat="45.96326" lon="6.4688">
        <ele>1677.5999755859</ele>
        <time>2012-11-30T13:35:39.000Z</time>
      </trkpt>
      <trkpt lat="45.96327" lon="6.46891">
        <ele>1679</ele>
        <time>2012-11-30T13:35:45.000Z</time>
      </trkpt>
      <trkpt lat="45.96327" lon="6.46898">
        <ele>1680</ele>
        <time>2012-11-30T13:35:49.000Z</time>
      </trkpt>
      <trkpt lat="45.96327" lon="6.46901">
        <ele>1679.4000244141</ele>
        <time>2012-11-30T13:35:50.000Z</time>
      </trkpt>
      <trkpt lat="45.96326" lon="6.46911">
        <ele>1680.4000244141</ele>
        <time>2012-11-30T13:35:56.000Z</time>
      </trkpt>
      <trkpt lat="45.96326" lon="6.46921">
        <ele>1681</ele>
        <time>2012-11-30T13:36:02.000Z</time>
      </trkpt>
      <trkpt lat="45.96329" lon="6.4693">
        <ele>1682.8000488281</ele>
        <time>2012-11-30T13:36:06.000Z</time>
      </trkpt>
      <trkpt lat="45.96329" lon="6.46931">
        <ele>1683.4000244141</ele>
        <time>2012-11-30T13:36:07.000Z</time>
      </trkpt>
      <trkpt lat="45.9633" lon="6.46935">
        <ele>1685.1999511719</ele>
        <time>2012-11-30T13:36:11.000Z</time>
      </trkpt>
      <trkpt lat="45.9633" lon="6.46942">
        <ele>1687.1999511719</ele>
        <time>2012-11-30T13:36:17.000Z</time>
      </trkpt>
      <trkpt lat="45.96332" lon="6.46947">
        <ele>1690</ele>
        <time>2012-11-30T13:36:22.000Z</time>
      </trkpt>
      <trkpt lat="45.96331" lon="6.46951">
        <ele>1691</ele>
        <time>2012-11-30T13:36:26.000Z</time>
      </trkpt>
      <trkpt lat="45.9633" lon="6.46953">
        <ele>1692.4000244141</ele>
        <time>2012-11-30T13:36:29.000Z</time>
      </trkpt>
      <trkpt lat="45.9633" lon="6.46958">
        <ele>1693.8000488281</ele>
        <time>2012-11-30T13:36:33.000Z</time>
      </trkpt>
      <trkpt lat="45.96331" lon="6.46962">
        <ele>1696.1999511719</ele>
        <time>2012-11-30T13:36:36.000Z</time>
      </trkpt>
      <trkpt lat="45.96332" lon="6.46967">
        <ele>1699.1999511719</ele>
        <time>2012-11-30T13:36:41.000Z</time>
      </trkpt>
      <trkpt lat="45.96333" lon="6.46971">
        <ele>1701</ele>
        <time>2012-11-30T13:36:45.000Z</time>
      </trkpt>
      <trkpt lat="45.96333" lon="6.46974">
        <ele>1703.4000244141</ele>
        <time>2012-11-30T13:36:48.000Z</time>
      </trkpt>
      <trkpt lat="45.96333" lon="6.46976">
        <ele>1705</ele>
        <time>2012-11-30T13:36:52.000Z</time>
      </trkpt>
      <trkpt lat="45.96331" lon="6.4698">
        <ele>1705</ele>
        <time>2012-11-30T13:36:56.000Z</time>
      </trkpt>
      <trkpt lat="45.96329" lon="6.46983">
        <ele>1706.4000244141</ele>
        <time>2012-11-30T13:36:59.000Z</time>
      </trkpt>
      <trkpt lat="45.96329" lon="6.46987">
        <ele>1706.8000488281</ele>
        <time>2012-11-30T13:37:03.000Z</time>
      </trkpt>
      <trkpt lat="45.96329" lon="6.46992">
        <ele>1706.8000488281</ele>
        <time>2012-11-30T13:37:08.000Z</time>
      </trkpt>
      <trkpt lat="45.96328" lon="6.46996">
        <ele>1706.4000244141</ele>
        <time>2012-11-30T13:37:13.000Z</time>
      </trkpt>
      <trkpt lat="45.96328" lon="6.46999">
        <ele>1707.8000488281</ele>
        <time>2012-11-30T13:37:17.000Z</time>
      </trkpt>
      <trkpt lat="45.96328" lon="6.47004">
        <ele>1706.8000488281</ele>
        <time>2012-11-30T13:37:21.000Z</time>
      </trkpt>
      <trkpt lat="45.96329" lon="6.47008">
        <ele>1705.4000244141</ele>
        <time>2012-11-30T13:37:24.000Z</time>
      </trkpt>
      <trkpt lat="45.96328" lon="6.47012">
        <ele>1705.4000244141</ele>
        <time>2012-11-30T13:37:28.000Z</time>
      </trkpt>
      <trkpt lat="45.96329" lon="6.47017">
        <ele>1705.8000488281</ele>
        <time>2012-11-30T13:37:32.000Z</time>
      </trkpt>
      <trkpt lat="45.9633" lon="6.47022">
        <ele>1706.8000488281</ele>
        <time>2012-11-30T13:37:37.000Z</time>
      </trkpt>
      <trkpt lat="45.96329" lon="6.47026">
        <ele>1706.4000244141</ele>
        <time>2012-11-30T13:37:40.000Z</time>
      </trkpt>
      <trkpt lat="45.96329" lon="6.4703">
        <ele>1706.8000488281</ele>
        <time>2012-11-30T13:37:44.000Z</time>
      </trkpt>
      <trkpt lat="45.9633" lon="6.47034">
        <ele>1707.4000244141</ele>
        <time>2012-11-30T13:37:48.000Z</time>
      </trkpt>
      <trkpt lat="45.96331" lon="6.47039">
        <ele>1708.4000244141</ele>
        <time>2012-11-30T13:37:52.000Z</time>
      </trkpt>
      <trkpt lat="45.96332" lon="6.47044">
        <ele>1708.4000244141</ele>
        <time>2012-11-30T13:37:57.000Z</time>
      </trkpt>
      <trkpt lat="45.96332" lon="6.47049">
        <ele>1709.1999511719</ele>
        <time>2012-11-30T13:38:01.000Z</time>
      </trkpt>
      <trkpt lat="45.96332" lon="6.47053">
        <ele>1709.8000488281</ele>
        <time>2012-11-30T13:38:05.000Z</time>
      </trkpt>
      <trkpt lat="45.96331" lon="6.47057">
        <ele>1710.8000488281</ele>
        <time>2012-11-30T13:38:09.000Z</time>
      </trkpt>
      <trkpt lat="45.96332" lon="6.47063">
        <ele>1711.5999755859</ele>
        <time>2012-11-30T13:38:13.000Z</time>
      </trkpt>
      <trkpt lat="45.96331" lon="6.47066">
        <ele>1712.5999755859</ele>
        <time>2012-11-30T13:38:17.000Z</time>
      </trkpt>
      <trkpt lat="45.9633" lon="6.47069">
        <ele>1713.5999755859</ele>
        <time>2012-11-30T13:38:21.000Z</time>
      </trkpt>
      <trkpt lat="45.96329" lon="6.47071">
        <ele>1714</ele>
        <time>2012-11-30T13:38:24.000Z</time>
      </trkpt>
      <trkpt lat="45.96329" lon="6.47075">
        <ele>1716</ele>
        <time>2012-11-30T13:38:29.000Z</time>
      </trkpt>
      <trkpt lat="45.9633" lon="6.47079">
        <ele>1717</ele>
        <time>2012-11-30T13:38:34.000Z</time>
      </trkpt>
      <trkpt lat="45.96331" lon="6.47084">
        <ele>1718</ele>
        <time>2012-11-30T13:38:39.000Z</time>
      </trkpt>
      <trkpt lat="45.9633" lon="6.4709">
        <ele>1718.8000488281</ele>
        <time>2012-11-30T13:38:44.000Z</time>
      </trkpt>
      <trkpt lat="45.96329" lon="6.47091">
        <ele>1719.8000488281</ele>
        <time>2012-11-30T13:38:47.000Z</time>
      </trkpt>
      <trkpt lat="45.96328" lon="6.47093">
        <ele>1721.1999511719</ele>
        <time>2012-11-30T13:38:51.000Z</time>
      </trkpt>
      <trkpt lat="45.96328" lon="6.47097">
        <ele>1722.1999511719</ele>
        <time>2012-11-30T13:38:55.000Z</time>
      </trkpt>
      <trkpt lat="45.96328" lon="6.471">
        <ele>1723.5999755859</ele>
        <time>2012-11-30T13:38:59.000Z</time>
      </trkpt>
      <trkpt lat="45.96327" lon="6.47107">
        <ele>1724.5999755859</ele>
        <time>2012-11-30T13:39:04.000Z</time>
      </trkpt>
      <trkpt lat="45.96328" lon="6.4711">
        <ele>1725.5999755859</ele>
        <time>2012-11-30T13:39:08.000Z</time>
      </trkpt>
      <trkpt lat="45.96328" lon="6.47113">
        <ele>1725.1999511719</ele>
        <time>2012-11-30T13:39:14.000Z</time>
      </trkpt>
      <trkpt lat="45.96328" lon="6.47118">
        <ele>1728</ele>
        <time>2012-11-30T13:39:21.000Z</time>
      </trkpt>
      <trkpt lat="45.96328" lon="6.47121">
        <ele>1728.4000244141</ele>
        <time>2012-11-30T13:39:25.000Z</time>
      </trkpt>
      <trkpt lat="45.96328" lon="6.47124">
        <ele>1729</ele>
        <time>2012-11-30T13:39:28.000Z</time>
      </trkpt>
      <trkpt lat="45.96329" lon="6.47126">
        <ele>1730</ele>
        <time>2012-11-30T13:39:31.000Z</time>
      </trkpt>
      <trkpt lat="45.9633" lon="6.47129">
        <ele>1730.8000488281</ele>
        <time>2012-11-30T13:39:35.000Z</time>
      </trkpt>
      <trkpt lat="45.9633" lon="6.47133">
        <ele>1730.8000488281</ele>
        <time>2012-11-30T13:39:39.000Z</time>
      </trkpt>
      <trkpt lat="45.96329" lon="6.47137">
        <ele>1731.4000244141</ele>
        <time>2012-11-30T13:39:44.000Z</time>
      </trkpt>
      <trkpt lat="45.9633" lon="6.4714">
        <ele>1732.4000244141</ele>
        <time>2012-11-30T13:39:48.000Z</time>
      </trkpt>
      <trkpt lat="45.9633" lon="6.47143">
        <ele>1733.1999511719</ele>
        <time>2012-11-30T13:39:52.000Z</time>
      </trkpt>
      <trkpt lat="45.9633" lon="6.47147">
        <ele>1734.8000488281</ele>
        <time>2012-11-30T13:39:57.000Z</time>
      </trkpt>
      <trkpt lat="45.96331" lon="6.47151">
        <ele>1735.1999511719</ele>
        <time>2012-11-30T13:40:02.000Z</time>
      </trkpt>
      <trkpt lat="45.9633" lon="6.47155">
        <ele>1736.5999755859</ele>
        <time>2012-11-30T13:40:06.000Z</time>
      </trkpt>
      <trkpt lat="45.96331" lon="6.4716">
        <ele>1737.1999511719</ele>
        <time>2012-11-30T13:40:11.000Z</time>
      </trkpt>
      <trkpt lat="45.9633" lon="6.47163">
        <ele>1737.5999755859</ele>
        <time>2012-11-30T13:40:15.000Z</time>
      </trkpt>
      <trkpt lat="45.9633" lon="6.47167">
        <ele>1738.1999511719</ele>
        <time>2012-11-30T13:40:19.000Z</time>
      </trkpt>
      <trkpt lat="45.9633" lon="6.4717">
        <ele>1739.5999755859</ele>
        <time>2012-11-30T13:40:24.000Z</time>
      </trkpt>
      <trkpt lat="45.9633" lon="6.47174">
        <ele>1740</ele>
        <time>2012-11-30T13:40:27.000Z</time>
      </trkpt>
      <trkpt lat="45.96329" lon="6.47178">
        <ele>1741</ele>
        <time>2012-11-30T13:40:32.000Z</time>
      </trkpt>
      <trkpt lat="45.96327" lon="6.47182">
        <ele>1741.4000244141</ele>
        <time>2012-11-30T13:40:36.000Z</time>
      </trkpt>
      <trkpt lat="45.96328" lon="6.47185">
        <ele>1743.4000244141</ele>
        <time>2012-11-30T13:40:40.000Z</time>
      </trkpt>
      <trkpt lat="45.96327" lon="6.47188">
        <ele>1743.8000488281</ele>
        <time>2012-11-30T13:40:45.000Z</time>
      </trkpt>
      <trkpt lat="45.96326" lon="6.47192">
        <ele>1745.8000488281</ele>
        <time>2012-11-30T13:40:49.000Z</time>
      </trkpt>
      <trkpt lat="45.96326" lon="6.47195">
        <ele>1747.1999511719</ele>
        <time>2012-11-30T13:40:53.000Z</time>
      </trkpt>
      <trkpt lat="45.96326" lon="6.47198">
        <ele>1748.5999755859</ele>
        <time>2012-11-30T13:40:57.000Z</time>
      </trkpt>
      <trkpt lat="45.96325" lon="6.47201">
        <ele>1749.1999511719</ele>
        <time>2012-11-30T13:41:02.000Z</time>
      </trkpt>
      <trkpt lat="45.96325" lon="6.47205">
        <ele>1749.5999755859</ele>
        <time>2012-11-30T13:41:07.000Z</time>
      </trkpt>
      <trkpt lat="45.96325" lon="6.47208">
        <ele>1751</ele>
        <time>2012-11-30T13:41:11.000Z</time>
      </trkpt>
      <trkpt lat="45.96324" lon="6.47211">
        <ele>1753</ele>
        <time>2012-11-30T13:41:16.000Z</time>
      </trkpt>
      <trkpt lat="45.96323" lon="6.47212">
        <ele>1753</ele>
        <time>2012-11-30T13:41:22.000Z</time>
      </trkpt>
      <trkpt lat="45.96323" lon="6.47214">
        <ele>1753.4000244141</ele>
        <time>2012-11-30T13:41:32.000Z</time>
      </trkpt>
      <trkpt lat="45.96322" lon="6.47218">
        <ele>1754</ele>
        <time>2012-11-30T13:41:37.000Z</time>
      </trkpt>
      <trkpt lat="45.96321" lon="6.47221">
        <ele>1754.4000244141</ele>
        <time>2012-11-30T13:41:41.000Z</time>
      </trkpt>
      <trkpt lat="45.96321" lon="6.47226">
        <ele>1755.8000488281</ele>
        <time>2012-11-30T13:41:46.000Z</time>
      </trkpt>
      <trkpt lat="45.96321" lon="6.47231">
        <ele>1757.4000244141</ele>
        <time>2012-11-30T13:41:51.000Z</time>
      </trkpt>
      <trkpt lat="45.96321" lon="6.47235">
        <ele>1757.4000244141</ele>
        <time>2012-11-30T13:41:56.000Z</time>
      </trkpt>
      <trkpt lat="45.96321" lon="6.47238">
        <ele>1757.4000244141</ele>
        <time>2012-11-30T13:42:00.000Z</time>
      </trkpt>
      <trkpt lat="45.96321" lon="6.47243">
        <ele>1758.1999511719</ele>
        <time>2012-11-30T13:42:04.000Z</time>
      </trkpt>
      <trkpt lat="45.9632" lon="6.47247">
        <ele>1758.8000488281</ele>
        <time>2012-11-30T13:42:08.000Z</time>
      </trkpt>
      <trkpt lat="45.9632" lon="6.47251">
        <ele>1759.8000488281</ele>
        <time>2012-11-30T13:42:13.000Z</time>
      </trkpt>
      <trkpt lat="45.9632" lon="6.47256">
        <ele>1760.5999755859</ele>
        <time>2012-11-30T13:42:17.000Z</time>
      </trkpt>
      <trkpt lat="45.96319" lon="6.47259">
        <ele>1760.5999755859</ele>
        <time>2012-11-30T13:42:21.000Z</time>
      </trkpt>
      <trkpt lat="45.96319" lon="6.47263">
        <ele>1762.1999511719</ele>
        <time>2012-11-30T13:42:26.000Z</time>
      </trkpt>
      <trkpt lat="45.9632" lon="6.47268">
        <ele>1763</ele>
        <time>2012-11-30T13:42:31.000Z</time>
      </trkpt>
      <trkpt lat="45.96322" lon="6.47272">
        <ele>1764.5999755859</ele>
        <time>2012-11-30T13:42:36.000Z</time>
      </trkpt>
      <trkpt lat="45.96325" lon="6.47276">
        <ele>1765</ele>
        <time>2012-11-30T13:42:41.000Z</time>
      </trkpt>
      <trkpt lat="45.96329" lon="6.4728">
        <ele>1766</ele>
        <time>2012-11-30T13:42:47.000Z</time>
      </trkpt>
      <trkpt lat="45.96333" lon="6.47285">
        <ele>1767</ele>
        <time>2012-11-30T13:42:54.000Z</time>
      </trkpt>
      <trkpt lat="45.96333" lon="6.47284">
        <ele>1766</ele>
        <time>2012-11-30T13:43:04.000Z</time>
      </trkpt>
      <trkpt lat="45.96334" lon="6.47283">
        <ele>1768</ele>
        <time>2012-11-30T13:43:30.000Z</time>
      </trkpt>
      <trkpt lat="45.96335" lon="6.47285">
        <ele>1768.4000244141</ele>
        <time>2012-11-30T13:43:37.000Z</time>
      </trkpt>
      <trkpt lat="45.96334" lon="6.47287">
        <ele>1768.4000244141</ele>
        <time>2012-11-30T13:43:43.000Z</time>
      </trkpt>
      <trkpt lat="45.96334" lon="6.47292">
        <ele>1768.4000244141</ele>
        <time>2012-11-30T13:43:52.000Z</time>
      </trkpt>
      <trkpt lat="45.96334" lon="6.47297">
        <ele>1768.8000488281</ele>
        <time>2012-11-30T13:43:57.000Z</time>
      </trkpt>
      <trkpt lat="45.96336" lon="6.47296">
        <ele>1769.8000488281</ele>
        <time>2012-11-30T13:44:11.000Z</time>
      </trkpt>
      <trkpt lat="45.96335" lon="6.47295">
        <ele>1770.8000488281</ele>
        <time>2012-11-30T13:44:15.000Z</time>
      </trkpt>
      <trkpt lat="45.96292" lon="6.47295">
        <ele>1776.5999755859</ele>
        <time>2012-11-30T13:47:53.000Z</time>
      </trkpt>
      <trkpt lat="45.96291" lon="6.47295">
        <ele>1777</ele>
        <time>2012-11-30T13:47:54.000Z</time>
      </trkpt>
      <trkpt lat="45.96287" lon="6.47295">
        <ele>1778.4000244141</ele>
        <time>2012-11-30T13:47:58.000Z</time>
      </trkpt>
      <trkpt lat="45.96287" lon="6.47294">
        <ele>1779.4000244141</ele>
        <time>2012-11-30T13:48:02.000Z</time>
      </trkpt>
      <trkpt lat="45.96287" lon="6.47292">
        <ele>1780.8000488281</ele>
        <time>2012-11-30T13:48:05.000Z</time>
      </trkpt>
      <trkpt lat="45.96287" lon="6.47292">
        <ele>1782.8000488281</ele>
        <time>2012-11-30T13:48:09.000Z</time>
      </trkpt>
      <trkpt lat="45.96285" lon="6.47294">
        <ele>1783.8000488281</ele>
        <time>2012-11-30T13:48:13.000Z</time>
      </trkpt>
      <trkpt lat="45.96283" lon="6.47297">
        <ele>1786.1999511719</ele>
        <time>2012-11-30T13:48:17.000Z</time>
      </trkpt>
      <trkpt lat="45.96284" lon="6.47299">
        <ele>1787.5999755859</ele>
        <time>2012-11-30T13:48:22.000Z</time>
      </trkpt>
      <trkpt lat="45.96285" lon="6.47301">
        <ele>1788</ele>
        <time>2012-11-30T13:48:25.000Z</time>
      </trkpt>
      <trkpt lat="45.96286" lon="6.47304">
        <ele>1788.5999755859</ele>
        <time>2012-11-30T13:48:29.000Z</time>
      </trkpt>
      <trkpt lat="45.96288" lon="6.47308">
        <ele>1789</ele>
        <time>2012-11-30T13:48:34.000Z</time>
      </trkpt>
      <trkpt lat="45.96286" lon="6.47308">
        <ele>1790</ele>
        <time>2012-11-30T13:48:37.000Z</time>
      </trkpt>
      <trkpt lat="45.96285" lon="6.47306">
        <ele>1791</ele>
        <time>2012-11-30T13:48:41.000Z</time>
      </trkpt>
      <trkpt lat="45.96285" lon="6.47307">
        <ele>1792</ele>
        <time>2012-11-30T13:48:45.000Z</time>
      </trkpt>
      <trkpt lat="45.96284" lon="6.47307">
        <ele>1792.8000488281</ele>
        <time>2012-11-30T13:48:49.000Z</time>
      </trkpt>
      <trkpt lat="45.96286" lon="6.47311">
        <ele>1793.8000488281</ele>
        <time>2012-11-30T13:48:55.000Z</time>
      </trkpt>
      <trkpt lat="45.96287" lon="6.47314">
        <ele>1794.8000488281</ele>
        <time>2012-11-30T13:48:59.000Z</time>
      </trkpt>
      <trkpt lat="45.96289" lon="6.47318">
        <ele>1797.8000488281</ele>
        <time>2012-11-30T13:49:03.000Z</time>
      </trkpt>
      <trkpt lat="45.96291" lon="6.47323">
        <ele>1799.5999755859</ele>
        <time>2012-11-30T13:49:08.000Z</time>
      </trkpt>
      <trkpt lat="45.96292" lon="6.47325">
        <ele>1800.1999511719</ele>
        <time>2012-11-30T13:49:12.000Z</time>
      </trkpt>
      <trkpt lat="45.9629" lon="6.47326">
        <ele>1801</ele>
        <time>2012-11-30T13:49:16.000Z</time>
      </trkpt>
      <trkpt lat="45.96287" lon="6.47327">
        <ele>1801.5999755859</ele>
        <time>2012-11-30T13:49:21.000Z</time>
      </trkpt>
      <trkpt lat="45.96285" lon="6.47329">
        <ele>1802</ele>
        <time>2012-11-30T13:49:25.000Z</time>
      </trkpt>
      <trkpt lat="45.96284" lon="6.47331">
        <ele>1802.5999755859</ele>
        <time>2012-11-30T13:49:28.000Z</time>
      </trkpt>
      <trkpt lat="45.96282" lon="6.47332">
        <ele>1803.4000244141</ele>
        <time>2012-11-30T13:49:34.000Z</time>
      </trkpt>
      <trkpt lat="45.96281" lon="6.47333">
        <ele>1804</ele>
        <time>2012-11-30T13:49:51.000Z</time>
      </trkpt>
      <trkpt lat="45.9628" lon="6.47333">
        <ele>1803</ele>
        <time>2012-11-30T13:49:56.000Z</time>
      </trkpt>
      <trkpt lat="45.96281" lon="6.47335">
        <ele>1804</ele>
        <time>2012-11-30T13:49:59.000Z</time>
      </trkpt>
      <trkpt lat="45.96283" lon="6.47337">
        <ele>1804</ele>
        <time>2012-11-30T13:50:04.000Z</time>
      </trkpt>
      <trkpt lat="45.96285" lon="6.47342">
        <ele>1804.4000244141</ele>
        <time>2012-11-30T13:50:10.000Z</time>
      </trkpt>
      <trkpt lat="45.96287" lon="6.47345">
        <ele>1804.4000244141</ele>
        <time>2012-11-30T13:50:14.000Z</time>
      </trkpt>
      <trkpt lat="45.96288" lon="6.47349">
        <ele>1805</ele>
        <time>2012-11-30T13:50:18.000Z</time>
      </trkpt>
      <trkpt lat="45.9629" lon="6.47353">
        <ele>1806.4000244141</ele>
        <time>2012-11-30T13:50:23.000Z</time>
      </trkpt>
      <trkpt lat="45.96291" lon="6.47357">
        <ele>1806.8000488281</ele>
        <time>2012-11-30T13:50:28.000Z</time>
      </trkpt>
      <trkpt lat="45.96288" lon="6.47359">
        <ele>1807.8000488281</ele>
        <time>2012-11-30T13:50:32.000Z</time>
      </trkpt>
      <trkpt lat="45.96283" lon="6.47362">
        <ele>1808.1999511719</ele>
        <time>2012-11-30T13:50:38.000Z</time>
      </trkpt>
      <trkpt lat="45.96281" lon="6.47363">
        <ele>1808.8000488281</ele>
        <time>2012-11-30T13:50:42.000Z</time>
      </trkpt>
      <trkpt lat="45.96278" lon="6.47366">
        <ele>1810.5999755859</ele>
        <time>2012-11-30T13:50:47.000Z</time>
      </trkpt>
      <trkpt lat="45.96277" lon="6.47368">
        <ele>1811.5999755859</ele>
        <time>2012-11-30T13:50:51.000Z</time>
      </trkpt>
      <trkpt lat="45.96279" lon="6.4737">
        <ele>1811.5999755859</ele>
        <time>2012-11-30T13:50:56.000Z</time>
      </trkpt>
      <trkpt lat="45.96281" lon="6.47374">
        <ele>1811.1999511719</ele>
        <time>2012-11-30T13:51:01.000Z</time>
      </trkpt>
      <trkpt lat="45.96284" lon="6.47378">
        <ele>1812.1999511719</ele>
        <time>2012-11-30T13:51:06.000Z</time>
      </trkpt>
      <trkpt lat="45.96286" lon="6.47381">
        <ele>1811.1999511719</ele>
        <time>2012-11-30T13:51:10.000Z</time>
      </trkpt>
      <trkpt lat="45.96286" lon="6.47385">
        <ele>1812.1999511719</ele>
        <time>2012-11-30T13:51:15.000Z</time>
      </trkpt>
      <trkpt lat="45.96284" lon="6.47388">
        <ele>1813.5999755859</ele>
        <time>2012-11-30T13:51:20.000Z</time>
      </trkpt>
      <trkpt lat="45.96283" lon="6.47391">
        <ele>1814.5999755859</ele>
        <time>2012-11-30T13:51:24.000Z</time>
      </trkpt>
      <trkpt lat="45.9628" lon="6.47393">
        <ele>1815.4000244141</ele>
        <time>2012-11-30T13:51:28.000Z</time>
      </trkpt>
      <trkpt lat="45.96277" lon="6.47397">
        <ele>1817</ele>
        <time>2012-11-30T13:51:34.000Z</time>
      </trkpt>
      <trkpt lat="45.96276" lon="6.474">
        <ele>1818.4000244141</ele>
        <time>2012-11-30T13:51:39.000Z</time>
      </trkpt>
      <trkpt lat="45.96275" lon="6.47401">
        <ele>1819.4000244141</ele>
        <time>2012-11-30T13:51:43.000Z</time>
      </trkpt>
      <trkpt lat="45.9628" lon="6.47404">
        <ele>1821.1999511719</ele>
        <time>2012-11-30T13:51:48.000Z</time>
      </trkpt>
      <trkpt lat="45.96282" lon="6.47407">
        <ele>1822.1999511719</ele>
        <time>2012-11-30T13:51:52.000Z</time>
      </trkpt>
      <trkpt lat="45.96287" lon="6.4741">
        <ele>1824.1999511719</ele>
        <time>2012-11-30T13:51:58.000Z</time>
      </trkpt>
      <trkpt lat="45.96287" lon="6.47412">
        <ele>1824.1999511719</ele>
        <time>2012-11-30T13:52:01.000Z</time>
      </trkpt>
      <trkpt lat="45.96284" lon="6.47414">
        <ele>1825.1999511719</ele>
        <time>2012-11-30T13:52:06.000Z</time>
      </trkpt>
      <trkpt lat="45.96281" lon="6.47416">
        <ele>1825.1999511719</ele>
        <time>2012-11-30T13:52:11.000Z</time>
      </trkpt>
      <trkpt lat="45.96278" lon="6.47419">
        <ele>1826.5999755859</ele>
        <time>2012-11-30T13:52:16.000Z</time>
      </trkpt>
      <trkpt lat="45.96275" lon="6.4742">
        <ele>1828</ele>
        <time>2012-11-30T13:52:22.000Z</time>
      </trkpt>
      <trkpt lat="45.96277" lon="6.47423">
        <ele>1829.4000244141</ele>
        <time>2012-11-30T13:52:28.000Z</time>
      </trkpt>
      <trkpt lat="45.9628" lon="6.47427">
        <ele>1830.8000488281</ele>
        <time>2012-11-30T13:52:33.000Z</time>
      </trkpt>
      <trkpt lat="45.96282" lon="6.4743">
        <ele>1830.8000488281</ele>
        <time>2012-11-30T13:52:37.000Z</time>
      </trkpt>
      <trkpt lat="45.96285" lon="6.47433">
        <ele>1831.8000488281</ele>
        <time>2012-11-30T13:52:43.000Z</time>
      </trkpt>
      <trkpt lat="45.96287" lon="6.47435">
        <ele>1833.8000488281</ele>
        <time>2012-11-30T13:52:48.000Z</time>
      </trkpt>
      <trkpt lat="45.96284" lon="6.47436">
        <ele>1834.8000488281</ele>
        <time>2012-11-30T13:52:54.000Z</time>
      </trkpt>
      <trkpt lat="45.96281" lon="6.4744">
        <ele>1836.1999511719</ele>
        <time>2012-11-30T13:52:59.000Z</time>
      </trkpt>
      <trkpt lat="45.96278" lon="6.47443">
        <ele>1836.5999755859</ele>
        <time>2012-11-30T13:53:04.000Z</time>
      </trkpt>
      <trkpt lat="45.96275" lon="6.47445">
        <ele>1836.5999755859</ele>
        <time>2012-11-30T13:53:08.000Z</time>
      </trkpt>
      <trkpt lat="45.96274" lon="6.47446">
        <ele>1837.1999511719</ele>
        <time>2012-11-30T13:53:12.000Z</time>
      </trkpt>
      <trkpt lat="45.96276" lon="6.47449">
        <ele>1838</ele>
        <time>2012-11-30T13:53:18.000Z</time>
      </trkpt>
      <trkpt lat="45.96279" lon="6.47452">
        <ele>1838.5999755859</ele>
        <time>2012-11-30T13:53:22.000Z</time>
      </trkpt>
      <trkpt lat="45.96282" lon="6.47455">
        <ele>1840</ele>
        <time>2012-11-30T13:53:27.000Z</time>
      </trkpt>
      <trkpt lat="45.96285" lon="6.47456">
        <ele>1840.4000244141</ele>
        <time>2012-11-30T13:53:31.000Z</time>
      </trkpt>
      <trkpt lat="45.96288" lon="6.47458">
        <ele>1841.4000244141</ele>
        <time>2012-11-30T13:53:36.000Z</time>
      </trkpt>
      <trkpt lat="45.96288" lon="6.4746">
        <ele>1842.4000244141</ele>
        <time>2012-11-30T13:53:41.000Z</time>
      </trkpt>
      <trkpt lat="45.96287" lon="6.47463">
        <ele>1842.8000488281</ele>
        <time>2012-11-30T13:53:46.000Z</time>
      </trkpt>
      <trkpt lat="45.96285" lon="6.47466">
        <ele>1844.4000244141</ele>
        <time>2012-11-30T13:53:50.000Z</time>
      </trkpt>
      <trkpt lat="45.96281" lon="6.47468">
        <ele>1845.8000488281</ele>
        <time>2012-11-30T13:53:54.000Z</time>
      </trkpt>
      <trkpt lat="45.96279" lon="6.47471">
        <ele>1846.8000488281</ele>
        <time>2012-11-30T13:53:58.000Z</time>
      </trkpt>
      <trkpt lat="45.96276" lon="6.47474">
        <ele>1847.5999755859</ele>
        <time>2012-11-30T13:54:02.000Z</time>
      </trkpt>
      <trkpt lat="45.96275" lon="6.47475">
        <ele>1847.5999755859</ele>
        <time>2012-11-30T13:54:07.000Z</time>
      </trkpt>
      <trkpt lat="45.96276" lon="6.47476">
        <ele>1848.1999511719</ele>
        <time>2012-11-30T13:54:11.000Z</time>
      </trkpt>
      <trkpt lat="45.9628" lon="6.47478">
        <ele>1849.1999511719</ele>
        <time>2012-11-30T13:54:17.000Z</time>
      </trkpt>
      <trkpt lat="45.96285" lon="6.4748">
        <ele>1849.5999755859</ele>
        <time>2012-11-30T13:54:23.000Z</time>
      </trkpt>
      <trkpt lat="45.96287" lon="6.47483">
        <ele>1850.5999755859</ele>
        <time>2012-11-30T13:54:27.000Z</time>
      </trkpt>
      <trkpt lat="45.96285" lon="6.47486">
        <ele>1851</ele>
        <time>2012-11-30T13:54:32.000Z</time>
      </trkpt>
      <trkpt lat="45.96283" lon="6.47489">
        <ele>1852</ele>
        <time>2012-11-30T13:54:37.000Z</time>
      </trkpt>
      <trkpt lat="45.9628" lon="6.47492">
        <ele>1852</ele>
        <time>2012-11-30T13:54:41.000Z</time>
      </trkpt>
      <trkpt lat="45.96278" lon="6.47495">
        <ele>1852.4000244141</ele>
        <time>2012-11-30T13:54:45.000Z</time>
      </trkpt>
      <trkpt lat="45.96276" lon="6.47498">
        <ele>1853</ele>
        <time>2012-11-30T13:54:49.000Z</time>
      </trkpt>
      <trkpt lat="45.96274" lon="6.47501">
        <ele>1854.4000244141</ele>
        <time>2012-11-30T13:54:54.000Z</time>
      </trkpt>
      <trkpt lat="45.96275" lon="6.47504">
        <ele>1855</ele>
        <time>2012-11-30T13:54:59.000Z</time>
      </trkpt>
      <trkpt lat="45.96279" lon="6.47505">
        <ele>1855.8000488281</ele>
        <time>2012-11-30T13:55:04.000Z</time>
      </trkpt>
      <trkpt lat="45.96283" lon="6.47508">
        <ele>1857.4000244141</ele>
        <time>2012-11-30T13:55:10.000Z</time>
      </trkpt>
      <trkpt lat="45.96287" lon="6.47509">
        <ele>1858.8000488281</ele>
        <time>2012-11-30T13:55:17.000Z</time>
      </trkpt>
      <trkpt lat="45.96289" lon="6.47511">
        <ele>1860.1999511719</ele>
        <time>2012-11-30T13:55:22.000Z</time>
      </trkpt>
      <trkpt lat="45.96289" lon="6.47512">
        <ele>1860.5999755859</ele>
        <time>2012-11-30T13:55:26.000Z</time>
      </trkpt>
      <trkpt lat="45.96286" lon="6.47516">
        <ele>1860.5999755859</ele>
        <time>2012-11-30T13:55:30.000Z</time>
      </trkpt>
      <trkpt lat="45.96284" lon="6.47518">
        <ele>1862.5999755859</ele>
        <time>2012-11-30T13:55:35.000Z</time>
      </trkpt>
      <trkpt lat="45.96283" lon="6.4752">
        <ele>1864</ele>
        <time>2012-11-30T13:55:38.000Z</time>
      </trkpt>
      <trkpt lat="45.96281" lon="6.47524">
        <ele>1864.5999755859</ele>
        <time>2012-11-30T13:55:43.000Z</time>
      </trkpt>
      <trkpt lat="45.96281" lon="6.47527">
        <ele>1865.4000244141</ele>
        <time>2012-11-30T13:55:47.000Z</time>
      </trkpt>
      <trkpt lat="45.96281" lon="6.47527">
        <ele>1866</ele>
        <time>2012-11-30T13:56:03.000Z</time>
      </trkpt>
      <trkpt lat="45.9628" lon="6.47529">
        <ele>1867</ele>
        <time>2012-11-30T13:56:08.000Z</time>
      </trkpt>
      <trkpt lat="45.96279" lon="6.47533">
        <ele>1868.4000244141</ele>
        <time>2012-11-30T13:56:14.000Z</time>
      </trkpt>
      <trkpt lat="45.96276" lon="6.47537">
        <ele>1868.4000244141</ele>
        <time>2012-11-30T13:56:18.000Z</time>
      </trkpt>
      <trkpt lat="45.96276" lon="6.47538">
        <ele>1868.4000244141</ele>
        <time>2012-11-30T13:56:22.000Z</time>
      </trkpt>
      <trkpt lat="45.96279" lon="6.47539">
        <ele>1869.4000244141</ele>
        <time>2012-11-30T13:56:27.000Z</time>
      </trkpt>
      <trkpt lat="45.96284" lon="6.4754">
        <ele>1870.8000488281</ele>
        <time>2012-11-30T13:56:33.000Z</time>
      </trkpt>
      <trkpt lat="45.96288" lon="6.47541">
        <ele>1872.5999755859</ele>
        <time>2012-11-30T13:56:40.000Z</time>
      </trkpt>
      <trkpt lat="45.96289" lon="6.47545">
        <ele>1873.5999755859</ele>
        <time>2012-11-30T13:56:44.000Z</time>
      </trkpt>
      <trkpt lat="45.96288" lon="6.47548">
        <ele>1874.5999755859</ele>
        <time>2012-11-30T13:56:48.000Z</time>
      </trkpt>
      <trkpt lat="45.96286" lon="6.47551">
        <ele>1875</ele>
        <time>2012-11-30T13:56:52.000Z</time>
      </trkpt>
      <trkpt lat="45.96284" lon="6.47555">
        <ele>1876.5999755859</ele>
        <time>2012-11-30T13:56:56.000Z</time>
      </trkpt>
      <trkpt lat="45.96281" lon="6.47557">
        <ele>1875</ele>
        <time>2012-11-30T13:56:59.000Z</time>
      </trkpt>
      <trkpt lat="45.96279" lon="6.47559">
        <ele>1876</ele>
        <time>2012-11-30T13:57:02.000Z</time>
      </trkpt>
      <trkpt lat="45.96277" lon="6.47561">
        <ele>1875.5999755859</ele>
        <time>2012-11-30T13:57:05.000Z</time>
      </trkpt>
      <trkpt lat="45.96275" lon="6.47564">
        <ele>1875.5999755859</ele>
        <time>2012-11-30T13:57:09.000Z</time>
      </trkpt>
      <trkpt lat="45.96276" lon="6.47565">
        <ele>1875.5999755859</ele>
        <time>2012-11-30T13:57:14.000Z</time>
      </trkpt>
      <trkpt lat="45.96277" lon="6.47565">
        <ele>1875.5999755859</ele>
        <time>2012-11-30T13:57:21.000Z</time>
      </trkpt>
      <trkpt lat="45.96281" lon="6.47568">
        <ele>1876.5999755859</ele>
        <time>2012-11-30T13:57:31.000Z</time>
      </trkpt>
      <trkpt lat="45.96284" lon="6.47567">
        <ele>1878.4000244141</ele>
        <time>2012-11-30T13:57:35.000Z</time>
      </trkpt>
      <trkpt lat="45.96288" lon="6.47567">
        <ele>1880.4000244141</ele>
        <time>2012-11-30T13:57:40.000Z</time>
      </trkpt>
      <trkpt lat="45.9629" lon="6.47568">
        <ele>1880.4000244141</ele>
        <time>2012-11-30T13:57:44.000Z</time>
      </trkpt>
      <trkpt lat="45.96289" lon="6.4757">
        <ele>1880.8000488281</ele>
        <time>2012-11-30T13:57:48.000Z</time>
      </trkpt>
      <trkpt lat="45.96287" lon="6.47575">
        <ele>1880.4000244141</ele>
        <time>2012-11-30T13:57:52.000Z</time>
      </trkpt>
      <trkpt lat="45.96285" lon="6.47578">
        <ele>1879.8000488281</ele>
        <time>2012-11-30T13:57:54.000Z</time>
      </trkpt>
      <trkpt lat="45.96282" lon="6.47583">
        <ele>1877.4000244141</ele>
        <time>2012-11-30T13:57:58.000Z</time>
      </trkpt>
      <trkpt lat="45.96279" lon="6.47585">
        <ele>1876.5999755859</ele>
        <time>2012-11-30T13:58:01.000Z</time>
      </trkpt>
      <trkpt lat="45.96279" lon="6.47586">
        <ele>1876</ele>
        <time>2012-11-30T13:58:02.000Z</time>
      </trkpt>
      <trkpt lat="45.96275" lon="6.47593">
        <ele>1874.5999755859</ele>
        <time>2012-11-30T13:58:07.000Z</time>
      </trkpt>
      <trkpt lat="45.96275" lon="6.47593">
        <ele>1875.5999755859</ele>
        <time>2012-11-30T13:58:10.000Z</time>
      </trkpt>
      <trkpt lat="45.96281" lon="6.47593">
        <ele>1879</ele>
        <time>2012-11-30T13:58:17.000Z</time>
      </trkpt>
      <trkpt lat="45.96285" lon="6.47594">
        <ele>1881.4000244141</ele>
        <time>2012-11-30T13:58:22.000Z</time>
      </trkpt>
      <trkpt lat="45.96289" lon="6.47593">
        <ele>1883.1999511719</ele>
        <time>2012-11-30T13:58:26.000Z</time>
      </trkpt>
      <trkpt lat="45.96291" lon="6.47592">
        <ele>1885.5999755859</ele>
        <time>2012-11-30T13:58:31.000Z</time>
      </trkpt>
      <trkpt lat="45.9629" lon="6.47596">
        <ele>1886.5999755859</ele>
        <time>2012-11-30T13:58:38.000Z</time>
      </trkpt>
      <trkpt lat="45.96288" lon="6.47602">
        <ele>1887.5999755859</ele>
        <time>2012-11-30T13:58:44.000Z</time>
      </trkpt>
      <trkpt lat="45.96286" lon="6.47605">
        <ele>1887.5999755859</ele>
        <time>2012-11-30T13:58:49.000Z</time>
      </trkpt>
      <trkpt lat="45.96284" lon="6.47609">
        <ele>1886.5999755859</ele>
        <time>2012-11-30T13:58:52.000Z</time>
      </trkpt>
      <trkpt lat="45.96281" lon="6.47611">
        <ele>1885.5999755859</ele>
        <time>2012-11-30T13:58:54.000Z</time>
      </trkpt>
      <trkpt lat="45.9628" lon="6.47613">
        <ele>1886.5999755859</ele>
        <time>2012-11-30T13:58:58.000Z</time>
      </trkpt>
      <trkpt lat="45.96281" lon="6.47612">
        <ele>1887.1999511719</ele>
        <time>2012-11-30T13:59:02.000Z</time>
      </trkpt>
      <trkpt lat="45.96285" lon="6.47612">
        <ele>1887.1999511719</ele>
        <time>2012-11-30T13:59:05.000Z</time>
      </trkpt>
      <trkpt lat="45.96289" lon="6.47613">
        <ele>1889</ele>
        <time>2012-11-30T13:59:10.000Z</time>
      </trkpt>
      <trkpt lat="45.96294" lon="6.47613">
        <ele>1890.4000244141</ele>
        <time>2012-11-30T13:59:16.000Z</time>
      </trkpt>
      <trkpt lat="45.96296" lon="6.47614">
        <ele>1892.4000244141</ele>
        <time>2012-11-30T13:59:21.000Z</time>
      </trkpt>
      <trkpt lat="45.96298" lon="6.47618">
        <ele>1892.4000244141</ele>
        <time>2012-11-30T13:59:24.000Z</time>
      </trkpt>
      <trkpt lat="45.96297" lon="6.47621">
        <ele>1894.4000244141</ele>
        <time>2012-11-30T13:59:28.000Z</time>
      </trkpt>
      <trkpt lat="45.96297" lon="6.47626">
        <ele>1895.1999511719</ele>
        <time>2012-11-30T13:59:31.000Z</time>
      </trkpt>
      <trkpt lat="45.96296" lon="6.47632">
        <ele>1897.1999511719</ele>
        <time>2012-11-30T13:59:35.000Z</time>
      </trkpt>
      <trkpt lat="45.96295" lon="6.47634">
        <ele>1897.1999511719</ele>
        <time>2012-11-30T13:59:38.000Z</time>
      </trkpt>
      <trkpt lat="45.96297" lon="6.47638">
        <ele>1899.1999511719</ele>
        <time>2012-11-30T13:59:42.000Z</time>
      </trkpt>
      <trkpt lat="45.96298" lon="6.47639">
        <ele>1900</ele>
        <time>2012-11-30T13:59:46.000Z</time>
      </trkpt>
      <trkpt lat="45.963" lon="6.47638">
        <ele>1903.4000244141</ele>
        <time>2012-11-30T13:59:50.000Z</time>
      </trkpt>
      <trkpt lat="45.96303" lon="6.47638">
        <ele>1905.4000244141</ele>
        <time>2012-11-30T13:59:55.000Z</time>
      </trkpt>
      <trkpt lat="45.96304" lon="6.4764">
        <ele>1905.4000244141</ele>
        <time>2012-11-30T13:59:58.000Z</time>
      </trkpt>
      <trkpt lat="45.96307" lon="6.47641">
        <ele>1906.4000244141</ele>
        <time>2012-11-30T14:00:04.000Z</time>
      </trkpt>
      <trkpt lat="45.9631" lon="6.47641">
        <ele>1907.1999511719</ele>
        <time>2012-11-30T14:00:10.000Z</time>
      </trkpt>
      <trkpt lat="45.96312" lon="6.47641">
        <ele>1907.8000488281</ele>
        <time>2012-11-30T14:00:14.000Z</time>
      </trkpt>
      <trkpt lat="45.96314" lon="6.47644">
        <ele>1908.1999511719</ele>
        <time>2012-11-30T14:00:19.000Z</time>
      </trkpt>
      <trkpt lat="45.96311" lon="6.47649">
        <ele>1906.8000488281</ele>
        <time>2012-11-30T14:00:22.000Z</time>
      </trkpt>
      <trkpt lat="45.96309" lon="6.47653">
        <ele>1904.8000488281</ele>
        <time>2012-11-30T14:00:25.000Z</time>
      </trkpt>
      <trkpt lat="45.96308" lon="6.4766">
        <ele>1904</ele>
        <time>2012-11-30T14:00:29.000Z</time>
      </trkpt>
      <trkpt lat="45.96305" lon="6.47664">
        <ele>1905.8000488281</ele>
        <time>2012-11-30T14:00:34.000Z</time>
      </trkpt>
      <trkpt lat="45.96303" lon="6.47666">
        <ele>1906.8000488281</ele>
        <time>2012-11-30T14:00:37.000Z</time>
      </trkpt>
      <trkpt lat="45.96302" lon="6.47667">
        <ele>1907.8000488281</ele>
        <time>2012-11-30T14:00:41.000Z</time>
      </trkpt>
      <trkpt lat="45.963" lon="6.47668">
        <ele>1909.5999755859</ele>
        <time>2012-11-30T14:00:47.000Z</time>
      </trkpt>
      <trkpt lat="45.96298" lon="6.47671">
        <ele>1910.5999755859</ele>
        <time>2012-11-30T14:00:51.000Z</time>
      </trkpt>
      <trkpt lat="45.96295" lon="6.47673">
        <ele>1911.5999755859</ele>
        <time>2012-11-30T14:00:56.000Z</time>
      </trkpt>
      <trkpt lat="45.96294" lon="6.47676">
        <ele>1912</ele>
        <time>2012-11-30T14:01:00.000Z</time>
      </trkpt>
      <trkpt lat="45.96291" lon="6.47679">
        <ele>1913.5999755859</ele>
        <time>2012-11-30T14:01:05.000Z</time>
      </trkpt>
      <trkpt lat="45.9629" lon="6.47684">
        <ele>1914</ele>
        <time>2012-11-30T14:01:10.000Z</time>
      </trkpt>
      <trkpt lat="45.96288" lon="6.47689">
        <ele>1914.5999755859</ele>
        <time>2012-11-30T14:01:15.000Z</time>
      </trkpt>
      <trkpt lat="45.96285" lon="6.47692">
        <ele>1916</ele>
        <time>2012-11-30T14:01:20.000Z</time>
      </trkpt>
      <trkpt lat="45.96283" lon="6.47695">
        <ele>1917</ele>
        <time>2012-11-30T14:01:25.000Z</time>
      </trkpt>
      <trkpt lat="45.96282" lon="6.47698">
        <ele>1917.4000244141</ele>
        <time>2012-11-30T14:01:28.000Z</time>
      </trkpt>
      <trkpt lat="45.9628" lon="6.47702">
        <ele>1917.4000244141</ele>
        <time>2012-11-30T14:01:32.000Z</time>
      </trkpt>
      <trkpt lat="45.96278" lon="6.47705">
        <ele>1917.8000488281</ele>
        <time>2012-11-30T14:01:37.000Z</time>
      </trkpt>
      <trkpt lat="45.96274" lon="6.47705">
        <ele>1917.4000244141</ele>
        <time>2012-11-30T14:01:40.000Z</time>
      </trkpt>
      <trkpt lat="45.96272" lon="6.47708">
        <ele>1917.4000244141</ele>
        <time>2012-11-30T14:01:43.000Z</time>
      </trkpt>
      <trkpt lat="45.96271" lon="6.47711">
        <ele>1918.4000244141</ele>
        <time>2012-11-30T14:01:46.000Z</time>
      </trkpt>
      <trkpt lat="45.96269" lon="6.47715">
        <ele>1918.8000488281</ele>
        <time>2012-11-30T14:01:51.000Z</time>
      </trkpt>
      <trkpt lat="45.96266" lon="6.47719">
        <ele>1919.8000488281</ele>
        <time>2012-11-30T14:01:56.000Z</time>
      </trkpt>
      <trkpt lat="45.96263" lon="6.47722">
        <ele>1920.1999511719</ele>
        <time>2012-11-30T14:02:02.000Z</time>
      </trkpt>
      <trkpt lat="45.96261" lon="6.47724">
        <ele>1920.8000488281</ele>
        <time>2012-11-30T14:02:06.000Z</time>
      </trkpt>
      <trkpt lat="45.96259" lon="6.47725">
        <ele>1921.1999511719</ele>
        <time>2012-11-30T14:02:10.000Z</time>
      </trkpt>
      <trkpt lat="45.96254" lon="6.47724">
        <ele>1923.5999755859</ele>
        <time>2012-11-30T14:02:14.000Z</time>
      </trkpt>
      <trkpt lat="45.9625" lon="6.47725">
        <ele>1926</ele>
        <time>2012-11-30T14:02:19.000Z</time>
      </trkpt>
      <trkpt lat="45.96248" lon="6.47726">
        <ele>1928.4000244141</ele>
        <time>2012-11-30T14:02:24.000Z</time>
      </trkpt>
      <trkpt lat="45.96244" lon="6.4773">
        <ele>1930.4000244141</ele>
        <time>2012-11-30T14:02:30.000Z</time>
      </trkpt>
      <trkpt lat="45.9624" lon="6.47734">
        <ele>1932.1999511719</ele>
        <time>2012-11-30T14:02:36.000Z</time>
      </trkpt>
      <trkpt lat="45.96237" lon="6.47736">
        <ele>1934.1999511719</ele>
        <time>2012-11-30T14:02:42.000Z</time>
      </trkpt>
      <trkpt lat="45.96235" lon="6.47735">
        <ele>1934.1999511719</ele>
        <time>2012-11-30T14:02:47.000Z</time>
      </trkpt>
      <trkpt lat="45.96235" lon="6.47734">
        <ele>1934.5999755859</ele>
        <time>2012-11-30T14:02:49.000Z</time>
      </trkpt>
      <trkpt lat="45.96234" lon="6.47727">
        <ele>1936.1999511719</ele>
        <time>2012-11-30T14:02:54.000Z</time>
      </trkpt>
      <trkpt lat="45.96233" lon="6.4772">
        <ele>1937.5999755859</ele>
        <time>2012-11-30T14:02:58.000Z</time>
      </trkpt>
      <trkpt lat="45.96233" lon="6.47716">
        <ele>1937.5999755859</ele>
        <time>2012-11-30T14:03:00.000Z</time>
      </trkpt>
      <trkpt lat="45.96233" lon="6.4771">
        <ele>1938.5999755859</ele>
        <time>2012-11-30T14:03:05.000Z</time>
      </trkpt>
      <trkpt lat="45.96233" lon="6.47706">
        <ele>1939.4000244141</ele>
        <time>2012-11-30T14:03:09.000Z</time>
      </trkpt>
      <trkpt lat="45.96232" lon="6.47701">
        <ele>1940.4000244141</ele>
        <time>2012-11-30T14:03:13.000Z</time>
      </trkpt>
      <trkpt lat="45.96232" lon="6.47696">
        <ele>1941.4000244141</ele>
        <time>2012-11-30T14:03:17.000Z</time>
      </trkpt>
      <trkpt lat="45.9623" lon="6.47692">
        <ele>1942.8000488281</ele>
        <time>2012-11-30T14:03:23.000Z</time>
      </trkpt>
      <trkpt lat="45.96229" lon="6.47688">
        <ele>1942.8000488281</ele>
        <time>2012-11-30T14:03:27.000Z</time>
      </trkpt>
      <trkpt lat="45.96227" lon="6.47684">
        <ele>1944.4000244141</ele>
        <time>2012-11-30T14:03:33.000Z</time>
      </trkpt>
      <trkpt lat="45.96224" lon="6.47678">
        <ele>1945.1999511719</ele>
        <time>2012-11-30T14:03:38.000Z</time>
      </trkpt>
      <trkpt lat="45.96223" lon="6.47673">
        <ele>1945.8000488281</ele>
        <time>2012-11-30T14:03:43.000Z</time>
      </trkpt>
      <trkpt lat="45.96223" lon="6.47668">
        <ele>1947.1999511719</ele>
        <time>2012-11-30T14:03:48.000Z</time>
      </trkpt>
      <trkpt lat="45.96221" lon="6.47664">
        <ele>1949.1999511719</ele>
        <time>2012-11-30T14:03:52.000Z</time>
      </trkpt>
      <trkpt lat="45.9622" lon="6.47658">
        <ele>1950</ele>
        <time>2012-11-30T14:03:58.000Z</time>
      </trkpt>
      <trkpt lat="45.96219" lon="6.47653">
        <ele>1951.5999755859</ele>
        <time>2012-11-30T14:04:03.000Z</time>
      </trkpt>
      <trkpt lat="45.96218" lon="6.47649">
        <ele>1952.4000244141</ele>
        <time>2012-11-30T14:04:07.000Z</time>
      </trkpt>
      <trkpt lat="45.96217" lon="6.47643">
        <ele>1953</ele>
        <time>2012-11-30T14:04:11.000Z</time>
      </trkpt>
      <trkpt lat="45.96216" lon="6.4764">
        <ele>1953.4000244141</ele>
        <time>2012-11-30T14:04:15.000Z</time>
      </trkpt>
      <trkpt lat="45.96216" lon="6.47642">
        <ele>1953.4000244141</ele>
        <time>2012-11-30T14:04:30.000Z</time>
      </trkpt>
      <trkpt lat="45.96216" lon="6.47642">
        <ele>1953</ele>
        <time>2012-11-30T14:04:39.000Z</time>
      </trkpt>
      <trkpt lat="45.96215" lon="6.47639">
        <ele>1954</ele>
        <time>2012-11-30T14:04:46.000Z</time>
      </trkpt>
      <trkpt lat="45.96214" lon="6.47635">
        <ele>1954.4000244141</ele>
        <time>2012-11-30T14:04:50.000Z</time>
      </trkpt>
      <trkpt lat="45.96212" lon="6.47633">
        <ele>1954.8000488281</ele>
        <time>2012-11-30T14:04:54.000Z</time>
      </trkpt>
      <trkpt lat="45.9621" lon="6.47631">
        <ele>1956.4000244141</ele>
        <time>2012-11-30T14:04:58.000Z</time>
      </trkpt>
      <trkpt lat="45.96207" lon="6.47631">
        <ele>1957.8000488281</ele>
        <time>2012-11-30T14:05:01.000Z</time>
      </trkpt>
      <trkpt lat="45.96204" lon="6.47631">
        <ele>1958.8000488281</ele>
        <time>2012-11-30T14:05:06.000Z</time>
      </trkpt>
      <trkpt lat="45.96199" lon="6.47633">
        <ele>1961.1999511719</ele>
        <time>2012-11-30T14:05:13.000Z</time>
      </trkpt>
      <trkpt lat="45.96195" lon="6.47634">
        <ele>1962.5999755859</ele>
        <time>2012-11-30T14:05:18.000Z</time>
      </trkpt>
      <trkpt lat="45.96192" lon="6.47635">
        <ele>1963.5999755859</ele>
        <time>2012-11-30T14:05:23.000Z</time>
      </trkpt>
      <trkpt lat="45.9619" lon="6.47635">
        <ele>1964</ele>
        <time>2012-11-30T14:05:27.000Z</time>
      </trkpt>
      <trkpt lat="45.96186" lon="6.47636">
        <ele>1965</ele>
        <time>2012-11-30T14:05:33.000Z</time>
      </trkpt>
      <trkpt lat="45.96183" lon="6.47637">
        <ele>1965.4000244141</ele>
        <time>2012-11-30T14:05:38.000Z</time>
      </trkpt>
      <trkpt lat="45.96179" lon="6.47637">
        <ele>1966.8000488281</ele>
        <time>2012-11-30T14:05:44.000Z</time>
      </trkpt>
      <trkpt lat="45.96177" lon="6.47636">
        <ele>1967.4000244141</ele>
        <time>2012-11-30T14:05:47.000Z</time>
      </trkpt>
      <trkpt lat="45.96174" lon="6.47635">
        <ele>1967.8000488281</ele>
        <time>2012-11-30T14:05:52.000Z</time>
      </trkpt>
      <trkpt lat="45.96171" lon="6.47636">
        <ele>1968.8000488281</ele>
        <time>2012-11-30T14:05:57.000Z</time>
      </trkpt>
      <trkpt lat="45.96167" lon="6.47636">
        <ele>1969.8000488281</ele>
        <time>2012-11-30T14:06:04.000Z</time>
      </trkpt>
      <trkpt lat="45.96164" lon="6.47638">
        <ele>1970.8000488281</ele>
        <time>2012-11-30T14:06:08.000Z</time>
      </trkpt>
      <trkpt lat="45.96159" lon="6.47642">
        <ele>1973.1999511719</ele>
        <time>2012-11-30T14:06:15.000Z</time>
      </trkpt>
      <trkpt lat="45.96155" lon="6.47644">
        <ele>1974.5999755859</ele>
        <time>2012-11-30T14:06:21.000Z</time>
      </trkpt>
      <trkpt lat="45.96151" lon="6.47646">
        <ele>1976</ele>
        <time>2012-11-30T14:06:27.000Z</time>
      </trkpt>
      <trkpt lat="45.96148" lon="6.47646">
        <ele>1976.5999755859</ele>
        <time>2012-11-30T14:06:32.000Z</time>
      </trkpt>
      <trkpt lat="45.96148" lon="6.47643">
        <ele>1976.5999755859</ele>
        <time>2012-11-30T14:06:34.000Z</time>
      </trkpt>
      <trkpt lat="45.96147" lon="6.47634">
        <ele>1977.4000244141</ele>
        <time>2012-11-30T14:06:39.000Z</time>
      </trkpt>
      <trkpt lat="45.96147" lon="6.47632">
        <ele>1978</ele>
        <time>2012-11-30T14:06:41.000Z</time>
      </trkpt>
      <trkpt lat="45.96145" lon="6.47622">
        <ele>1980.8000488281</ele>
        <time>2012-11-30T14:06:49.000Z</time>
      </trkpt>
      <trkpt lat="45.96145" lon="6.47618">
        <ele>1981.4000244141</ele>
        <time>2012-11-30T14:06:53.000Z</time>
      </trkpt>
      <trkpt lat="45.96144" lon="6.47611">
        <ele>1982.1999511719</ele>
        <time>2012-11-30T14:06:58.000Z</time>
      </trkpt>
      <trkpt lat="45.96142" lon="6.47605">
        <ele>1984.1999511719</ele>
        <time>2012-11-30T14:07:04.000Z</time>
      </trkpt>
      <trkpt lat="45.96141" lon="6.476">
        <ele>1985.5999755859</ele>
        <time>2012-11-30T14:07:11.000Z</time>
      </trkpt>
      <trkpt lat="45.96139" lon="6.47602">
        <ele>1985.5999755859</ele>
        <time>2012-11-30T14:07:16.000Z</time>
      </trkpt>
      <trkpt lat="45.96135" lon="6.47605">
        <ele>1986.1999511719</ele>
        <time>2012-11-30T14:07:22.000Z</time>
      </trkpt>
      <trkpt lat="45.96131" lon="6.47609">
        <ele>1986.5999755859</ele>
        <time>2012-11-30T14:07:28.000Z</time>
      </trkpt>
      <trkpt lat="45.96128" lon="6.47611">
        <ele>1987</ele>
        <time>2012-11-30T14:07:35.000Z</time>
      </trkpt>
      <trkpt lat="45.96124" lon="6.47613">
        <ele>1988</ele>
        <time>2012-11-30T14:07:41.000Z</time>
      </trkpt>
      <trkpt lat="45.96123" lon="6.4761">
        <ele>1989</ele>
        <time>2012-11-30T14:07:46.000Z</time>
      </trkpt>
      <trkpt lat="45.96123" lon="6.47605">
        <ele>1990</ele>
        <time>2012-11-30T14:07:51.000Z</time>
      </trkpt>
      <trkpt lat="45.96122" lon="6.47599">
        <ele>1992.4000244141</ele>
        <time>2012-11-30T14:07:57.000Z</time>
      </trkpt>
      <trkpt lat="45.96121" lon="6.47594">
        <ele>1994.1999511719</ele>
        <time>2012-11-30T14:08:01.000Z</time>
      </trkpt>
      <trkpt lat="45.9612" lon="6.4759">
        <ele>1994.8000488281</ele>
        <time>2012-11-30T14:08:06.000Z</time>
      </trkpt>
      <trkpt lat="45.96118" lon="6.47584">
        <ele>1995.8000488281</ele>
        <time>2012-11-30T14:08:11.000Z</time>
      </trkpt>
      <trkpt lat="45.96116" lon="6.47582">
        <ele>1996.1999511719</ele>
        <time>2012-11-30T14:08:16.000Z</time>
      </trkpt>
      <trkpt lat="45.96111" lon="6.4758">
        <ele>1998.1999511719</ele>
        <time>2012-11-30T14:08:23.000Z</time>
      </trkpt>
      <trkpt lat="45.96109" lon="6.47581">
        <ele>1999</ele>
        <time>2012-11-30T14:08:29.000Z</time>
      </trkpt>
      <trkpt lat="45.96109" lon="6.47581">
        <ele>1999</ele>
        <time>2012-11-30T14:08:37.000Z</time>
      </trkpt>
      <trkpt lat="45.96106" lon="6.4758">
        <ele>1999.5999755859</ele>
        <time>2012-11-30T14:08:42.000Z</time>
      </trkpt>
      <trkpt lat="45.96103" lon="6.4758">
        <ele>2000</ele>
        <time>2012-11-30T14:08:46.000Z</time>
      </trkpt>
      <trkpt lat="45.961" lon="6.47579">
        <ele>2000</ele>
        <time>2012-11-30T14:08:50.000Z</time>
      </trkpt>
      <trkpt lat="45.96096" lon="6.47578">
        <ele>2000.5999755859</ele>
        <time>2012-11-30T14:08:55.000Z</time>
      </trkpt>
      <trkpt lat="45.96091" lon="6.47577">
        <ele>2002</ele>
        <time>2012-11-30T14:09:02.000Z</time>
      </trkpt>
      <trkpt lat="45.96086" lon="6.47575">
        <ele>2003</ele>
        <time>2012-11-30T14:09:08.000Z</time>
      </trkpt>
      <trkpt lat="45.96082" lon="6.47574">
        <ele>2004.4000244141</ele>
        <time>2012-11-30T14:09:13.000Z</time>
      </trkpt>
      <trkpt lat="45.96079" lon="6.47572">
        <ele>2005.8000488281</ele>
        <time>2012-11-30T14:09:19.000Z</time>
      </trkpt>
      <trkpt lat="45.96076" lon="6.4757">
        <ele>2006.4000244141</ele>
        <time>2012-11-30T14:09:22.000Z</time>
      </trkpt>
      <trkpt lat="45.96073" lon="6.4757">
        <ele>2007.8000488281</ele>
        <time>2012-11-30T14:09:26.000Z</time>
      </trkpt>
      <trkpt lat="45.9607" lon="6.47568">
        <ele>2008.8000488281</ele>
        <time>2012-11-30T14:09:31.000Z</time>
      </trkpt>
      <trkpt lat="45.96066" lon="6.47567">
        <ele>2009.1999511719</ele>
        <time>2012-11-30T14:09:35.000Z</time>
      </trkpt>
      <trkpt lat="45.96063" lon="6.47566">
        <ele>2010.1999511719</ele>
        <time>2012-11-30T14:09:40.000Z</time>
      </trkpt>
      <trkpt lat="45.96058" lon="6.47566">
        <ele>2012</ele>
        <time>2012-11-30T14:09:47.000Z</time>
      </trkpt>
      <trkpt lat="45.96052" lon="6.47567">
        <ele>2013.5999755859</ele>
        <time>2012-11-30T14:09:54.000Z</time>
      </trkpt>
      <trkpt lat="45.96048" lon="6.47567">
        <ele>2014.4000244141</ele>
        <time>2012-11-30T14:10:00.000Z</time>
      </trkpt>
      <trkpt lat="45.96043" lon="6.47569">
        <ele>2016</ele>
        <time>2012-11-30T14:10:06.000Z</time>
      </trkpt>
      <trkpt lat="45.96039" lon="6.47572">
        <ele>2016.4000244141</ele>
        <time>2012-11-30T14:10:10.000Z</time>
      </trkpt>
      <trkpt lat="45.96034" lon="6.47571">
        <ele>2017.8000488281</ele>
        <time>2012-11-30T14:10:16.000Z</time>
      </trkpt>
      <trkpt lat="45.96028" lon="6.4757">
        <ele>2019.1999511719</ele>
        <time>2012-11-30T14:10:23.000Z</time>
      </trkpt>
      <trkpt lat="45.96023" lon="6.4757">
        <ele>2020.8000488281</ele>
        <time>2012-11-30T14:10:29.000Z</time>
      </trkpt>
      <trkpt lat="45.96019" lon="6.4757">
        <ele>2022.1999511719</ele>
        <time>2012-11-30T14:10:34.000Z</time>
      </trkpt>
      <trkpt lat="45.96014" lon="6.47571">
        <ele>2023.1999511719</ele>
        <time>2012-11-30T14:10:41.000Z</time>
      </trkpt>
      <trkpt lat="45.96007" lon="6.47571">
        <ele>2023.5999755859</ele>
        <time>2012-11-30T14:10:49.000Z</time>
      </trkpt>
      <trkpt lat="45.96003" lon="6.47576">
        <ele>2024.5999755859</ele>
        <time>2012-11-30T14:10:54.000Z</time>
      </trkpt>
      <trkpt lat="45.96001" lon="6.4758">
        <ele>2025</ele>
        <time>2012-11-30T14:10:58.000Z</time>
      </trkpt>
      <trkpt lat="45.95998" lon="6.47583">
        <ele>2026</ele>
        <time>2012-11-30T14:11:03.000Z</time>
      </trkpt>
      <trkpt lat="45.95994" lon="6.47586">
        <ele>2026.4000244141</ele>
        <time>2012-11-30T14:11:07.000Z</time>
      </trkpt>
      <trkpt lat="45.9599" lon="6.47588">
        <ele>2027</ele>
        <time>2012-11-30T14:11:12.000Z</time>
      </trkpt>
      <trkpt lat="45.95988" lon="6.47592">
        <ele>2028</ele>
        <time>2012-11-30T14:11:18.000Z</time>
      </trkpt>
      <trkpt lat="45.95989" lon="6.476">
        <ele>2028.4000244141</ele>
        <time>2012-11-30T14:11:24.000Z</time>
      </trkpt>
      <trkpt lat="45.95989" lon="6.47607">
        <ele>2029.4000244141</ele>
        <time>2012-11-30T14:11:28.000Z</time>
      </trkpt>
      <trkpt lat="45.95988" lon="6.47618">
        <ele>2029.8000488281</ele>
        <time>2012-11-30T14:11:34.000Z</time>
      </trkpt>
      <trkpt lat="45.95984" lon="6.47626">
        <ele>2029.8000488281</ele>
        <time>2012-11-30T14:11:39.000Z</time>
      </trkpt>
      <trkpt lat="45.9598" lon="6.47629">
        <ele>2029.8000488281</ele>
        <time>2012-11-30T14:11:44.000Z</time>
      </trkpt>
      <trkpt lat="45.95978" lon="6.47631">
        <ele>2029.8000488281</ele>
        <time>2012-11-30T14:11:46.000Z</time>
      </trkpt>
      <trkpt lat="45.95974" lon="6.47639">
        <ele>2031.4000244141</ele>
        <time>2012-11-30T14:11:51.000Z</time>
      </trkpt>
      <trkpt lat="45.95972" lon="6.47649">
        <ele>2031.8000488281</ele>
        <time>2012-11-30T14:11:56.000Z</time>
      </trkpt>
      <trkpt lat="45.95969" lon="6.4766">
        <ele>2032.1999511719</ele>
        <time>2012-11-30T14:12:03.000Z</time>
      </trkpt>
      <trkpt lat="45.95968" lon="6.47667">
        <ele>2032.1999511719</ele>
        <time>2012-11-30T14:12:08.000Z</time>
      </trkpt>
      <trkpt lat="45.95966" lon="6.47671">
        <ele>2031.4000244141</ele>
        <time>2012-11-30T14:12:13.000Z</time>
      </trkpt>
      <trkpt lat="45.95966" lon="6.47673">
        <ele>2030.8000488281</ele>
        <time>2012-11-30T14:12:18.000Z</time>
      </trkpt>
      <trkpt lat="45.95966" lon="6.47673">
        <ele>2031.8000488281</ele>
        <time>2012-11-30T14:12:37.000Z</time>
      </trkpt>
      <trkpt lat="45.95967" lon="6.47671">
        <ele>2032.1999511719</ele>
        <time>2012-11-30T14:13:07.000Z</time>
      </trkpt>
      <trkpt lat="45.95967" lon="6.4767">
        <ele>2032.1999511719</ele>
        <time>2012-11-30T14:13:11.000Z</time>
      </trkpt>
      <trkpt lat="45.95966" lon="6.47666">
        <ele>2033.1999511719</ele>
        <time>2012-11-30T14:13:17.000Z</time>
      </trkpt>
      <trkpt lat="45.95963" lon="6.47663">
        <ele>2033.1999511719</ele>
        <time>2012-11-30T14:13:22.000Z</time>
      </trkpt>
      <trkpt lat="45.95959" lon="6.4766">
        <ele>2033.1999511719</ele>
        <time>2012-11-30T14:13:26.000Z</time>
      </trkpt>
      <trkpt lat="45.95956" lon="6.47658">
        <ele>2032.8000488281</ele>
        <time>2012-11-30T14:13:29.000Z</time>
      </trkpt>
      <trkpt lat="45.95952" lon="6.47655">
        <ele>2031.8000488281</ele>
        <time>2012-11-30T14:13:34.000Z</time>
      </trkpt>
      <trkpt lat="45.95948" lon="6.47653">
        <ele>2030.8000488281</ele>
        <time>2012-11-30T14:13:39.000Z</time>
      </trkpt>
      <trkpt lat="45.95944" lon="6.47645">
        <ele>2029.8000488281</ele>
        <time>2012-11-30T14:13:46.000Z</time>
      </trkpt>
      <trkpt lat="45.95941" lon="6.4764">
        <ele>2029.8000488281</ele>
        <time>2012-11-30T14:13:51.000Z</time>
      </trkpt>
      <trkpt lat="45.95939" lon="6.47639">
        <ele>2029.8000488281</ele>
        <time>2012-11-30T14:13:57.000Z</time>
      </trkpt>
      <trkpt lat="45.95939" lon="6.4764">
        <ele>2030.8000488281</ele>
        <time>2012-11-30T14:14:14.000Z</time>
      </trkpt>
      <trkpt lat="45.95937" lon="6.47644">
        <ele>2030.8000488281</ele>
        <time>2012-11-30T14:14:18.000Z</time>
      </trkpt>
      <trkpt lat="45.95937" lon="6.47645">
        <ele>2031.4000244141</ele>
        <time>2012-11-30T14:14:30.000Z</time>
      </trkpt>
      <trkpt lat="45.95938" lon="6.47646">
        <ele>2031.4000244141</ele>
        <time>2012-11-30T14:14:31.000Z</time>
      </trkpt>
      <trkpt lat="45.95939" lon="6.47649">
        <ele>2031.4000244141</ele>
        <time>2012-11-30T14:14:33.000Z</time>
      </trkpt>
      <trkpt lat="45.95942" lon="6.47653">
        <ele>2031.4000244141</ele>
        <time>2012-11-30T14:14:37.000Z</time>
      </trkpt>
      <trkpt lat="45.95948" lon="6.47656">
        <ele>2031.8000488281</ele>
        <time>2012-11-30T14:14:42.000Z</time>
      </trkpt>
      <trkpt lat="45.95952" lon="6.47657">
        <ele>2031.8000488281</ele>
        <time>2012-11-30T14:14:45.000Z</time>
      </trkpt>
      <trkpt lat="45.95957" lon="6.4766">
        <ele>2031.8000488281</ele>
        <time>2012-11-30T14:14:50.000Z</time>
      </trkpt>
      <trkpt lat="45.95959" lon="6.47661">
        <ele>2032.1999511719</ele>
        <time>2012-11-30T14:14:52.000Z</time>
      </trkpt>
      <trkpt lat="45.9596" lon="6.47662">
        <ele>2032.1999511719</ele>
        <time>2012-11-30T14:14:58.000Z</time>
      </trkpt>
      <trkpt lat="45.9596" lon="6.47662">
        <ele>2031.4000244141</ele>
        <time>2012-11-30T14:15:05.000Z</time>
      </trkpt>
      <trkpt lat="45.95961" lon="6.47661">
        <ele>2030.4000244141</ele>
        <time>2012-11-30T14:15:14.000Z</time>
      </trkpt>
      <trkpt lat="45.95964" lon="6.47662">
        <ele>2030.8000488281</ele>
        <time>2012-11-30T14:15:18.000Z</time>
      </trkpt>
      <trkpt lat="45.95966" lon="6.47664">
        <ele>2030.8000488281</ele>
        <time>2012-11-30T14:15:23.000Z</time>
      </trkpt>
      <trkpt lat="45.95966" lon="6.47663">
        <ele>2030.4000244141</ele>
        <time>2012-11-30T14:15:30.000Z</time>
      </trkpt>
      <trkpt lat="45.95966" lon="6.47663">
        <ele>2029.8000488281</ele>
        <time>2012-11-30T14:15:35.000Z</time>
      </trkpt>
      <trkpt lat="45.95967" lon="6.47663">
        <ele>2029.8000488281</ele>
        <time>2012-11-30T14:15:43.000Z</time>
      </trkpt>
      <trkpt lat="45.95967" lon="6.47664">
        <ele>2030.4000244141</ele>
        <time>2012-11-30T14:15:55.000Z</time>
      </trkpt>
      <trkpt lat="45.95967" lon="6.47663">
        <ele>2029.8000488281</ele>
        <time>2012-11-30T14:16:07.000Z</time>
      </trkpt>
      <trkpt lat="45.95967" lon="6.47663">
        <ele>2029.4000244141</ele>
        <time>2012-11-30T14:16:14.000Z</time>
      </trkpt>
      <trkpt lat="45.95968" lon="6.47662">
        <ele>2031.8000488281</ele>
        <time>2012-11-30T14:16:49.000Z</time>
      </trkpt>
      <trkpt lat="45.95968" lon="6.47663">
        <ele>2033.1999511719</ele>
        <time>2012-11-30T14:16:58.000Z</time>
      </trkpt>
      <trkpt lat="45.95968" lon="6.47663">
        <ele>2033.8000488281</ele>
        <time>2012-11-30T14:17:06.000Z</time>
      </trkpt>
      <trkpt lat="45.95968" lon="6.47664">
        <ele>2031.4000244141</ele>
        <time>2012-11-30T14:17:12.000Z</time>
      </trkpt>
      <trkpt lat="45.95968" lon="6.47663">
        <ele>2030.8000488281</ele>
        <time>2012-11-30T14:17:27.000Z</time>
      </trkpt>
      <trkpt lat="45.95968" lon="6.47663">
        <ele>2030.8000488281</ele>
        <time>2012-11-30T14:17:35.000Z</time>
      </trkpt>
      <trkpt lat="45.95967" lon="6.47663">
        <ele>2030.8000488281</ele>
        <time>2012-11-30T14:17:42.000Z</time>
      </trkpt>
      <trkpt lat="45.95968" lon="6.47662">
        <ele>2030.8000488281</ele>
        <time>2012-11-30T14:17:48.000Z</time>
      </trkpt>
      <trkpt lat="45.95967" lon="6.47662">
        <ele>2030.8000488281</ele>
        <time>2012-11-30T14:18:02.000Z</time>
      </trkpt>
      <trkpt lat="45.95968" lon="6.47663">
        <ele>2030.8000488281</ele>
        <time>2012-11-30T14:18:16.000Z</time>
      </trkpt>
      <trkpt lat="45.95968" lon="6.47663">
        <ele>2030.8000488281</ele>
        <time>2012-11-30T14:18:21.000Z</time>
      </trkpt>
      <trkpt lat="45.9597" lon="6.47663">
        <ele>2030.8000488281</ele>
        <time>2012-11-30T14:18:27.000Z</time>
      </trkpt>
      <trkpt lat="45.95972" lon="6.47663">
        <ele>2030.4000244141</ele>
        <time>2012-11-30T14:18:32.000Z</time>
      </trkpt>
      <trkpt lat="45.95973" lon="6.47662">
        <ele>2030.8000488281</ele>
        <time>2012-11-30T14:18:37.000Z</time>
      </trkpt>
      <trkpt lat="45.95974" lon="6.47663">
        <ele>2031.8000488281</ele>
        <time>2012-11-30T14:18:47.000Z</time>
      </trkpt>
      <trkpt lat="45.95974" lon="6.47661">
        <ele>2033.1999511719</ele>
        <time>2012-11-30T14:19:03.000Z</time>
      </trkpt>
      <trkpt lat="45.95973" lon="6.4766">
        <ele>2034.5999755859</ele>
        <time>2012-11-30T14:19:10.000Z</time>
      </trkpt>
      <trkpt lat="45.95974" lon="6.4766">
        <ele>2034.5999755859</ele>
        <time>2012-11-30T14:19:19.000Z</time>
      </trkpt>
      <trkpt lat="45.95974" lon="6.47661">
        <ele>2034.1999511719</ele>
        <time>2012-11-30T14:19:24.000Z</time>
      </trkpt>
      <trkpt lat="45.95974" lon="6.4766">
        <ele>2034.5999755859</ele>
        <time>2012-11-30T14:19:35.000Z</time>
      </trkpt>
      <trkpt lat="45.95973" lon="6.4766">
        <ele>2035.5999755859</ele>
        <time>2012-11-30T14:19:46.000Z</time>
      </trkpt>
      <trkpt lat="45.95972" lon="6.47657">
        <ele>2037</ele>
        <time>2012-11-30T14:19:57.000Z</time>
      </trkpt>
      <trkpt lat="45.95973" lon="6.47656">
        <ele>2037</ele>
        <time>2012-11-30T14:20:04.000Z</time>
      </trkpt>
      <trkpt lat="45.95975" lon="6.47653">
        <ele>2036.5999755859</ele>
        <time>2012-11-30T14:20:08.000Z</time>
      </trkpt>
      <trkpt lat="45.95978" lon="6.47648">
        <ele>2036.1999511719</ele>
        <time>2012-11-30T14:20:11.000Z</time>
      </trkpt>
      <trkpt lat="45.95982" lon="6.47642">
        <ele>2035.1999511719</ele>
        <time>2012-11-30T14:20:16.000Z</time>
      </trkpt>
      <trkpt lat="45.95983" lon="6.47641">
        <ele>2034.5999755859</ele>
        <time>2012-11-30T14:20:22.000Z</time>
      </trkpt>
      <trkpt lat="45.95987" lon="6.47637">
        <ele>2033.8000488281</ele>
        <time>2012-11-30T14:20:29.000Z</time>
      </trkpt>
      <trkpt lat="45.95987" lon="6.47636">
        <ele>2033.8000488281</ele>
        <time>2012-11-30T14:20:36.000Z</time>
      </trkpt>
      <trkpt lat="45.95988" lon="6.47635">
        <ele>2032.8000488281</ele>
        <time>2012-11-30T14:20:46.000Z</time>
      </trkpt>
      <trkpt lat="45.95989" lon="6.47632">
        <ele>2032.8000488281</ele>
        <time>2012-11-30T14:20:51.000Z</time>
      </trkpt>
      <trkpt lat="45.95991" lon="6.47628">
        <ele>2031.8000488281</ele>
        <time>2012-11-30T14:20:57.000Z</time>
      </trkpt>
      <trkpt lat="45.95997" lon="6.47621">
        <ele>2030.4000244141</ele>
        <time>2012-11-30T14:21:03.000Z</time>
      </trkpt>
      <trkpt lat="45.96" lon="6.47619">
        <ele>2029.8000488281</ele>
        <time>2012-11-30T14:21:04.000Z</time>
      </trkpt>
      <trkpt lat="45.96009" lon="6.47597">
        <ele>2028</ele>
        <time>2012-11-30T14:21:09.000Z</time>
      </trkpt>
      <trkpt lat="45.96018" lon="6.47584">
        <ele>2024.5999755859</ele>
        <time>2012-11-30T14:21:13.000Z</time>
      </trkpt>
      <trkpt lat="45.96018" lon="6.47584">
        <ele>2022.5999755859</ele>
        <time>2012-11-30T14:21:18.000Z</time>
      </trkpt>
      <trkpt lat="45.96019" lon="6.47584">
        <ele>2022.5999755859</ele>
        <time>2012-11-30T14:21:27.000Z</time>
      </trkpt>
      <trkpt lat="45.96021" lon="6.47583">
        <ele>2022.5999755859</ele>
        <time>2012-11-30T14:21:34.000Z</time>
      </trkpt>
      <trkpt lat="45.96031" lon="6.47576">
        <ele>2019.8000488281</ele>
        <time>2012-11-30T14:21:38.000Z</time>
      </trkpt>
      <trkpt lat="45.96042" lon="6.47575">
        <ele>2017.4000244141</ele>
        <time>2012-11-30T14:21:42.000Z</time>
      </trkpt>
      <trkpt lat="45.96053" lon="6.47571">
        <ele>2014.4000244141</ele>
        <time>2012-11-30T14:21:46.000Z</time>
      </trkpt>
      <trkpt lat="45.96058" lon="6.47576">
        <ele>2012.5999755859</ele>
        <time>2012-11-30T14:21:49.000Z</time>
      </trkpt>
      <trkpt lat="45.96066" lon="6.47576">
        <ele>2010.1999511719</ele>
        <time>2012-11-30T14:21:52.000Z</time>
      </trkpt>
      <trkpt lat="45.96069" lon="6.47586">
        <ele>2008.8000488281</ele>
        <time>2012-11-30T14:21:56.000Z</time>
      </trkpt>
      <trkpt lat="45.96076" lon="6.47583">
        <ele>2006.8000488281</ele>
        <time>2012-11-30T14:21:59.000Z</time>
      </trkpt>
      <trkpt lat="45.96082" lon="6.47582">
        <ele>2005.4000244141</ele>
        <time>2012-11-30T14:22:01.000Z</time>
      </trkpt>
      <trkpt lat="45.96082" lon="6.47588">
        <ele>2004.8000488281</ele>
        <time>2012-11-30T14:22:04.000Z</time>
      </trkpt>
      <trkpt lat="45.96082" lon="6.47588">
        <ele>2004.8000488281</ele>
        <time>2012-11-30T14:22:09.000Z</time>
      </trkpt>
      <trkpt lat="45.96089" lon="6.47588">
        <ele>2003</ele>
        <time>2012-11-30T14:22:12.000Z</time>
      </trkpt>
      <trkpt lat="45.96099" lon="6.47583">
        <ele>2000.5999755859</ele>
        <time>2012-11-30T14:22:15.000Z</time>
      </trkpt>
      <trkpt lat="45.96101" lon="6.47595">
        <ele>1998.5999755859</ele>
        <time>2012-11-30T14:22:18.000Z</time>
      </trkpt>
      <trkpt lat="45.96108" lon="6.47602">
        <ele>1995.1999511719</ele>
        <time>2012-11-30T14:22:21.000Z</time>
      </trkpt>
      <trkpt lat="45.96113" lon="6.47605">
        <ele>1993.4000244141</ele>
        <time>2012-11-30T14:22:23.000Z</time>
      </trkpt>
      <trkpt lat="45.96111" lon="6.47614">
        <ele>1991</ele>
        <time>2012-11-30T14:22:27.000Z</time>
      </trkpt>
      <trkpt lat="45.96111" lon="6.47614">
        <ele>1991.8000488281</ele>
        <time>2012-11-30T14:22:37.000Z</time>
      </trkpt>
      <trkpt lat="45.9611" lon="6.47614">
        <ele>1992.4000244141</ele>
        <time>2012-11-30T14:22:50.000Z</time>
      </trkpt>
      <trkpt lat="45.96111" lon="6.47617">
        <ele>1993.4000244141</ele>
        <time>2012-11-30T14:23:21.000Z</time>
      </trkpt>
      <trkpt lat="45.96112" lon="6.47617">
        <ele>1993.4000244141</ele>
        <time>2012-11-30T14:23:29.000Z</time>
      </trkpt>
      <trkpt lat="45.96111" lon="6.47618">
        <ele>1992.8000488281</ele>
        <time>2012-11-30T14:23:35.000Z</time>
      </trkpt>
      <trkpt lat="45.9611" lon="6.47624">
        <ele>1991.8000488281</ele>
        <time>2012-11-30T14:23:38.000Z</time>
      </trkpt>
      <trkpt lat="45.9611" lon="6.47626">
        <ele>1991</ele>
        <time>2012-11-30T14:23:49.000Z</time>
      </trkpt>
      <trkpt lat="45.9611" lon="6.47627">
        <ele>1991</ele>
        <time>2012-11-30T14:23:51.000Z</time>
      </trkpt>
      <trkpt lat="45.96119" lon="6.4763">
        <ele>1988</ele>
        <time>2012-11-30T14:23:55.000Z</time>
      </trkpt>
      <trkpt lat="45.96121" lon="6.47629">
        <ele>1987</ele>
        <time>2012-11-30T14:23:58.000Z</time>
      </trkpt>
      <trkpt lat="45.96123" lon="6.47628">
        <ele>1986.5999755859</ele>
        <time>2012-11-30T14:24:02.000Z</time>
      </trkpt>
      <trkpt lat="45.96125" lon="6.47641">
        <ele>1984.1999511719</ele>
        <time>2012-11-30T14:24:06.000Z</time>
      </trkpt>
      <trkpt lat="45.96123" lon="6.47644">
        <ele>1983.1999511719</ele>
        <time>2012-11-30T14:24:09.000Z</time>
      </trkpt>
      <trkpt lat="45.96124" lon="6.47647">
        <ele>1982.8000488281</ele>
        <time>2012-11-30T14:24:16.000Z</time>
      </trkpt>
      <trkpt lat="45.96136" lon="6.47656">
        <ele>1979.4000244141</ele>
        <time>2012-11-30T14:24:20.000Z</time>
      </trkpt>
      <trkpt lat="45.96143" lon="6.47652">
        <ele>1978</ele>
        <time>2012-11-30T14:24:23.000Z</time>
      </trkpt>
      <trkpt lat="45.96148" lon="6.47649">
        <ele>1977</ele>
        <time>2012-11-30T14:24:28.000Z</time>
      </trkpt>
      <trkpt lat="45.96149" lon="6.47648">
        <ele>1976.5999755859</ele>
        <time>2012-11-30T14:24:30.000Z</time>
      </trkpt>
      <trkpt lat="45.9615" lon="6.47648">
        <ele>1975.5999755859</ele>
        <time>2012-11-30T14:24:40.000Z</time>
      </trkpt>
      <trkpt lat="45.96151" lon="6.47646">
        <ele>1975.5999755859</ele>
        <time>2012-11-30T14:24:44.000Z</time>
      </trkpt>
      <trkpt lat="45.96156" lon="6.47642">
        <ele>1974.1999511719</ele>
        <time>2012-11-30T14:24:51.000Z</time>
      </trkpt>
      <trkpt lat="45.96159" lon="6.4764">
        <ele>1973.1999511719</ele>
        <time>2012-11-30T14:24:57.000Z</time>
      </trkpt>
      <trkpt lat="45.96164" lon="6.47638">
        <ele>1971.1999511719</ele>
        <time>2012-11-30T14:25:00.000Z</time>
      </trkpt>
      <trkpt lat="45.96171" lon="6.47654">
        <ele>1967.8000488281</ele>
        <time>2012-11-30T14:25:04.000Z</time>
      </trkpt>
      <trkpt lat="45.96177" lon="6.47666">
        <ele>1964.4000244141</ele>
        <time>2012-11-30T14:25:07.000Z</time>
      </trkpt>
      <trkpt lat="45.96187" lon="6.47665">
        <ele>1962</ele>
        <time>2012-11-30T14:25:10.000Z</time>
      </trkpt>
      <trkpt lat="45.96197" lon="6.47662">
        <ele>1959.1999511719</ele>
        <time>2012-11-30T14:25:13.000Z</time>
      </trkpt>
      <trkpt lat="45.96202" lon="6.47654">
        <ele>1957.8000488281</ele>
        <time>2012-11-30T14:25:16.000Z</time>
      </trkpt>
      <trkpt lat="45.96203" lon="6.47654">
        <ele>1957.1999511719</ele>
        <time>2012-11-30T14:25:23.000Z</time>
      </trkpt>
      <trkpt lat="45.96203" lon="6.47653">
        <ele>1957.1999511719</ele>
        <time>2012-11-30T14:25:38.000Z</time>
      </trkpt>
      <trkpt lat="45.96206" lon="6.47652">
        <ele>1956.4000244141</ele>
        <time>2012-11-30T14:25:41.000Z</time>
      </trkpt>
      <trkpt lat="45.9621" lon="6.47665">
        <ele>1954</ele>
        <time>2012-11-30T14:25:45.000Z</time>
      </trkpt>
      <trkpt lat="45.96213" lon="6.47684">
        <ele>1951.5999755859</ele>
        <time>2012-11-30T14:25:51.000Z</time>
      </trkpt>
      <trkpt lat="45.96216" lon="6.47701">
        <ele>1949.5999755859</ele>
        <time>2012-11-30T14:25:55.000Z</time>
      </trkpt>
      <trkpt lat="45.96216" lon="6.47704">
        <ele>1948.5999755859</ele>
        <time>2012-11-30T14:25:56.000Z</time>
      </trkpt>
      <trkpt lat="45.96224" lon="6.47707">
        <ele>1945.8000488281</ele>
        <time>2012-11-30T14:26:00.000Z</time>
      </trkpt>
      <trkpt lat="45.96227" lon="6.47712">
        <ele>1944.4000244141</ele>
        <time>2012-11-30T14:26:02.000Z</time>
      </trkpt>
      <trkpt lat="45.96229" lon="6.47718">
        <ele>1942.4000244141</ele>
        <time>2012-11-30T14:26:04.000Z</time>
      </trkpt>
      <trkpt lat="45.96239" lon="6.47719">
        <ele>1938</ele>
        <time>2012-11-30T14:26:08.000Z</time>
      </trkpt>
      <trkpt lat="45.96246" lon="6.47728">
        <ele>1934.1999511719</ele>
        <time>2012-11-30T14:26:12.000Z</time>
      </trkpt>
      <trkpt lat="45.96253" lon="6.47735">
        <ele>1931.4000244141</ele>
        <time>2012-11-30T14:26:15.000Z</time>
      </trkpt>
      <trkpt lat="45.96261" lon="6.47731">
        <ele>1929.4000244141</ele>
        <time>2012-11-30T14:26:17.000Z</time>
      </trkpt>
      <trkpt lat="45.96262" lon="6.47722">
        <ele>1928.4000244141</ele>
        <time>2012-11-30T14:26:20.000Z</time>
      </trkpt>
      <trkpt lat="45.96266" lon="6.47714">
        <ele>1926.5999755859</ele>
        <time>2012-11-30T14:26:25.000Z</time>
      </trkpt>
      <trkpt lat="45.96278" lon="6.47702">
        <ele>1922.5999755859</ele>
        <time>2012-11-30T14:26:30.000Z</time>
      </trkpt>
      <trkpt lat="45.9628" lon="6.47689">
        <ele>1919.8000488281</ele>
        <time>2012-11-30T14:26:33.000Z</time>
      </trkpt>
      <trkpt lat="45.96289" lon="6.47686">
        <ele>1917.4000244141</ele>
        <time>2012-11-30T14:26:36.000Z</time>
      </trkpt>
      <trkpt lat="45.96287" lon="6.47675">
        <ele>1916</ele>
        <time>2012-11-30T14:26:38.000Z</time>
      </trkpt>
      <trkpt lat="45.96289" lon="6.47667">
        <ele>1914</ele>
        <time>2012-11-30T14:26:40.000Z</time>
      </trkpt>
      <trkpt lat="45.96299" lon="6.47662">
        <ele>1910.5999755859</ele>
        <time>2012-11-30T14:26:43.000Z</time>
      </trkpt>
      <trkpt lat="45.96299" lon="6.47656">
        <ele>1908.1999511719</ele>
        <time>2012-11-30T14:26:46.000Z</time>
      </trkpt>
      <trkpt lat="45.96297" lon="6.47654">
        <ele>1907.8000488281</ele>
        <time>2012-11-30T14:26:57.000Z</time>
      </trkpt>
      <trkpt lat="45.96304" lon="6.47637">
        <ele>1904.4000244141</ele>
        <time>2012-11-30T14:27:02.000Z</time>
      </trkpt>
      <trkpt lat="45.96301" lon="6.47629">
        <ele>1900.5999755859</ele>
        <time>2012-11-30T14:27:05.000Z</time>
      </trkpt>
      <trkpt lat="45.9629" lon="6.47622">
        <ele>1896.1999511719</ele>
        <time>2012-11-30T14:27:09.000Z</time>
      </trkpt>
      <trkpt lat="45.96294" lon="6.47613">
        <ele>1893.4000244141</ele>
        <time>2012-11-30T14:27:11.000Z</time>
      </trkpt>
      <trkpt lat="45.96297" lon="6.47603">
        <ele>1891</ele>
        <time>2012-11-30T14:27:15.000Z</time>
      </trkpt>
      <trkpt lat="45.96288" lon="6.47597">
        <ele>1887.5999755859</ele>
        <time>2012-11-30T14:27:18.000Z</time>
      </trkpt>
      <trkpt lat="45.96281" lon="6.47595">
        <ele>1885.5999755859</ele>
        <time>2012-11-30T14:27:20.000Z</time>
      </trkpt>
      <trkpt lat="45.96283" lon="6.47581">
        <ele>1881.4000244141</ele>
        <time>2012-11-30T14:27:23.000Z</time>
      </trkpt>
      <trkpt lat="45.96286" lon="6.47577">
        <ele>1880.4000244141</ele>
        <time>2012-11-30T14:27:24.000Z</time>
      </trkpt>
      <trkpt lat="45.96294" lon="6.47567">
        <ele>1878.4000244141</ele>
        <time>2012-11-30T14:27:29.000Z</time>
      </trkpt>
      <trkpt lat="45.96294" lon="6.47568">
        <ele>1878.4000244141</ele>
        <time>2012-11-30T14:27:38.000Z</time>
      </trkpt>
      <trkpt lat="45.96293" lon="6.47565">
        <ele>1879.4000244141</ele>
        <time>2012-11-30T14:28:02.000Z</time>
      </trkpt>
      <trkpt lat="45.9628" lon="6.47557">
        <ele>1876.5999755859</ele>
        <time>2012-11-30T14:28:06.000Z</time>
      </trkpt>
      <trkpt lat="45.96277" lon="6.4755">
        <ele>1873.1999511719</ele>
        <time>2012-11-30T14:28:09.000Z</time>
      </trkpt>
      <trkpt lat="45.9628" lon="6.47543">
        <ele>1871.8000488281</ele>
        <time>2012-11-30T14:28:11.000Z</time>
      </trkpt>
      <trkpt lat="45.96289" lon="6.47528">
        <ele>1867.4000244141</ele>
        <time>2012-11-30T14:28:17.000Z</time>
      </trkpt>
      <trkpt lat="45.96291" lon="6.47525">
        <ele>1866</ele>
        <time>2012-11-30T14:28:19.000Z</time>
      </trkpt>
      <trkpt lat="45.96282" lon="6.47514">
        <ele>1860.5999755859</ele>
        <time>2012-11-30T14:28:23.000Z</time>
      </trkpt>
      <trkpt lat="45.96271" lon="6.47505">
        <ele>1857.4000244141</ele>
        <time>2012-11-30T14:28:27.000Z</time>
      </trkpt>
      <trkpt lat="45.96276" lon="6.47497">
        <ele>1854</ele>
        <time>2012-11-30T14:28:29.000Z</time>
      </trkpt>
      <trkpt lat="45.96283" lon="6.4749">
        <ele>1852</ele>
        <time>2012-11-30T14:28:31.000Z</time>
      </trkpt>
      <trkpt lat="45.96288" lon="6.47484">
        <ele>1850.5999755859</ele>
        <time>2012-11-30T14:28:33.000Z</time>
      </trkpt>
      <trkpt lat="45.96285" lon="6.47468">
        <ele>1845.8000488281</ele>
        <time>2012-11-30T14:28:37.000Z</time>
      </trkpt>
      <trkpt lat="45.96276" lon="6.47463">
        <ele>1842.8000488281</ele>
        <time>2012-11-30T14:28:40.000Z</time>
      </trkpt>
      <trkpt lat="45.96276" lon="6.47462">
        <ele>1842.8000488281</ele>
        <time>2012-11-30T14:28:48.000Z</time>
      </trkpt>
      <trkpt lat="45.96275" lon="6.47461">
        <ele>1842.8000488281</ele>
        <time>2012-11-30T14:28:51.000Z</time>
      </trkpt>
      <trkpt lat="45.96277" lon="6.47451">
        <ele>1839.5999755859</ele>
        <time>2012-11-30T14:28:54.000Z</time>
      </trkpt>
      <trkpt lat="45.96289" lon="6.4744">
        <ele>1837.5999755859</ele>
        <time>2012-11-30T14:28:58.000Z</time>
      </trkpt>
      <trkpt lat="45.96289" lon="6.4744">
        <ele>1836.5999755859</ele>
        <time>2012-11-30T14:29:01.000Z</time>
      </trkpt>
      <trkpt lat="45.9629" lon="6.47442">
        <ele>1835.5999755859</ele>
        <time>2012-11-30T14:29:15.000Z</time>
      </trkpt>
      <trkpt lat="45.9629" lon="6.47441">
        <ele>1836.5999755859</ele>
        <time>2012-11-30T14:29:22.000Z</time>
      </trkpt>
      <trkpt lat="45.96289" lon="6.4744">
        <ele>1837.5999755859</ele>
        <time>2012-11-30T14:29:34.000Z</time>
      </trkpt>
      <trkpt lat="45.96282" lon="6.47429">
        <ele>1833.8000488281</ele>
        <time>2012-11-30T14:29:38.000Z</time>
      </trkpt>
      <trkpt lat="45.96278" lon="6.47417">
        <ele>1830.4000244141</ele>
        <time>2012-11-30T14:29:41.000Z</time>
      </trkpt>
      <trkpt lat="45.96284" lon="6.4741">
        <ele>1828.4000244141</ele>
        <time>2012-11-30T14:29:43.000Z</time>
      </trkpt>
      <trkpt lat="45.96284" lon="6.474">
        <ele>1824.5999755859</ele>
        <time>2012-11-30T14:29:46.000Z</time>
      </trkpt>
      <trkpt lat="45.96278" lon="6.47391">
        <ele>1821.8000488281</ele>
        <time>2012-11-30T14:29:49.000Z</time>
      </trkpt>
      <trkpt lat="45.96283" lon="6.47384">
        <ele>1819.8000488281</ele>
        <time>2012-11-30T14:29:51.000Z</time>
      </trkpt>
      <trkpt lat="45.96286" lon="6.47372">
        <ele>1815</ele>
        <time>2012-11-30T14:29:54.000Z</time>
      </trkpt>
      <trkpt lat="45.96282" lon="6.47361">
        <ele>1811.1999511719</ele>
        <time>2012-11-30T14:29:57.000Z</time>
      </trkpt>
      <trkpt lat="45.96292" lon="6.47348">
        <ele>1805</ele>
        <time>2012-11-30T14:30:01.000Z</time>
      </trkpt>
      <trkpt lat="45.96292" lon="6.47347">
        <ele>1802</ele>
        <time>2012-11-30T14:30:03.000Z</time>
      </trkpt>
      <trkpt lat="45.96293" lon="6.47348">
        <ele>1802</ele>
        <time>2012-11-30T14:30:12.000Z</time>
      </trkpt>
      <trkpt lat="45.96288" lon="6.47341">
        <ele>1801</ele>
        <time>2012-11-30T14:30:18.000Z</time>
      </trkpt>
      <trkpt lat="45.96287" lon="6.47339">
        <ele>1804.4000244141</ele>
        <time>2012-11-30T14:30:30.000Z</time>
      </trkpt>
      <trkpt lat="45.96287" lon="6.47339">
        <ele>1805</ele>
        <time>2012-11-30T14:30:35.000Z</time>
      </trkpt>
      <trkpt lat="45.96286" lon="6.47339">
        <ele>1804.4000244141</ele>
        <time>2012-11-30T14:30:40.000Z</time>
      </trkpt>
      <trkpt lat="45.96284" lon="6.47336">
        <ele>1803</ele>
        <time>2012-11-30T14:30:46.000Z</time>
      </trkpt>
      <trkpt lat="45.96283" lon="6.47334">
        <ele>1801.5999755859</ele>
        <time>2012-11-30T14:30:51.000Z</time>
      </trkpt>
      <trkpt lat="45.96283" lon="6.47335">
        <ele>1800.5999755859</ele>
        <time>2012-11-30T14:30:58.000Z</time>
      </trkpt>
      <trkpt lat="45.96283" lon="6.47335">
        <ele>1800.5999755859</ele>
        <time>2012-11-30T14:31:06.000Z</time>
      </trkpt>
      <trkpt lat="45.96284" lon="6.4733">
        <ele>1798.1999511719</ele>
        <time>2012-11-30T14:31:13.000Z</time>
      </trkpt>
      <trkpt lat="45.96279" lon="6.47324">
        <ele>1795.1999511719</ele>
        <time>2012-11-30T14:31:18.000Z</time>
      </trkpt>
      <trkpt lat="45.96279" lon="6.47324">
        <ele>1794.4000244141</ele>
        <time>2012-11-30T14:31:24.000Z</time>
      </trkpt>
      <trkpt lat="45.96278" lon="6.47323">
        <ele>1793.4000244141</ele>
        <time>2012-11-30T14:31:30.000Z</time>
      </trkpt>
      <trkpt lat="45.96278" lon="6.47321">
        <ele>1792.8000488281</ele>
        <time>2012-11-30T14:31:32.000Z</time>
      </trkpt>
      <trkpt lat="45.96282" lon="6.47315">
        <ele>1791.4000244141</ele>
        <time>2012-11-30T14:31:36.000Z</time>
      </trkpt>
      <trkpt lat="45.96282" lon="6.47315">
        <ele>1791.4000244141</ele>
        <time>2012-11-30T14:31:40.000Z</time>
      </trkpt>
      <trkpt lat="45.96282" lon="6.47315">
        <ele>1791.4000244141</ele>
        <time>2012-11-30T14:31:43.000Z</time>
      </trkpt>
      <trkpt lat="45.96281" lon="6.47315">
        <ele>1791.4000244141</ele>
        <time>2012-11-30T14:31:44.000Z</time>
      </trkpt>
      <trkpt lat="45.96282" lon="6.47313">
        <ele>1791</ele>
        <time>2012-11-30T14:31:50.000Z</time>
      </trkpt>
      <trkpt lat="45.96282" lon="6.47308">
        <ele>1789.5999755859</ele>
        <time>2012-11-30T14:31:53.000Z</time>
      </trkpt>
      <trkpt lat="45.96278" lon="6.47301">
        <ele>1788</ele>
        <time>2012-11-30T14:31:57.000Z</time>
      </trkpt>
      <trkpt lat="45.96282" lon="6.47295">
        <ele>1786.5999755859</ele>
        <time>2012-11-30T14:32:00.000Z</time>
      </trkpt>
      <trkpt lat="45.96295" lon="6.47295">
        <ele>1782.8000488281</ele>
        <time>2012-11-30T14:32:06.000Z</time>
      </trkpt>
      <trkpt lat="45.96297" lon="6.47295">
        <ele>1782.8000488281</ele>
        <time>2012-11-30T14:32:07.000Z</time>
      </trkpt>
      <trkpt lat="45.96299" lon="6.47296">
        <ele>1782.8000488281</ele>
        <time>2012-11-30T14:32:15.000Z</time>
      </trkpt>
      <trkpt lat="45.96302" lon="6.47298">
        <ele>1782.8000488281</ele>
        <time>2012-11-30T14:32:22.000Z</time>
      </trkpt>
      <trkpt lat="45.96308" lon="6.473">
        <ele>1781.4000244141</ele>
        <time>2012-11-30T14:32:28.000Z</time>
      </trkpt>
      <trkpt lat="45.96315" lon="6.47303">
        <ele>1780</ele>
        <time>2012-11-30T14:32:34.000Z</time>
      </trkpt>
      <trkpt lat="45.96318" lon="6.47304">
        <ele>1779.4000244141</ele>
        <time>2012-11-30T14:32:42.000Z</time>
      </trkpt>
      <trkpt lat="45.96322" lon="6.47305">
        <ele>1778.4000244141</ele>
        <time>2012-11-30T14:32:45.000Z</time>
      </trkpt>
      <trkpt lat="45.96323" lon="6.47306">
        <ele>1779</ele>
        <time>2012-11-30T14:32:52.000Z</time>
      </trkpt>
      <trkpt lat="45.96323" lon="6.47305">
        <ele>1778.4000244141</ele>
        <time>2012-11-30T14:32:58.000Z</time>
      </trkpt>
      <trkpt lat="45.96322" lon="6.47305">
        <ele>1779.4000244141</ele>
        <time>2012-11-30T14:33:15.000Z</time>
      </trkpt>
      <trkpt lat="45.96324" lon="6.47306">
        <ele>1779.4000244141</ele>
        <time>2012-11-30T14:33:22.000Z</time>
      </trkpt>
      <trkpt lat="45.96324" lon="6.47306">
        <ele>1779</ele>
        <time>2012-11-30T14:33:27.000Z</time>
      </trkpt>
      <trkpt lat="45.96325" lon="6.47305">
        <ele>1778</ele>
        <time>2012-11-30T14:33:34.000Z</time>
      </trkpt>
      <trkpt lat="45.96327" lon="6.47303">
        <ele>1776</ele>
        <time>2012-11-30T14:33:39.000Z</time>
      </trkpt>
      <trkpt lat="45.96328" lon="6.47301">
        <ele>1775.5999755859</ele>
        <time>2012-11-30T14:33:44.000Z</time>
      </trkpt>
      <trkpt lat="45.96329" lon="6.47298">
        <ele>1773.1999511719</ele>
        <time>2012-11-30T14:33:51.000Z</time>
      </trkpt>
      <trkpt lat="45.96331" lon="6.4729">
        <ele>1770.8000488281</ele>
        <time>2012-11-30T14:33:58.000Z</time>
      </trkpt>
      <trkpt lat="45.96334" lon="6.47283">
        <ele>1768.4000244141</ele>
        <time>2012-11-30T14:34:03.000Z</time>
      </trkpt>
      <trkpt lat="45.96335" lon="6.47283">
        <ele>1768</ele>
        <time>2012-11-30T14:34:08.000Z</time>
      </trkpt>
      <trkpt lat="45.96336" lon="6.47283">
        <ele>1767</ele>
        <time>2012-11-30T14:34:23.000Z</time>
      </trkpt>
      <trkpt lat="45.96336" lon="6.47282">
        <ele>1766.4000244141</ele>
        <time>2012-11-30T14:34:43.000Z</time>
      </trkpt>
      <trkpt lat="45.96337" lon="6.47282">
        <ele>1765.4000244141</ele>
        <time>2012-11-30T14:35:05.000Z</time>
      </trkpt>
      <trkpt lat="45.96337" lon="6.47282">
        <ele>1767</ele>
        <time>2012-11-30T14:35:15.000Z</time>
      </trkpt>
      <trkpt lat="45.96337" lon="6.47282">
        <ele>1767.4000244141</ele>
        <time>2012-11-30T14:35:23.000Z</time>
      </trkpt>
      <trkpt lat="45.96336" lon="6.4728">
        <ele>1768.4000244141</ele>
        <time>2012-11-30T14:35:35.000Z</time>
      </trkpt>
      <trkpt lat="45.96336" lon="6.47275">
        <ele>1767.4000244141</ele>
        <time>2012-11-30T14:36:06.000Z</time>
      </trkpt>
      <trkpt lat="45.96335" lon="6.47267">
        <ele>1766</ele>
        <time>2012-11-30T14:36:12.000Z</time>
      </trkpt>
      <trkpt lat="45.96335" lon="6.47264">
        <ele>1765.4000244141</ele>
        <time>2012-11-30T14:36:14.000Z</time>
      </trkpt>
      <trkpt lat="45.96333" lon="6.47254">
        <ele>1763.5999755859</ele>
        <time>2012-11-30T14:36:20.000Z</time>
      </trkpt>
      <trkpt lat="45.9633" lon="6.47254">
        <ele>1763</ele>
        <time>2012-11-30T14:36:21.000Z</time>
      </trkpt>
      <trkpt lat="45.96319" lon="6.47246">
        <ele>1759.8000488281</ele>
        <time>2012-11-30T14:36:26.000Z</time>
      </trkpt>
      <trkpt lat="45.96321" lon="6.47232">
        <ele>1755.4000244141</ele>
        <time>2012-11-30T14:36:29.000Z</time>
      </trkpt>
      <trkpt lat="45.96318" lon="6.47216">
        <ele>1752</ele>
        <time>2012-11-30T14:36:32.000Z</time>
      </trkpt>
      <trkpt lat="45.96323" lon="6.47203">
        <ele>1747.8000488281</ele>
        <time>2012-11-30T14:36:35.000Z</time>
      </trkpt>
      <trkpt lat="45.96319" lon="6.47189">
        <ele>1744.4000244141</ele>
        <time>2012-11-30T14:36:38.000Z</time>
      </trkpt>
      <trkpt lat="45.96321" lon="6.4718">
        <ele>1742</ele>
        <time>2012-11-30T14:36:40.000Z</time>
      </trkpt>
      <trkpt lat="45.96324" lon="6.47162">
        <ele>1737.1999511719</ele>
        <time>2012-11-30T14:36:44.000Z</time>
      </trkpt>
      <trkpt lat="45.96319" lon="6.47148">
        <ele>1733.8000488281</ele>
        <time>2012-11-30T14:36:47.000Z</time>
      </trkpt>
      <trkpt lat="45.96324" lon="6.47138">
        <ele>1730.4000244141</ele>
        <time>2012-11-30T14:36:49.000Z</time>
      </trkpt>
      <trkpt lat="45.96328" lon="6.47136">
        <ele>1729</ele>
        <time>2012-11-30T14:36:50.000Z</time>
      </trkpt>
      <trkpt lat="45.9634" lon="6.47116">
        <ele>1723.5999755859</ele>
        <time>2012-11-30T14:36:55.000Z</time>
      </trkpt>
      <trkpt lat="45.96335" lon="6.47098">
        <ele>1718.8000488281</ele>
        <time>2012-11-30T14:36:58.000Z</time>
      </trkpt>
      <trkpt lat="45.96341" lon="6.47084">
        <ele>1716</ele>
        <time>2012-11-30T14:37:01.000Z</time>
      </trkpt>
      <trkpt lat="45.96338" lon="6.47069">
        <ele>1711.1999511719</ele>
        <time>2012-11-30T14:37:04.000Z</time>
      </trkpt>
      <trkpt lat="45.96319" lon="6.4704">
        <ele>1704.4000244141</ele>
        <time>2012-11-30T14:37:09.000Z</time>
      </trkpt>
      <trkpt lat="45.96312" lon="6.47017">
        <ele>1699.1999511719</ele>
        <time>2012-11-30T14:37:13.000Z</time>
      </trkpt>
      <trkpt lat="45.96309" lon="6.4699">
        <ele>1693</ele>
        <time>2012-11-30T14:37:17.000Z</time>
      </trkpt>
      <trkpt lat="45.96311" lon="6.46983">
        <ele>1691</ele>
        <time>2012-11-30T14:37:18.000Z</time>
      </trkpt>
      <trkpt lat="45.96318" lon="6.46945">
        <ele>1682.8000488281</ele>
        <time>2012-11-30T14:37:23.000Z</time>
      </trkpt>
      <trkpt lat="45.96318" lon="6.46937">
        <ele>1681</ele>
        <time>2012-11-30T14:37:24.000Z</time>
      </trkpt>
      <trkpt lat="45.96325" lon="6.46909">
        <ele>1676.5999755859</ele>
        <time>2012-11-30T14:37:29.000Z</time>
      </trkpt>
      <trkpt lat="45.96328" lon="6.46889">
        <ele>1675.1999511719</ele>
        <time>2012-11-30T14:37:33.000Z</time>
      </trkpt>
      <trkpt lat="45.96327" lon="6.46866">
        <ele>1673.5999755859</ele>
        <time>2012-11-30T14:37:39.000Z</time>
      </trkpt>
      <trkpt lat="45.96326" lon="6.46833">
        <ele>1671.1999511719</ele>
        <time>2012-11-30T14:37:45.000Z</time>
      </trkpt>
      <trkpt lat="45.96327" lon="6.46812">
        <ele>1668.8000488281</ele>
        <time>2012-11-30T14:37:50.000Z</time>
      </trkpt>
      <trkpt lat="45.96326" lon="6.46786">
        <ele>1664.5999755859</ele>
        <time>2012-11-30T14:37:55.000Z</time>
      </trkpt>
      <trkpt lat="45.96326" lon="6.46759">
        <ele>1659.8000488281</ele>
        <time>2012-11-30T14:38:01.000Z</time>
      </trkpt>
      <trkpt lat="45.96327" lon="6.46731">
        <ele>1656.4000244141</ele>
        <time>2012-11-30T14:38:06.000Z</time>
      </trkpt>
      <trkpt lat="45.96331" lon="6.46703">
        <ele>1651.5999755859</ele>
        <time>2012-11-30T14:38:11.000Z</time>
      </trkpt>
      <trkpt lat="45.96345" lon="6.46678">
        <ele>1647.8000488281</ele>
        <time>2012-11-30T14:38:15.000Z</time>
      </trkpt>
      <trkpt lat="45.96371" lon="6.46653">
        <ele>1644.4000244141</ele>
        <time>2012-11-30T14:38:21.000Z</time>
      </trkpt>
      <trkpt lat="45.96377" lon="6.46636">
        <ele>1639.5999755859</ele>
        <time>2012-11-30T14:38:25.000Z</time>
      </trkpt>
      <trkpt lat="45.96379" lon="6.46621">
        <ele>1635.8000488281</ele>
        <time>2012-11-30T14:38:27.000Z</time>
      </trkpt>
      <trkpt lat="45.96383" lon="6.46583">
        <ele>1628</ele>
        <time>2012-11-30T14:38:32.000Z</time>
      </trkpt>
      <trkpt lat="45.96385" lon="6.46569">
        <ele>1624.5999755859</ele>
        <time>2012-11-30T14:38:35.000Z</time>
      </trkpt>
      <trkpt lat="45.96391" lon="6.46569">
        <ele>1622.8000488281</ele>
        <time>2012-11-30T14:38:37.000Z</time>
      </trkpt>
      <trkpt lat="45.96394" lon="6.46571">
        <ele>1622.1999511719</ele>
        <time>2012-11-30T14:38:38.000Z</time>
      </trkpt>
      <trkpt lat="45.96399" lon="6.46573">
        <ele>1620.8000488281</ele>
        <time>2012-11-30T14:38:43.000Z</time>
      </trkpt>
      <trkpt lat="45.96399" lon="6.46574">
        <ele>1619.8000488281</ele>
        <time>2012-11-30T14:38:49.000Z</time>
      </trkpt>
      <trkpt lat="45.96401" lon="6.46574">
        <ele>1618.4000244141</ele>
        <time>2012-11-30T14:38:54.000Z</time>
      </trkpt>
      <trkpt lat="45.96414" lon="6.46564">
        <ele>1614.5999755859</ele>
        <time>2012-11-30T14:38:59.000Z</time>
      </trkpt>
      <trkpt lat="45.96426" lon="6.46551">
        <ele>1609.8000488281</ele>
        <time>2012-11-30T14:39:05.000Z</time>
      </trkpt>
      <trkpt lat="45.96434" lon="6.46542">
        <ele>1607.4000244141</ele>
        <time>2012-11-30T14:39:10.000Z</time>
      </trkpt>
      <trkpt lat="45.96439" lon="6.46526">
        <ele>1601.5999755859</ele>
        <time>2012-11-30T14:39:14.000Z</time>
      </trkpt>
      <trkpt lat="45.96443" lon="6.46504">
        <ele>1594.8000488281</ele>
        <time>2012-11-30T14:39:18.000Z</time>
      </trkpt>
      <trkpt lat="45.96443" lon="6.46499">
        <ele>1593</ele>
        <time>2012-11-30T14:39:19.000Z</time>
      </trkpt>
      <trkpt lat="45.96442" lon="6.46477">
        <ele>1588.1999511719</ele>
        <time>2012-11-30T14:39:22.000Z</time>
      </trkpt>
      <trkpt lat="45.96451" lon="6.46454">
        <ele>1584.1999511719</ele>
        <time>2012-11-30T14:39:26.000Z</time>
      </trkpt>
      <trkpt lat="45.96453" lon="6.46443">
        <ele>1579</ele>
        <time>2012-11-30T14:39:30.000Z</time>
      </trkpt>
      <trkpt lat="45.9646" lon="6.46416">
        <ele>1572.8000488281</ele>
        <time>2012-11-30T14:39:35.000Z</time>
      </trkpt>
      <trkpt lat="45.96459" lon="6.46403">
        <ele>1568</ele>
        <time>2012-11-30T14:39:37.000Z</time>
      </trkpt>
      <trkpt lat="45.96463" lon="6.46386">
        <ele>1562.5999755859</ele>
        <time>2012-11-30T14:39:40.000Z</time>
      </trkpt>
      <trkpt lat="45.9647" lon="6.46372">
        <ele>1556.4000244141</ele>
        <time>2012-11-30T14:39:43.000Z</time>
      </trkpt>
      <trkpt lat="45.96481" lon="6.46367">
        <ele>1552.5999755859</ele>
        <time>2012-11-30T14:39:46.000Z</time>
      </trkpt>
      <trkpt lat="45.96478" lon="6.46356">
        <ele>1549.1999511719</ele>
        <time>2012-11-30T14:39:48.000Z</time>
      </trkpt>
      <trkpt lat="45.96477" lon="6.46342">
        <ele>1547.8000488281</ele>
        <time>2012-11-30T14:39:50.000Z</time>
      </trkpt>
      <trkpt lat="45.96485" lon="6.46338">
        <ele>1544</ele>
        <time>2012-11-30T14:39:52.000Z</time>
      </trkpt>
      <trkpt lat="45.96501" lon="6.46342">
        <ele>1540.5999755859</ele>
        <time>2012-11-30T14:39:55.000Z</time>
      </trkpt>
      <trkpt lat="45.96511" lon="6.46342">
        <ele>1538.1999511719</ele>
        <time>2012-11-30T14:39:57.000Z</time>
      </trkpt>
      <trkpt lat="45.96525" lon="6.46331">
        <ele>1532.4000244141</ele>
        <time>2012-11-30T14:40:00.000Z</time>
      </trkpt>
      <trkpt lat="45.96527" lon="6.46321">
        <ele>1531</ele>
        <time>2012-11-30T14:40:01.000Z</time>
      </trkpt>
      <trkpt lat="45.96541" lon="6.4629">
        <ele>1524.5999755859</ele>
        <time>2012-11-30T14:40:06.000Z</time>
      </trkpt>
      <trkpt lat="45.96549" lon="6.46287">
        <ele>1523.8000488281</ele>
        <time>2012-11-30T14:40:08.000Z</time>
      </trkpt>
      <trkpt lat="45.9656" lon="6.46273">
        <ele>1518.4000244141</ele>
        <time>2012-11-30T14:40:13.000Z</time>
      </trkpt>
      <trkpt lat="45.96558" lon="6.46268">
        <ele>1517.4000244141</ele>
        <time>2012-11-30T14:40:14.000Z</time>
      </trkpt>
      <trkpt lat="45.9655" lon="6.46259">
        <ele>1515</ele>
        <time>2012-11-30T14:40:16.000Z</time>
      </trkpt>
      <trkpt lat="45.96544" lon="6.46249">
        <ele>1513.1999511719</ele>
        <time>2012-11-30T14:40:18.000Z</time>
      </trkpt>
      <trkpt lat="45.96538" lon="6.46223">
        <ele>1509.8000488281</ele>
        <time>2012-11-30T14:40:23.000Z</time>
      </trkpt>
      <trkpt lat="45.96542" lon="6.46211">
        <ele>1506.4000244141</ele>
        <time>2012-11-30T14:40:25.000Z</time>
      </trkpt>
      <trkpt lat="45.96559" lon="6.46205">
        <ele>1501.1999511719</ele>
        <time>2012-11-30T14:40:28.000Z</time>
      </trkpt>
      <trkpt lat="45.96564" lon="6.4619">
        <ele>1497.8000488281</ele>
        <time>2012-11-30T14:40:30.000Z</time>
      </trkpt>
      <trkpt lat="45.96573" lon="6.46183">
        <ele>1494</ele>
        <time>2012-11-30T14:40:32.000Z</time>
      </trkpt>
      <trkpt lat="45.9658" lon="6.46175">
        <ele>1490.5999755859</ele>
        <time>2012-11-30T14:40:34.000Z</time>
      </trkpt>
      <trkpt lat="45.96589" lon="6.46138">
        <ele>1483.8000488281</ele>
        <time>2012-11-30T14:40:39.000Z</time>
      </trkpt>
      <trkpt lat="45.96595" lon="6.46131">
        <ele>1480.4000244141</ele>
        <time>2012-11-30T14:40:41.000Z</time>
      </trkpt>
      <trkpt lat="45.96609" lon="6.46132">
        <ele>1477.1999511719</ele>
        <time>2012-11-30T14:40:44.000Z</time>
      </trkpt>
      <trkpt lat="45.96621" lon="6.46116">
        <ele>1473.1999511719</ele>
        <time>2012-11-30T14:40:47.000Z</time>
      </trkpt>
      <trkpt lat="45.96633" lon="6.46101">
        <ele>1469.4000244141</ele>
        <time>2012-11-30T14:40:50.000Z</time>
      </trkpt>
      <trkpt lat="45.96638" lon="6.46097">
        <ele>1468</ele>
        <time>2012-11-30T14:40:51.000Z</time>
      </trkpt>
      <trkpt lat="45.96662" lon="6.46077">
        <ele>1462.5999755859</ele>
        <time>2012-11-30T14:40:56.000Z</time>
      </trkpt>
      <trkpt lat="45.96676" lon="6.46067">
        <ele>1457.8000488281</ele>
        <time>2012-11-30T14:41:00.000Z</time>
      </trkpt>
      <trkpt lat="45.96684" lon="6.46059">
        <ele>1454.5999755859</ele>
        <time>2012-11-30T14:41:02.000Z</time>
      </trkpt>
      <trkpt lat="45.96687" lon="6.46053">
        <ele>1453</ele>
        <time>2012-11-30T14:41:03.000Z</time>
      </trkpt>
      <trkpt lat="45.96694" lon="6.46029">
        <ele>1447.4000244141</ele>
        <time>2012-11-30T14:41:06.000Z</time>
      </trkpt>
      <trkpt lat="45.9671" lon="6.45996">
        <ele>1441</ele>
        <time>2012-11-30T14:41:10.000Z</time>
      </trkpt>
      <trkpt lat="45.96717" lon="6.45995">
        <ele>1439.1999511719</ele>
        <time>2012-11-30T14:41:12.000Z</time>
      </trkpt>
      <trkpt lat="45.96716" lon="6.45995">
        <ele>1438.5999755859</ele>
        <time>2012-11-30T14:41:15.000Z</time>
      </trkpt>
      <trkpt lat="45.96715" lon="6.45994">
        <ele>1440</ele>
        <time>2012-11-30T14:41:26.000Z</time>
      </trkpt>
      <trkpt lat="45.96714" lon="6.45992">
        <ele>1440.5999755859</ele>
        <time>2012-11-30T14:41:30.000Z</time>
      </trkpt>
      <trkpt lat="45.96716" lon="6.45994">
        <ele>1440.5999755859</ele>
        <time>2012-11-30T14:41:39.000Z</time>
      </trkpt>
      <trkpt lat="45.96715" lon="6.45994">
        <ele>1442</ele>
        <time>2012-11-30T14:41:56.000Z</time>
      </trkpt>
      <trkpt lat="45.96717" lon="6.45994">
        <ele>1442</ele>
        <time>2012-11-30T14:41:59.000Z</time>
      </trkpt>
      <trkpt lat="45.96728" lon="6.45988">
        <ele>1440.5999755859</ele>
        <time>2012-11-30T14:42:03.000Z</time>
      </trkpt>
      <trkpt lat="45.96749" lon="6.4596">
        <ele>1436.1999511719</ele>
        <time>2012-11-30T14:42:10.000Z</time>
      </trkpt>
      <trkpt lat="45.96755" lon="6.45945">
        <ele>1435.1999511719</ele>
        <time>2012-11-30T14:42:15.000Z</time>
      </trkpt>
      <trkpt lat="45.96753" lon="6.45937">
        <ele>1432.8000488281</ele>
        <time>2012-11-30T14:42:20.000Z</time>
      </trkpt>
      <trkpt lat="45.96752" lon="6.45929">
        <ele>1430</ele>
        <time>2012-11-30T14:42:24.000Z</time>
      </trkpt>
      <trkpt lat="45.96751" lon="6.45927">
        <ele>1430</ele>
        <time>2012-11-30T14:42:25.000Z</time>
      </trkpt>
      <trkpt lat="45.9675" lon="6.45912">
        <ele>1428</ele>
        <time>2012-11-30T14:42:30.000Z</time>
      </trkpt>
      <trkpt lat="45.96756" lon="6.45891">
        <ele>1425.5999755859</ele>
        <time>2012-11-30T14:42:34.000Z</time>
      </trkpt>
      <trkpt lat="45.96768" lon="6.45864">
        <ele>1421.4000244141</ele>
        <time>2012-11-30T14:42:38.000Z</time>
      </trkpt>
      <trkpt lat="45.96773" lon="6.45829">
        <ele>1418.4000244141</ele>
        <time>2012-11-30T14:42:43.000Z</time>
      </trkpt>
      <trkpt lat="45.96774" lon="6.45803">
        <ele>1415.5999755859</ele>
        <time>2012-11-30T14:42:48.000Z</time>
      </trkpt>
      <trkpt lat="45.9677" lon="6.45779">
        <ele>1413.5999755859</ele>
        <time>2012-11-30T14:42:52.000Z</time>
      </trkpt>
      <trkpt lat="45.96762" lon="6.45759">
        <ele>1410.8000488281</ele>
        <time>2012-11-30T14:42:56.000Z</time>
      </trkpt>
      <trkpt lat="45.96761" lon="6.45751">
        <ele>1409.8000488281</ele>
        <time>2012-11-30T14:42:57.000Z</time>
      </trkpt>
      <trkpt lat="45.96762" lon="6.45726">
        <ele>1405.4000244141</ele>
        <time>2012-11-30T14:43:00.000Z</time>
      </trkpt>
      <trkpt lat="45.96771" lon="6.45692">
        <ele>1398.1999511719</ele>
        <time>2012-11-30T14:43:03.000Z</time>
      </trkpt>
      <trkpt lat="45.96782" lon="6.45678">
        <ele>1393.4000244141</ele>
        <time>2012-11-30T14:43:05.000Z</time>
      </trkpt>
      <trkpt lat="45.96786" lon="6.45669">
        <ele>1391</ele>
        <time>2012-11-30T14:43:06.000Z</time>
      </trkpt>
      <trkpt lat="45.96804" lon="6.45619">
        <ele>1378</ele>
        <time>2012-11-30T14:43:11.000Z</time>
      </trkpt>
      <trkpt lat="45.96818" lon="6.45595">
        <ele>1370.8000488281</ele>
        <time>2012-11-30T14:43:14.000Z</time>
      </trkpt>
      <trkpt lat="45.96828" lon="6.45568">
        <ele>1365.1999511719</ele>
        <time>2012-11-30T14:43:17.000Z</time>
      </trkpt>
      <trkpt lat="45.96838" lon="6.45545">
        <ele>1360.4000244141</ele>
        <time>2012-11-30T14:43:20.000Z</time>
      </trkpt>
      <trkpt lat="45.96843" lon="6.4554">
        <ele>1358.8000488281</ele>
        <time>2012-11-30T14:43:21.000Z</time>
      </trkpt>
      <trkpt lat="45.96864" lon="6.45504">
        <ele>1350.5999755859</ele>
        <time>2012-11-30T14:43:26.000Z</time>
      </trkpt>
      <trkpt lat="45.96873" lon="6.45476">
        <ele>1346.4000244141</ele>
        <time>2012-11-30T14:43:30.000Z</time>
      </trkpt>
      <trkpt lat="45.96877" lon="6.45457">
        <ele>1343</ele>
        <time>2012-11-30T14:43:33.000Z</time>
      </trkpt>
      <trkpt lat="45.96872" lon="6.45445">
        <ele>1342.5999755859</ele>
        <time>2012-11-30T14:43:35.000Z</time>
      </trkpt>
      <trkpt lat="45.96865" lon="6.45436">
        <ele>1344</ele>
        <time>2012-11-30T14:43:42.000Z</time>
      </trkpt>
      <trkpt lat="45.96863" lon="6.45434">
        <ele>1345</ele>
        <time>2012-11-30T14:43:46.000Z</time>
      </trkpt>
      <trkpt lat="45.9686" lon="6.45428">
        <ele>1345</ele>
        <time>2012-11-30T14:43:50.000Z</time>
      </trkpt>
      <trkpt lat="45.9685" lon="6.45407">
        <ele>1342.5999755859</ele>
        <time>2012-11-30T14:43:55.000Z</time>
      </trkpt>
      <trkpt lat="45.96845" lon="6.45379">
        <ele>1338.5999755859</ele>
        <time>2012-11-30T14:43:59.000Z</time>
      </trkpt>
      <trkpt lat="45.96845" lon="6.45371">
        <ele>1338.1999511719</ele>
        <time>2012-11-30T14:44:00.000Z</time>
      </trkpt>
      <trkpt lat="45.96853" lon="6.45341">
        <ele>1334.4000244141</ele>
        <time>2012-11-30T14:44:05.000Z</time>
      </trkpt>
      <trkpt lat="45.96861" lon="6.45331">
        <ele>1331.4000244141</ele>
        <time>2012-11-30T14:44:07.000Z</time>
      </trkpt>
      <trkpt lat="45.96867" lon="6.45302">
        <ele>1326.1999511719</ele>
        <time>2012-11-30T14:44:11.000Z</time>
      </trkpt>
      <trkpt lat="45.96873" lon="6.4529">
        <ele>1323.8000488281</ele>
        <time>2012-11-30T14:44:13.000Z</time>
      </trkpt>
      <trkpt lat="45.9688" lon="6.45272">
        <ele>1319.4000244141</ele>
        <time>2012-11-30T14:44:16.000Z</time>
      </trkpt>
      <trkpt lat="45.96872" lon="6.45252">
        <ele>1316.5999755859</ele>
        <time>2012-11-30T14:44:19.000Z</time>
      </trkpt>
      <trkpt lat="45.96862" lon="6.45243">
        <ele>1315.5999755859</ele>
        <time>2012-11-30T14:44:22.000Z</time>
      </trkpt>
      <trkpt lat="45.96858" lon="6.45238">
        <ele>1314.5999755859</ele>
        <time>2012-11-30T14:44:26.000Z</time>
      </trkpt>
      <trkpt lat="45.96852" lon="6.45225">
        <ele>1312.8000488281</ele>
        <time>2012-11-30T14:44:30.000Z</time>
      </trkpt>
      <trkpt lat="45.96847" lon="6.45217">
        <ele>1310.8000488281</ele>
        <time>2012-11-30T14:44:32.000Z</time>
      </trkpt>
      <trkpt lat="45.96831" lon="6.45206">
        <ele>1308.8000488281</ele>
        <time>2012-11-30T14:44:37.000Z</time>
      </trkpt>
      <trkpt lat="45.96831" lon="6.45195">
        <ele>1306.4000244141</ele>
        <time>2012-11-30T14:44:39.000Z</time>
      </trkpt>
      <trkpt lat="45.96829" lon="6.45183">
        <ele>1304</ele>
        <time>2012-11-30T14:44:41.000Z</time>
      </trkpt>
      <trkpt lat="45.9682" lon="6.45168">
        <ele>1300.8000488281</ele>
        <time>2012-11-30T14:44:44.000Z</time>
      </trkpt>
      <trkpt lat="45.96827" lon="6.45162">
        <ele>1298.8000488281</ele>
        <time>2012-11-30T14:44:46.000Z</time>
      </trkpt>
      <trkpt lat="45.96829" lon="6.45152">
        <ele>1295</ele>
        <time>2012-11-30T14:44:50.000Z</time>
      </trkpt>
      <trkpt lat="45.96837" lon="6.45148">
        <ele>1292.5999755859</ele>
        <time>2012-11-30T14:44:54.000Z</time>
      </trkpt>
      <trkpt lat="45.96847" lon="6.45153">
        <ele>1291</ele>
        <time>2012-11-30T14:44:59.000Z</time>
      </trkpt>
      <trkpt lat="45.96863" lon="6.45161">
        <ele>1290.1999511719</ele>
        <time>2012-11-30T14:45:06.000Z</time>
      </trkpt>
      <trkpt lat="45.96868" lon="6.45163">
        <ele>1289.5999755859</ele>
        <time>2012-11-30T14:45:08.000Z</time>
      </trkpt>
      <trkpt lat="45.96871" lon="6.45163">
        <ele>1288.5999755859</ele>
        <time>2012-11-30T14:45:13.000Z</time>
      </trkpt>
      <trkpt lat="45.9688" lon="6.45152">
        <ele>1285.8000488281</ele>
        <time>2012-11-30T14:45:17.000Z</time>
      </trkpt>
      <trkpt lat="45.96882" lon="6.45145">
        <ele>1284.8000488281</ele>
        <time>2012-11-30T14:45:18.000Z</time>
      </trkpt>
      <trkpt lat="45.96879" lon="6.45114">
        <ele>1280.5999755859</ele>
        <time>2012-11-30T14:45:21.000Z</time>
      </trkpt>
      <trkpt lat="45.96879" lon="6.45106">
        <ele>1278.5999755859</ele>
        <time>2012-11-30T14:45:22.000Z</time>
      </trkpt>
      <trkpt lat="45.96881" lon="6.4507">
        <ele>1270</ele>
        <time>2012-11-30T14:45:26.000Z</time>
      </trkpt>
      <trkpt lat="45.96891" lon="6.45051">
        <ele>1264.1999511719</ele>
        <time>2012-11-30T14:45:30.000Z</time>
      </trkpt>
      <trkpt lat="45.96892" lon="6.45051">
        <ele>1263.1999511719</ele>
        <time>2012-11-30T14:45:31.000Z</time>
      </trkpt>
      <trkpt lat="45.96894" lon="6.45052">
        <ele>1261.8000488281</ele>
        <time>2012-11-30T14:45:40.000Z</time>
      </trkpt>
      <trkpt lat="45.96892" lon="6.45052">
        <ele>1260.8000488281</ele>
        <time>2012-11-30T14:45:51.000Z</time>
      </trkpt>
      <trkpt lat="45.96894" lon="6.4505">
        <ele>1260.4000244141</ele>
        <time>2012-11-30T14:45:53.000Z</time>
      </trkpt>
      <trkpt lat="45.96896" lon="6.45033">
        <ele>1257</ele>
        <time>2012-11-30T14:45:57.000Z</time>
      </trkpt>
      <trkpt lat="45.96905" lon="6.45024">
        <ele>1255</ele>
        <time>2012-11-30T14:46:01.000Z</time>
      </trkpt>
      <trkpt lat="45.96909" lon="6.45017">
        <ele>1253.5999755859</ele>
        <time>2012-11-30T14:46:05.000Z</time>
      </trkpt>
      <trkpt lat="45.96909" lon="6.45017">
        <ele>1253.5999755859</ele>
        <time>2012-11-30T14:46:07.000Z</time>
      </trkpt>
    </trkseg>
  </trk>
</gpx>